
Distance (Route):
Temperature : 0°C
Humidity : 0%
Pressure : 0hPa| Receiver | Frames | First received | Last received |
|---|---|---|---|
| MIELECB | 301 | 2026-09-04 11:25:57 | 2026-09-04 12:05:12 |
| SQ9PSP-11 | 188 | 2026-09-04 11:21:14 | 2026-09-04 12:21:48 |
| SQ9EZE-12 | 105 | 2026-09-04 11:22:01 | 2026-09-04 12:02:18 |
| AKAW68 | 101 | 2026-09-04 11:19:01 | 2026-09-04 12:04:40 |
| SP9KGR-15 | 81 | 2026-09-04 11:22:02 | 2026-09-04 12:02:45 |
| SP9SOS | 77 | 2026-09-04 11:39:18 | 2026-09-04 12:22:41 |
| AKAW682 | 56 | 2026-09-04 11:27:11 | 2026-09-04 11:58:33 |
| SQ9EZE-14 | 2 | 2026-09-04 11:25:12 | 2026-09-04 11:25:27 |
| GYPAP8-17 | 1 | 2026-09-04 11:43:52 | 2026-09-04 11:43:52 |
| Receiver | Date | Latitude | Longitude | Direction | Speed | Altitude | Climb | Temperature | Humidity | Pressure | Voltage | Killtimer | Uptime | BKT | XDATA |
|---|---|---|---|---|---|---|---|---|---|---|---|---|---|---|---|
| SP9SOS | 2026-09-04 12:22:41 | 49.66737 | 21.91647 | 74° | 33km/h | 1476m | -3.9m/s | 0°C | 0% | 0hPa | 0V | 00:00:00 | 00:00:00 | 00:00:00 | |
| SP9SOS | 2026-09-04 12:22:09 | 49.66655 | 21.91181 | 77° | 42km/h | 1565m | -2.6m/s | 0°C | 0% | 0hPa | 0V | 00:00:00 | 00:00:00 | 00:00:00 | |
| SQ9PSP-11 | 2026-09-04 12:21:48 | 49.66610 | 21.90851 | 79° | 42km/h | 1610m | -1.4m/s | 0°C | 0% | 0hPa | 0V | 00:00:00 | 00:00:00 | 00:00:00 | |
| SP9SOS | 2026-09-04 12:21:42 | 49.66600 | 21.90754 | 78° | 40km/h | 1625m | -2.4m/s | 0°C | 0% | 0hPa | 0V | 00:00:00 | 00:00:00 | 00:00:00 | |
| SQ9PSP-11 | 2026-09-04 12:21:32 | 49.66575 | 21.90588 | 80° | 46km/h | 1651m | -3.5m/s | 0°C | 0% | 0hPa | 0V | 00:00:00 | 00:00:00 | 00:00:00 | |
| SP9SOS | 2026-09-04 12:21:17 | 49.66543 | 21.90329 | 85° | 47km/h | 1694m | -2.2m/s | 0°C | 0% | 0hPa | 0V | 00:00:00 | 00:00:00 | 00:00:00 | |
| SP9SOS | 2026-09-04 12:20:52 | 49.66497 | 21.89887 | 80° | 44km/h | 1771m | -1.6m/s | 0°C | 0% | 0hPa | 0V | 00:00:00 | 00:00:00 | 00:00:00 | |
| SQ9PSP-11 | 2026-09-04 12:20:50 | 49.66493 | 21.89851 | 79° | 47km/h | 1777m | -3.0m/s | 0°C | 0% | 0hPa | 0V | 00:00:00 | 00:00:00 | 00:00:00 | |
| SQ9PSP-11 | 2026-09-04 12:20:34 | 49.66460 | 21.89556 | 80° | 46km/h | 1837m | -2.2m/s | 0°C | 0% | 0hPa | 0V | 00:00:00 | 00:00:00 | 00:00:00 | |
| SP9SOS | 2026-09-04 12:20:27 | 49.66447 | 21.89449 | 77° | 46km/h | 1857m | -3.8m/s | 0°C | 0% | 0hPa | 0V | 00:00:00 | 00:00:00 | 00:00:00 | |
| SP9SOS | 2026-09-04 12:20:01 | 49.66407 | 21.88998 | 89° | 46km/h | 1953m | -3.1m/s | 0°C | 0% | 0hPa | 0V | 00:00:00 | 00:00:00 | 00:00:00 | |
| SP9SOS | 2026-09-04 12:19:35 | 49.66387 | 21.88546 | 84° | 46km/h | 2039m | -3.2m/s | 0°C | 0% | 0hPa | 0V | 00:00:00 | 00:00:00 | 00:00:00 | |
| SQ9PSP-11 | 2026-09-04 12:19:10 | 49.66363 | 21.88117 | 84° | 46km/h | 2109m | -3.0m/s | 0°C | 0% | 0hPa | 0V | 00:00:00 | 00:00:00 | 00:00:00 | |
| SP9SOS | 2026-09-04 12:19:09 | 49.66361 | 21.88099 | 86° | 47km/h | 2112m | -2.3m/s | 0°C | 0% | 0hPa | 0V | 00:00:00 | 00:00:00 | 00:00:00 | |
| SQ9PSP-11 | 2026-09-04 12:18:49 | 49.66340 | 21.87724 | 87° | 49km/h | 2164m | -1.5m/s | 0°C | 0% | 0hPa | 0V | 00:00:00 | 00:00:00 | 00:00:00 | |
| SP9SOS | 2026-09-04 12:18:44 | 49.66336 | 21.87631 | 91° | 47km/h | 2174m | -1.4m/s | 0°C | 0% | 0hPa | 0V | 00:00:00 | 00:00:00 | 00:00:00 | |
| SP9SOS | 2026-09-04 12:18:18 | 49.66319 | 21.87145 | 86° | 49km/h | 2235m | -1.9m/s | 0°C | 0% | 0hPa | 0V | 00:00:00 | 00:00:00 | 00:00:00 | |
| SQ9PSP-11 | 2026-09-04 12:17:57 | 49.66307 | 21.86720 | 90° | 53km/h | 2289m | -2.0m/s | 0°C | 0% | 0hPa | 0V | 00:00:00 | 00:00:00 | 00:00:00 | |
| SP9SOS | 2026-09-04 12:17:53 | 49.66304 | 21.86640 | 86° | 53km/h | 2298m | -2.0m/s | 0°C | 0% | 0hPa | 0V | 00:00:00 | 00:00:00 | 00:00:00 | |
| SQ9PSP-11 | 2026-09-04 12:17:27 | 49.66297 | 21.86105 | 91° | 51km/h | 2360m | -1.9m/s | 0°C | 0% | 0hPa | 0V | 00:00:00 | 00:00:00 | 00:00:00 | |
| SQ9PSP-11 | 2026-09-04 12:17:01 | 49.66326 | 21.85584 | 99° | 55km/h | 2415m | -1.3m/s | 0°C | 0% | 0hPa | 0V | 00:00:00 | 00:00:00 | 00:00:00 | |
| SP9SOS | 2026-09-04 12:16:36 | 49.66379 | 21.85094 | 104° | 49km/h | 2459m | -0.9m/s | 0°C | 0% | 0hPa | 0V | 00:00:00 | 00:00:00 | 00:00:00 | |
| SP9SOS | 2026-09-04 12:16:11 | 49.66451 | 21.84595 | 101° | 53km/h | 2488m | 0.2m/s | 0°C | 0% | 0hPa | 0V | 00:00:00 | 00:00:00 | 00:00:00 | |
| SP9SOS | 2026-09-04 12:15:46 | 49.66513 | 21.84084 | 100° | 53km/h | 2510m | -0.2m/s | 0°C | 0% | 0hPa | 0V | 00:00:00 | 00:00:00 | 00:00:00 | |
| SQ9PSP-11 | 2026-09-04 12:15:38 | 49.66529 | 21.83915 | 99° | 55km/h | 2519m | -0.1m/s | 0°C | 0% | 0hPa | 0V | 00:00:00 | 00:00:00 | 00:00:00 | |
| SP9SOS | 2026-09-04 12:15:21 | 49.66560 | 21.83560 | 99° | 55km/h | 2533m | -0.2m/s | 0°C | 0% | 0hPa | 0V | 00:00:00 | 00:00:00 | 00:00:00 | |
| SQ9PSP-11 | 2026-09-04 12:15:09 | 49.66579 | 21.83311 | 98° | 53km/h | 2549m | 0.2m/s | 0°C | 0% | 0hPa | 0V | 00:00:00 | 00:00:00 | 00:00:00 | |
| SP9SOS | 2026-09-04 12:14:56 | 49.66592 | 21.83036 | 95° | 55km/h | 2565m | -0.5m/s | 0°C | 0% | 0hPa | 0V | 00:00:00 | 00:00:00 | 00:00:00 | |
| SQ9PSP-11 | 2026-09-04 12:14:52 | 49.66594 | 21.82951 | 92° | 55km/h | 2572m | -1.7m/s | 0°C | 0% | 0hPa | 0V | 00:00:00 | 00:00:00 | 00:00:00 | |
| SQ9PSP-11 | 2026-09-04 12:14:35 | 49.66597 | 21.82596 | 94° | 55km/h | 2599m | 0.1m/s | 0°C | 0% | 0hPa | 0V | 00:00:00 | 00:00:00 | 00:00:00 | |
| SP9SOS | 2026-09-04 12:14:30 | 49.66599 | 21.82491 | 90° | 49km/h | 2605m | -1.1m/s | 0°C | 0% | 0hPa | 0V | 00:00:00 | 00:00:00 | 00:00:00 | |
| SQ9PSP-11 | 2026-09-04 12:14:18 | 49.66599 | 21.82246 | 89° | 55km/h | 2628m | -0.4m/s | 0°C | 0% | 0hPa | 0V | 00:00:00 | 00:00:00 | 00:00:00 | |
| SP9SOS | 2026-09-04 12:14:04 | 49.66599 | 21.81957 | 93° | 55km/h | 2653m | -2.4m/s | 0°C | 0% | 0hPa | 0V | 00:00:00 | 00:00:00 | 00:00:00 | |
| SQ9PSP-11 | 2026-09-04 12:14:02 | 49.66599 | 21.81914 | 88° | 55km/h | 2657m | -1.8m/s | 0°C | 0% | 0hPa | 0V | 00:00:00 | 00:00:00 | 00:00:00 | |
| SQ9PSP-11 | 2026-09-04 12:13:46 | 49.66598 | 21.81579 | 88° | 57km/h | 2688m | -0.8m/s | 0°C | 0% | 0hPa | 0V | 00:00:00 | 00:00:00 | 00:00:00 | |
| SP9SOS | 2026-09-04 12:13:39 | 49.66596 | 21.81427 | 92° | 53km/h | 2703m | -0.9m/s | 0°C | 0% | 0hPa | 0V | 00:00:00 | 00:00:00 | 00:00:00 | |
| SQ9PSP-11 | 2026-09-04 12:13:31 | 49.66597 | 21.81260 | 91° | 55km/h | 2723m | -1.0m/s | 0°C | 0% | 0hPa | 0V | 00:00:00 | 00:00:00 | 00:00:00 | |
| SQ9PSP-11 | 2026-09-04 12:13:15 | 49.66588 | 21.80919 | 88° | 53km/h | 2760m | -1.8m/s | 0°C | 0% | 0hPa | 0V | 00:00:00 | 00:00:00 | 00:00:00 | |
| SP9SOS | 2026-09-04 12:13:14 | 49.66587 | 21.80899 | 88° | 51km/h | 2763m | -0.7m/s | 0°C | 0% | 0hPa | 0V | 00:00:00 | 00:00:00 | 00:00:00 | |
| SQ9PSP-11 | 2026-09-04 12:13:00 | 49.66580 | 21.80590 | 89° | 58km/h | 2796m | -1.3m/s | 0°C | 0% | 0hPa | 0V | 00:00:00 | 00:00:00 | 00:00:00 | |
| SP9SOS | 2026-09-04 12:12:48 | 49.66574 | 21.80320 | 90° | 57km/h | 2828m | -1.1m/s | 0°C | 0% | 0hPa | 0V | 00:00:00 | 00:00:00 | 00:00:00 | |
| SQ9PSP-11 | 2026-09-04 12:12:44 | 49.66572 | 21.80230 | 86° | 58km/h | 2837m | -2.1m/s | 0°C | 0% | 0hPa | 0V | 00:00:00 | 00:00:00 | 00:00:00 | |
| SQ9PSP-11 | 2026-09-04 12:12:29 | 49.66563 | 21.79890 | 91° | 58km/h | 2877m | -1.5m/s | 0°C | 0% | 0hPa | 0V | 00:00:00 | 00:00:00 | 00:00:00 | |
| SP9SOS | 2026-09-04 12:12:24 | 49.66564 | 21.79756 | 92° | 57km/h | 2892m | -2.0m/s | 0°C | 0% | 0hPa | 0V | 00:00:00 | 00:00:00 | 00:00:00 | |
| SQ9PSP-11 | 2026-09-04 12:12:13 | 49.66568 | 21.79520 | 91° | 60km/h | 2918m | -2.1m/s | 0°C | 0% | 0hPa | 0V | 00:00:00 | 00:00:00 | 00:00:00 | |
| SP9SOS | 2026-09-04 12:11:57 | 49.66581 | 21.79145 | 93° | 64km/h | 2961m | -1.8m/s | 0°C | 0% | 0hPa | 0V | 00:00:00 | 00:00:00 | 00:00:00 | |
| SQ9PSP-11 | 2026-09-04 12:11:56 | 49.66582 | 21.79120 | 96° | 64km/h | 2964m | -2.6m/s | 0°C | 0% | 0hPa | 0V | 00:00:00 | 00:00:00 | 00:00:00 | |
| SQ9PSP-11 | 2026-09-04 12:11:40 | 49.66605 | 21.78737 | 95° | 62km/h | 3012m | -1.7m/s | 0°C | 0% | 0hPa | 0V | 00:00:00 | 00:00:00 | 00:00:00 | |
| SP9SOS | 2026-09-04 12:11:31 | 49.66624 | 21.78519 | 97° | 58km/h | 3034m | -2.0m/s | 0°C | 0% | 0hPa | 0V | 00:00:00 | 00:00:00 | 00:00:00 | |
| SQ9PSP-11 | 2026-09-04 12:11:24 | 49.66642 | 21.78355 | 99° | 62km/h | 3055m | -1.6m/s | 0°C | 0% | 0hPa | 0V | 00:00:00 | 00:00:00 | 00:00:00 | |
| SQ9PSP-11 | 2026-09-04 12:11:08 | 49.66682 | 21.77964 | 99° | 66km/h | 3099m | -2.4m/s | 0°C | 0% | 0hPa | 0V | 00:00:00 | 00:00:00 | 00:00:00 | |
| SP9SOS | 2026-09-04 12:11:06 | 49.66688 | 21.77914 | 102° | 66km/h | 3106m | -1.7m/s | 0°C | 0% | 0hPa | 0V | 00:00:00 | 00:00:00 | 00:00:00 | |
| SQ9PSP-11 | 2026-09-04 12:10:52 | 49.66734 | 21.77575 | 107° | 64km/h | 3139m | -1.8m/s | 0°C | 0% | 0hPa | 0V | 00:00:00 | 00:00:00 | 00:00:00 | |
| SP9SOS | 2026-09-04 12:10:41 | 49.66782 | 21.77318 | 106° | 60km/h | 3169m | -2.0m/s | 0°C | 0% | 0hPa | 0V | 00:00:00 | 00:00:00 | 00:00:00 | |
| SQ9PSP-11 | 2026-09-04 12:10:15 | 49.66920 | 21.76701 | 111° | 68km/h | 3244m | -2.3m/s | 0°C | 0% | 0hPa | 0V | 00:00:00 | 00:00:00 | 00:00:00 | |
| SQ9PSP-11 | 2026-09-04 12:09:59 | 49.67024 | 21.76324 | 116° | 66km/h | 3288m | -2.1m/s | 0°C | 0% | 0hPa | 0V | 00:00:00 | 00:00:00 | 00:00:00 | |
| SP9SOS | 2026-09-04 12:09:50 | 49.67089 | 21.76110 | 121° | 68km/h | 3311m | -1.0m/s | 0°C | 0% | 0hPa | 0V | 00:00:00 | 00:00:00 | 00:00:00 | |
| SQ9PSP-11 | 2026-09-04 12:09:38 | 49.67182 | 21.75829 | 118° | 68km/h | 3344m | -1.9m/s | 0°C | 0% | 0hPa | 0V | 00:00:00 | 00:00:00 | 00:00:00 | |
| SQ9PSP-11 | 2026-09-04 12:09:22 | 49.67320 | 21.75457 | 123° | 68km/h | 3387m | -2.0m/s | 0°C | 0% | 0hPa | 0V | 00:00:00 | 00:00:00 | 00:00:00 | |
| SP9SOS | 2026-09-04 12:09:15 | 49.67395 | 21.75276 | 124° | 71km/h | 3410m | -2.5m/s | 0°C | 0% | 0hPa | 0V | 00:00:00 | 00:00:00 | 00:00:00 | |
| SQ9PSP-11 | 2026-09-04 12:09:06 | 49.67474 | 21.75090 | 124° | 73km/h | 3434m | -2.8m/s | 0°C | 0% | 0hPa | 0V | 00:00:00 | 00:00:00 | 00:00:00 | |
| SQ9PSP-11 | 2026-09-04 12:08:50 | 49.67642 | 21.74725 | 126° | 69km/h | 3479m | -1.9m/s | 0°C | 0% | 0hPa | 0V | 00:00:00 | 00:00:00 | 00:00:00 | |
| SP9SOS | 2026-09-04 12:08:48 | 49.67662 | 21.74681 | 127° | 71km/h | 3485m | -2.2m/s | 0°C | 0% | 0hPa | 0V | 00:00:00 | 00:00:00 | 00:00:00 | |
| SQ9PSP-11 | 2026-09-04 12:08:34 | 49.67813 | 21.74366 | 128° | 73km/h | 3526m | -2.4m/s | 0°C | 0% | 0hPa | 0V | 00:00:00 | 00:00:00 | 00:00:00 | |
| SP9SOS | 2026-09-04 12:08:22 | 49.67945 | 21.74079 | 125° | 77km/h | 3563m | -2.4m/s | 0°C | 0% | 0hPa | 0V | 00:00:00 | 00:00:00 | 00:00:00 | |
| SQ9PSP-11 | 2026-09-04 12:08:19 | 49.67978 | 21.74006 | 128° | 75km/h | 3574m | -2.3m/s | 0°C | 0% | 0hPa | 0V | 00:00:00 | 00:00:00 | 00:00:00 | |
| SQ9PSP-11 | 2026-09-04 12:08:04 | 49.68155 | 21.73626 | 124° | 80km/h | 3623m | -3.0m/s | 0°C | 0% | 0hPa | 0V | 00:00:00 | 00:00:00 | 00:00:00 | |
| SP9SOS | 2026-09-04 12:07:57 | 49.68238 | 21.73444 | 128° | 82km/h | 3644m | -2.0m/s | 0°C | 0% | 0hPa | 0V | 00:00:00 | 00:00:00 | 00:00:00 | |
| SQ9PSP-11 | 2026-09-04 12:07:48 | 49.68344 | 21.73213 | 128° | 80km/h | 3672m | -1.7m/s | 0°C | 0% | 0hPa | 0V | 00:00:00 | 00:00:00 | 00:00:00 | |
| SQ9PSP-11 | 2026-09-04 12:07:33 | 49.68527 | 21.72837 | 127° | 82km/h | 3724m | -2.3m/s | 0°C | 0% | 0hPa | 0V | 00:00:00 | 00:00:00 | 00:00:00 | |
| SP9SOS | 2026-09-04 12:07:31 | 49.68551 | 21.72784 | 125° | 80km/h | 3730m | -2.5m/s | 0°C | 0% | 0hPa | 0V | 00:00:00 | 00:00:00 | 00:00:00 | |
| SQ9PSP-11 | 2026-09-04 12:07:18 | 49.68706 | 21.72451 | 127° | 80km/h | 3771m | -2.8m/s | 0°C | 0% | 0hPa | 0V | 00:00:00 | 00:00:00 | 00:00:00 | |
| SP9SOS | 2026-09-04 12:07:05 | 49.68867 | 21.72123 | 124° | 84km/h | 3819m | -3.4m/s | 0°C | 0% | 0hPa | 0V | 00:00:00 | 00:00:00 | 00:00:00 | |
| SQ9PSP-11 | 2026-09-04 12:07:02 | 49.68903 | 21.72045 | 130° | 78km/h | 3832m | -2.0m/s | 0°C | 0% | 0hPa | 0V | 00:00:00 | 00:00:00 | 00:00:00 | |
| SQ9PSP-11 | 2026-09-04 12:06:47 | 49.69089 | 21.71666 | 132° | 82km/h | 3890m | -2.6m/s | 0°C | 0% | 0hPa | 0V | 00:00:00 | 00:00:00 | 00:00:00 | |
| SP9SOS | 2026-09-04 12:06:27 | 49.69345 | 21.71152 | 128° | 82km/h | 3953m | -2.9m/s | 0°C | 0% | 0hPa | 0V | 00:00:00 | 00:00:00 | 00:00:00 | |
| SQ9PSP-11 | 2026-09-04 12:06:15 | 49.69501 | 21.70844 | 127° | 84km/h | 3991m | -3.6m/s | 0°C | 0% | 0hPa | 0V | 00:00:00 | 00:00:00 | 00:00:00 | |
| SP9SOS | 2026-09-04 12:06:02 | 49.69660 | 21.70518 | 127° | 75km/h | 4036m | -2.8m/s | 0°C | 0% | 0hPa | 0V | 00:00:00 | 00:00:00 | 00:00:00 | |
| SQ9PSP-11 | 2026-09-04 12:06:00 | 49.69683 | 21.70473 | 133° | 77km/h | 4043m | -3.1m/s | 0°C | 0% | 0hPa | 0V | 00:00:00 | 00:00:00 | 00:00:00 | |
| SQ9PSP-11 | 2026-09-04 12:05:45 | 49.69880 | 21.70100 | 132° | 84km/h | 4087m | -3.4m/s | 0°C | 0% | 0hPa | 0V | 00:00:00 | 00:00:00 | 00:00:00 | |
| SP9SOS | 2026-09-04 12:05:36 | 49.70001 | 21.69861 | 125° | 89km/h | 4113m | -1.2m/s | 0°C | 0% | 0hPa | 0V | 00:00:00 | 00:00:00 | 00:00:00 | |
| SQ9PSP-11 | 2026-09-04 12:05:29 | 49.70086 | 21.69680 | 133° | 78km/h | 4134m | -2.6m/s | 0°C | 0% | 0hPa | 0V | 00:00:00 | 00:00:00 | 00:00:00 | |
| SQ9PSP-11 | 2026-09-04 12:05:13 | 49.70304 | 21.69279 | 124° | 86km/h | 4181m | -2.5m/s | 0°C | 0% | 0hPa | 0V | 00:00:00 | 00:00:00 | 00:00:00 | |
| MIELECB | 2026-09-04 12:05:12 | 49.70316 | 21.69251 | 124° | 80km/h | 4184m | -3.1m/s | 0°C | 0% | 0hPa | 0V | 00:00:00 | 00:00:00 | 00:00:00 | |
| SP9SOS | 2026-09-04 12:05:10 | 49.70339 | 21.69200 | 127° | 78km/h | 4189m | -1.6m/s | 0°C | 0% | 0hPa | 0V | 00:00:00 | 00:00:00 | 00:00:00 | |
| MIELECB | 2026-09-04 12:05:04 | 49.70420 | 21.69060 | 137° | 86km/h | 4206m | -2.9m/s | 0°C | 0% | 0hPa | 0V | 00:00:00 | 00:00:00 | 00:00:00 | |
| SQ9PSP-11 | 2026-09-04 12:04:58 | 49.70506 | 21.68900 | 125° | 84km/h | 4223m | -2.4m/s | 0°C | 0% | 0hPa | 0V | 00:00:00 | 00:00:00 | 00:00:00 | |
| MIELECB | 2026-09-04 12:04:57 | 49.70518 | 21.68874 | 128° | 84km/h | 4226m | -2.1m/s | 0°C | 0% | 0hPa | 0V | 00:00:00 | 00:00:00 | 00:00:00 | |
| MIELECB | 2026-09-04 12:04:52 | 49.70582 | 21.68752 | 134° | 86km/h | 4241m | -1.8m/s | 0°C | 0% | 0hPa | 0V | 00:00:00 | 00:00:00 | 00:00:00 | |
| MIELECB | 2026-09-04 12:04:46 | 49.70669 | 21.68584 | 127° | 89km/h | 4256m | -2.1m/s | 0°C | 0% | 0hPa | 0V | 00:00:00 | 00:00:00 | 00:00:00 | |
| SP9SOS | 2026-09-04 12:04:44 | 49.70696 | 21.68528 | 127° | 84km/h | 4262m | -2.1m/s | 0°C | 0% | 0hPa | 0V | 00:00:00 | 00:00:00 | 00:00:00 | |
| SQ9PSP-11 | 2026-09-04 12:04:42 | 49.70721 | 21.68479 | 131° | 78km/h | 4267m | -2.0m/s | 0°C | 0% | 0hPa | 0V | 00:00:00 | 00:00:00 | 00:00:00 | |
| AKAW68 | 2026-09-04 12:04:40 | 49.70749 | 21.68432 | 135° | 82km/h | 4273m | -3.0m/s | 0°C | 0% | 0hPa | 0V | 00:00:00 | 00:00:00 | 00:00:00 | |
| MIELECB | 2026-09-04 12:04:34 | 49.70843 | 21.68274 | 130° | 95km/h | 4290m | -2.3m/s | 0°C | 0% | 0hPa | 0V | 00:00:00 | 00:00:00 | 00:00:00 | |
| SQ9PSP-11 | 2026-09-04 12:04:26 | 49.70958 | 21.68062 | 133° | 93km/h | 4314m | -2.6m/s | 0°C | 0% | 0hPa | 0V | 00:00:00 | 00:00:00 | 00:00:00 | |
| MIELECB | 2026-09-04 12:04:25 | 49.70973 | 21.68035 | 133° | 95km/h | 4317m | -2.9m/s | 0°C | 0% | 0hPa | 0V | 00:00:00 | 00:00:00 | 00:00:00 | |
| MIELECB | 2026-09-04 12:04:19 | 49.71070 | 21.67876 | 135° | 91km/h | 4332m | -3.4m/s | 0°C | 0% | 0hPa | 0V | 00:00:00 | 00:00:00 | 00:00:00 | |
| MIELECB | 2026-09-04 12:04:13 | 49.71169 | 21.67714 | 131° | 93km/h | 4348m | -0.5m/s | 0°C | 0% | 0hPa | 0V | 00:00:00 | 00:00:00 | 00:00:00 | |
| SQ9PSP-11 | 2026-09-04 12:04:11 | 49.71198 | 21.67660 | 133° | 88km/h | 4351m | -2.0m/s | 0°C | 0% | 0hPa | 0V | 00:00:00 | 00:00:00 | 00:00:00 | |
| MIELECB | 2026-09-04 12:04:07 | 49.71258 | 21.67563 | 134° | 86km/h | 4365m | -2.6m/s | 0°C | 0% | 0hPa | 0V | 00:00:00 | 00:00:00 | 00:00:00 | |
| MIELECB | 2026-09-04 12:04:02 | 49.71335 | 21.67430 | 130° | 95km/h | 4379m | -2.4m/s | 0°C | 0% | 0hPa | 0V | 00:00:00 | 00:00:00 | 00:00:00 | |
| MIELECB | 2026-09-04 12:03:56 | 49.71419 | 21.67263 | 131° | 86km/h | 4393m | -2.3m/s | 0°C | 0% | 0hPa | 0V | 00:00:00 | 00:00:00 | 00:00:00 | |
| SQ9PSP-11 | 2026-09-04 12:03:55 | 49.71433 | 21.67239 | 135° | 86km/h | 4396m | -2.8m/s | 0°C | 0% | 0hPa | 0V | 00:00:00 | 00:00:00 | 00:00:00 | |
| SP9SOS | 2026-09-04 12:03:53 | 49.71464 | 21.67190 | 135° | 86km/h | 4403m | -2.6m/s | 0°C | 0% | 0hPa | 0V | 00:00:00 | 00:00:00 | 00:00:00 | |
| MIELECB | 2026-09-04 12:03:51 | 49.71495 | 21.67142 | 138° | 89km/h | 4408m | -1.5m/s | 0°C | 0% | 0hPa | 0V | 00:00:00 | 00:00:00 | 00:00:00 | |
| MIELECB | 2026-09-04 12:03:45 | 49.71584 | 21.66980 | 129° | 91km/h | 4423m | -1.4m/s | 0°C | 0% | 0hPa | 0V | 00:00:00 | 00:00:00 | 00:00:00 | |
| MIELECB | 2026-09-04 12:03:40 | 49.71655 | 21.66839 | 129° | 93km/h | 4434m | -1.8m/s | 0°C | 0% | 0hPa | 0V | 00:00:00 | 00:00:00 | 00:00:00 | |
| SQ9PSP-11 | 2026-09-04 12:03:39 | 49.71670 | 21.66811 | 129° | 91km/h | 4437m | -1.2m/s | 0°C | 0% | 0hPa | 0V | 00:00:00 | 00:00:00 | 00:00:00 | |
| MIELECB | 2026-09-04 12:03:34 | 49.71743 | 21.66676 | 130° | 91km/h | 4446m | -2.1m/s | 0°C | 0% | 0hPa | 0V | 00:00:00 | 00:00:00 | 00:00:00 | |
| MIELECB | 2026-09-04 12:03:29 | 49.71816 | 21.66538 | 129° | 86km/h | 4456m | -1.1m/s | 0°C | 0% | 0hPa | 0V | 00:00:00 | 00:00:00 | 00:00:00 | |
| SP9SOS | 2026-09-04 12:03:27 | 49.71842 | 21.66486 | 127° | 84km/h | 4461m | -2.6m/s | 0°C | 0% | 0hPa | 0V | 00:00:00 | 00:00:00 | 00:00:00 | |
| SQ9PSP-11 | 2026-09-04 12:03:24 | 49.71880 | 21.66405 | 128° | 88km/h | 4468m | -0.2m/s | 0°C | 0% | 0hPa | 0V | 00:00:00 | 00:00:00 | 00:00:00 | |
| MIELECB | 2026-09-04 12:03:23 | 49.71893 | 21.66377 | 127° | 89km/h | 4469m | -1.3m/s | 0°C | 0% | 0hPa | 0V | 00:00:00 | 00:00:00 | 00:00:00 | |
| AKAW68 | 2026-09-04 12:03:22 | 49.71906 | 21.66349 | 128° | 88km/h | 4471m | -1.5m/s | 0°C | 0% | 0hPa | 0V | 00:00:00 | 00:00:00 | 00:00:00 | |
| MIELECB | 2026-09-04 12:03:17 | 49.71976 | 21.66209 | 130° | 93km/h | 4482m | -0.2m/s | 0°C | 0% | 0hPa | 0V | 00:00:00 | 00:00:00 | 00:00:00 | |
| MIELECB | 2026-09-04 12:03:12 | 49.72046 | 21.66069 | 130° | 91km/h | 4494m | -0.7m/s | 0°C | 0% | 0hPa | 0V | 00:00:00 | 00:00:00 | 00:00:00 | |
| SQ9PSP-11 | 2026-09-04 12:03:08 | 49.72106 | 21.65959 | 132° | 93km/h | 4499m | -0.9m/s | 0°C | 0% | 0hPa | 0V | 00:00:00 | 00:00:00 | 00:00:00 | |
| MIELECB | 2026-09-04 12:03:06 | 49.72136 | 21.65903 | 128° | 93km/h | 4503m | -1.2m/s | 0°C | 0% | 0hPa | 0V | 00:00:00 | 00:00:00 | 00:00:00 | |
| MIELECB | 2026-09-04 12:03:00 | 49.72218 | 21.65736 | 129° | 82km/h | 4517m | -1.8m/s | 0°C | 0% | 0hPa | 0V | 00:00:00 | 00:00:00 | 00:00:00 | |
| AKAW68 | 2026-09-04 12:02:59 | 49.72230 | 21.65712 | 130° | 78km/h | 4520m | -2.4m/s | 0°C | 0% | 0hPa | 0V | 00:00:00 | 00:00:00 | 00:00:00 | |
| MIELECB | 2026-09-04 12:02:55 | 49.72280 | 21.65620 | 132° | 73km/h | 4529m | -1.3m/s | 0°C | 0% | 0hPa | 0V | 00:00:00 | 00:00:00 | 00:00:00 | |
| SQ9PSP-11 | 2026-09-04 12:02:53 | 49.72306 | 21.65575 | 132° | 80km/h | 4532m | -1.1m/s | 0°C | 0% | 0hPa | 0V | 00:00:00 | 00:00:00 | 00:00:00 | |
| MIELECB | 2026-09-04 12:02:49 | 49.72364 | 21.65476 | 133° | 89km/h | 4543m | -2.4m/s | 0°C | 0% | 0hPa | 0V | 00:00:00 | 00:00:00 | 00:00:00 | |
| SP9KGR-15 | 2026-09-04 12:02:45 | 49.72426 | 21.65371 | 130° | 89km/h | 4549m | -1.4m/s | 0°C | 0% | 0hPa | 0V | 00:00:00 | 00:00:00 | 00:00:00 | |
| MIELECB | 2026-09-04 12:02:43 | 49.72453 | 21.65317 | 128° | 84km/h | 4554m | -2.8m/s | 0°C | 0% | 0hPa | 0V | 00:00:00 | 00:00:00 | 00:00:00 | |
| MIELECB | 2026-09-04 12:02:38 | 49.72515 | 21.65182 | 126° | 84km/h | 4564m | -1.7m/s | 0°C | 0% | 0hPa | 0V | 00:00:00 | 00:00:00 | 00:00:00 | |
| AKAW68 | 2026-09-04 12:02:36 | 49.72540 | 21.65129 | 128° | 84km/h | 4569m | -1.7m/s | 0°C | 0% | 0hPa | 0V | 00:00:00 | 00:00:00 | 00:00:00 | |
| MIELECB | 2026-09-04 12:02:32 | 49.72599 | 21.65026 | 136° | 86km/h | 4578m | -2.3m/s | 0°C | 0% | 0hPa | 0V | 00:00:00 | 00:00:00 | 00:00:00 | |
| SP9SOS | 2026-09-04 12:02:31 | 49.72615 | 21.65002 | 137° | 88km/h | 4581m | -2.7m/s | 0°C | 0% | 0hPa | 0V | 00:00:00 | 00:00:00 | 00:00:00 | |
| MIELECB | 2026-09-04 12:02:26 | 49.72692 | 21.64884 | 135° | 88km/h | 4588m | -1.9m/s | 0°C | 0% | 0hPa | 0V | 00:00:00 | 00:00:00 | 00:00:00 | |
| SQ9PSP-11 | 2026-09-04 12:02:22 | 49.72754 | 21.64783 | 135° | 91km/h | 4600m | -1.6m/s | 0°C | 0% | 0hPa | 0V | 00:00:00 | 00:00:00 | 00:00:00 | |
| MIELECB | 2026-09-04 12:02:21 | 49.72771 | 21.64758 | 137° | 93km/h | 4602m | -0.6m/s | 0°C | 0% | 0hPa | 0V | 00:00:00 | 00:00:00 | 00:00:00 | |
| SQ9EZE-12 | 2026-09-04 12:02:18 | 49.72818 | 21.64683 | 135° | 84km/h | 4607m | -1.6m/s | 0°C | 0% | 0hPa | 0V | 00:00:00 | 00:00:00 | 00:00:00 | |
| AKAW68 | 2026-09-04 12:02:15 | 49.72861 | 21.64612 | 133° | 78km/h | 4613m | -1.7m/s | 0°C | 0% | 0hPa | 0V | 00:00:00 | 00:00:00 | 00:00:00 | |
| MIELECB | 2026-09-04 12:02:09 | 49.72941 | 21.64476 | 135° | 77km/h | 4626m | -1.9m/s | 0°C | 0% | 0hPa | 0V | 00:00:00 | 00:00:00 | 00:00:00 | |
| SQ9PSP-11 | 2026-09-04 12:02:07 | 49.72968 | 21.64432 | 133° | 80km/h | 4629m | -0.6m/s | 0°C | 0% | 0hPa | 0V | 00:00:00 | 00:00:00 | 00:00:00 | |
| SP9SOS | 2026-09-04 12:02:05 | 49.72994 | 21.64384 | 130° | 82km/h | 4632m | -2.0m/s | 0°C | 0% | 0hPa | 0V | 00:00:00 | 00:00:00 | 00:00:00 | |
| MIELECB | 2026-09-04 12:02:02 | 49.73033 | 21.64306 | 127° | 84km/h | 4641m | -3.4m/s | 0°C | 0% | 0hPa | 0V | 00:00:00 | 00:00:00 | 00:00:00 | |
| SQ9EZE-12 | 2026-09-04 12:02:01 | 49.73045 | 21.64279 | 127° | 88km/h | 4644m | -2.8m/s | 0°C | 0% | 0hPa | 0V | 00:00:00 | 00:00:00 | 00:00:00 | |
| SP9KGR-15 | 2026-09-04 12:01:59 | 49.73072 | 21.64223 | 128° | 89km/h | 4650m | -1.8m/s | 0°C | 0% | 0hPa | 0V | 00:00:00 | 00:00:00 | 00:00:00 | |
| MIELECB | 2026-09-04 12:01:55 | 49.73126 | 21.64110 | 130° | 89km/h | 4659m | -1.5m/s | 0°C | 0% | 0hPa | 0V | 00:00:00 | 00:00:00 | 00:00:00 | |
| AKAW68 | 2026-09-04 12:01:54 | 49.73140 | 21.64084 | 131° | 88km/h | 4662m | -1.9m/s | 0°C | 0% | 0hPa | 0V | 00:00:00 | 00:00:00 | 00:00:00 | |
| SQ9PSP-11 | 2026-09-04 12:01:51 | 49.73184 | 21.64007 | 134° | 88km/h | 4670m | -1.7m/s | 0°C | 0% | 0hPa | 0V | 00:00:00 | 00:00:00 | 00:00:00 | |
| MIELECB | 2026-09-04 12:01:44 | 49.73282 | 21.63816 | 123° | 88km/h | 4685m | -0.3m/s | 0°C | 0% | 0hPa | 0V | 00:00:00 | 00:00:00 | 00:00:00 | |
| SQ9EZE-12 | 2026-09-04 12:01:42 | 49.73306 | 21.63758 | 125° | 88km/h | 4688m | -1.4m/s | 0°C | 0% | 0hPa | 0V | 00:00:00 | 00:00:00 | 00:00:00 | |
| SP9SOS | 2026-09-04 12:01:39 | 49.73345 | 21.63673 | 128° | 89km/h | 4695m | -2.8m/s | 0°C | 0% | 0hPa | 0V | 00:00:00 | 00:00:00 | 00:00:00 | |
| MIELECB | 2026-09-04 12:01:38 | 49.73359 | 21.63645 | 130° | 88km/h | 4699m | -1.5m/s | 0°C | 0% | 0hPa | 0V | 00:00:00 | 00:00:00 | 00:00:00 | |
| SQ9PSP-11 | 2026-09-04 12:01:36 | 49.73389 | 21.63594 | 134° | 88km/h | 4705m | -2.9m/s | 0°C | 0% | 0hPa | 0V | 00:00:00 | 00:00:00 | 00:00:00 | |
| SP9KGR-15 | 2026-09-04 12:01:34 | 49.73419 | 21.63544 | 135° | 88km/h | 4712m | -2.5m/s | 0°C | 0% | 0hPa | 0V | 00:00:00 | 00:00:00 | 00:00:00 | |
| MIELECB | 2026-09-04 12:01:33 | 49.73435 | 21.63520 | 136° | 84km/h | 4715m | -1.9m/s | 0°C | 0% | 0hPa | 0V | 00:00:00 | 00:00:00 | 00:00:00 | |
| SQ9EZE-12 | 2026-09-04 12:01:27 | 49.73513 | 21.63379 | 127° | 80km/h | 4728m | -2.7m/s | 0°C | 0% | 0hPa | 0V | 00:00:00 | 00:00:00 | 00:00:00 | |
| MIELECB | 2026-09-04 12:01:26 | 49.73526 | 21.63353 | 128° | 84km/h | 4730m | -1.5m/s | 0°C | 0% | 0hPa | 0V | 00:00:00 | 00:00:00 | 00:00:00 | |
| MIELECB | 2026-09-04 12:01:21 | 49.73592 | 21.63214 | 129° | 86km/h | 4741m | -2.4m/s | 0°C | 0% | 0hPa | 0V | 00:00:00 | 00:00:00 | 00:00:00 | |
| SQ9PSP-11 | 2026-09-04 12:01:20 | 49.73605 | 21.63188 | 129° | 82km/h | 4744m | -2.1m/s | 0°C | 0% | 0hPa | 0V | 00:00:00 | 00:00:00 | 00:00:00 | |
| MIELECB | 2026-09-04 12:01:15 | 49.73668 | 21.63060 | 127° | 86km/h | 4759m | -3.4m/s | 0°C | 0% | 0hPa | 0V | 00:00:00 | 00:00:00 | 00:00:00 | |
| MIELECB | 2026-09-04 12:01:08 | 49.73770 | 21.62873 | 140° | 88km/h | 4777m | -2.2m/s | 0°C | 0% | 0hPa | 0V | 00:00:00 | 00:00:00 | 00:00:00 | |
| SQ9EZE-12 | 2026-09-04 12:01:05 | 49.73820 | 21.62803 | 138° | 88km/h | 4787m | -2.9m/s | 0°C | 0% | 0hPa | 0V | 00:00:00 | 00:00:00 | 00:00:00 | |
| SP9KGR-15 | 2026-09-04 12:01:02 | 49.73870 | 21.62726 | 135° | 95km/h | 4796m | -2.5m/s | 0°C | 0% | 0hPa | 0V | 00:00:00 | 00:00:00 | 00:00:00 | |
| MIELECB | 2026-09-04 12:00:55 | 49.74001 | 21.62503 | 133° | 95km/h | 4820m | -2.0m/s | 0°C | 0% | 0hPa | 0V | 00:00:00 | 00:00:00 | 00:00:00 | |
| SQ9EZE-12 | 2026-09-04 12:00:49 | 49.74080 | 21.62360 | 131° | 95km/h | 4830m | -2.2m/s | 0°C | 0% | 0hPa | 0V | 00:00:00 | 00:00:00 | 00:00:00 | |
| MIELECB | 2026-09-04 12:00:43 | 49.74178 | 21.62193 | 140° | 99km/h | 4849m | -1.9m/s | 0°C | 0% | 0hPa | 0V | 00:00:00 | 00:00:00 | 00:00:00 | |
| AKAW68 | 2026-09-04 12:00:41 | 49.74215 | 21.62143 | 139° | 95km/h | 4855m | -1.6m/s | 0°C | 0% | 0hPa | 0V | 00:00:00 | 00:00:00 | 00:00:00 | |
| SP9KGR-15 | 2026-09-04 12:00:40 | 49.74233 | 21.62119 | 140° | 93km/h | 4858m | -2.2m/s | 0°C | 0% | 0hPa | 0V | 00:00:00 | 00:00:00 | 00:00:00 | |
| SP9SOS | 2026-09-04 12:00:39 | 49.74250 | 21.62095 | 140° | 91km/h | 4861m | -1.9m/s | 0°C | 0% | 0hPa | 0V | 00:00:00 | 00:00:00 | 00:00:00 | |
| MIELECB | 2026-09-04 12:00:37 | 49.74284 | 21.62048 | 137° | 91km/h | 4867m | -1.9m/s | 0°C | 0% | 0hPa | 0V | 00:00:00 | 00:00:00 | 00:00:00 | |
| SQ9PSP-11 | 2026-09-04 12:00:34 | 49.74334 | 21.61968 | 133° | 102km/h | 4876m | -2.1m/s | 0°C | 0% | 0hPa | 0V | 00:00:00 | 00:00:00 | 00:00:00 | |
| MIELECB | 2026-09-04 12:00:29 | 49.74425 | 21.61824 | 138° | 100km/h | 4892m | -2.4m/s | 0°C | 0% | 0hPa | 0V | 00:00:00 | 00:00:00 | 00:00:00 | |
| MIELECB | 2026-09-04 12:00:24 | 49.74533 | 21.61664 | 136° | 102km/h | 4912m | -2.2m/s | 0°C | 0% | 0hPa | 0V | 00:00:00 | 00:00:00 | 00:00:00 | |
| AKAW68 | 2026-09-04 12:00:21 | 49.74569 | 21.61608 | 136° | 100km/h | 4918m | -2.3m/s | 0°C | 0% | 0hPa | 0V | 00:00:00 | 00:00:00 | 00:00:00 | |
| SQ9EZE-12 | 2026-09-04 12:00:20 | 49.74587 | 21.61581 | 134° | 100km/h | 4922m | -2.8m/s | 0°C | 0% | 0hPa | 0V | 00:00:00 | 00:00:00 | 00:00:00 | |
| SQ9PSP-11 | 2026-09-04 12:00:19 | 49.74604 | 21.61553 | 134° | 100km/h | 4925m | -2.9m/s | 0°C | 0% | 0hPa | 0V | 00:00:00 | 00:00:00 | 00:00:00 | |
| SP9SOS | 2026-09-04 12:00:14 | 49.74698 | 21.61413 | 136° | 104km/h | 4939m | -0.8m/s | 0°C | 0% | 0hPa | 0V | 00:00:00 | 00:00:00 | 00:00:00 | |
| MIELECB | 2026-09-04 12:00:13 | 49.74716 | 21.61384 | 136° | 102km/h | 4941m | -1.6m/s | 0°C | 0% | 0hPa | 0V | 00:00:00 | 00:00:00 | 00:00:00 | |
| MIELECB | 2026-09-04 12:00:08 | 49.74806 | 21.61242 | 133° | 99km/h | 4955m | -2.0m/s | 0°C | 0% | 0hPa | 0V | 00:00:00 | 00:00:00 | 00:00:00 | |
| SQ9PSP-11 | 2026-09-04 12:00:03 | 49.74893 | 21.61099 | 134° | 102km/h | 4971m | -2.3m/s | 0°C | 0% | 0hPa | 0V | 00:00:00 | 00:00:00 | 00:00:00 | |
| MIELECB | 2026-09-04 12:00:02 | 49.74911 | 21.61070 | 134° | 104km/h | 4974m | -2.0m/s | 0°C | 0% | 0hPa | 0V | 00:00:00 | 00:00:00 | 00:00:00 | |
| MIELECB | 2026-09-04 11:59:57 | 49.75001 | 21.60927 | 136° | 102km/h | 4987m | -1.4m/s | 0°C | 0% | 0hPa | 0V | 00:00:00 | 00:00:00 | 00:00:00 | |
| SP9KGR-15 | 2026-09-04 11:59:54 | 49.75053 | 21.60841 | 134° | 100km/h | 4995m | -2.1m/s | 0°C | 0% | 0hPa | 0V | 00:00:00 | 00:00:00 | 00:00:00 | |
| MIELECB | 2026-09-04 11:59:52 | 49.75108 | 21.60756 | 137° | 104km/h | 5004m | -1.3m/s | 0°C | 0% | 0hPa | 0V | 00:00:00 | 00:00:00 | 00:00:00 | |
| SP9SOS | 2026-09-04 11:59:49 | 49.75146 | 21.60699 | 136° | 102km/h | 5008m | -1.3m/s | 0°C | 0% | 0hPa | 0V | 00:00:00 | 00:00:00 | 00:00:00 | |
| SQ9PSP-11 | 2026-09-04 11:59:47 | 49.75183 | 21.60643 | 137° | 102km/h | 5014m | -1.9m/s | 0°C | 0% | 0hPa | 0V | 00:00:00 | 00:00:00 | 00:00:00 | |
| MIELECB | 2026-09-04 11:59:46 | 49.75201 | 21.60615 | 135° | 100km/h | 5016m | -0.8m/s | 0°C | 0% | 0hPa | 0V | 00:00:00 | 00:00:00 | 00:00:00 | |
| MIELECB | 2026-09-04 11:59:41 | 49.75291 | 21.60475 | 138° | 100km/h | 5028m | -1.6m/s | 0°C | 0% | 0hPa | 0V | 00:00:00 | 00:00:00 | 00:00:00 | |
| SP9KGR-15 | 2026-09-04 11:59:39 | 49.75328 | 21.60420 | 136° | 102km/h | 5033m | -2.4m/s | 0°C | 0% | 0hPa | 0V | 00:00:00 | 00:00:00 | 00:00:00 | |
| AKAW68 | 2026-09-04 11:59:36 | 49.75384 | 21.60335 | 137° | 102km/h | 5040m | -1.9m/s | 0°C | 0% | 0hPa | 0V | 00:00:00 | 00:00:00 | 00:00:00 | |
| MIELECB | 2026-09-04 11:59:35 | 49.75402 | 21.60308 | 137° | 99km/h | 5043m | -1.2m/s | 0°C | 0% | 0hPa | 0V | 00:00:00 | 00:00:00 | 00:00:00 | |
| SQ9PSP-11 | 2026-09-04 11:59:31 | 49.75474 | 21.60199 | 136° | 104km/h | 5053m | -1.5m/s | 0°C | 0% | 0hPa | 0V | 00:00:00 | 00:00:00 | 00:00:00 | |
| MIELECB | 2026-09-04 11:59:29 | 49.75510 | 21.60143 | 137° | 100km/h | 5057m | -2.0m/s | 0°C | 0% | 0hPa | 0V | 00:00:00 | 00:00:00 | 00:00:00 | |
| MIELECB | 2026-09-04 11:59:24 | 49.75600 | 21.60008 | 137° | 100km/h | 5069m | -0.9m/s | 0°C | 0% | 0hPa | 0V | 00:00:00 | 00:00:00 | 00:00:00 | |
| SP9SOS | 2026-09-04 11:59:21 | 49.75655 | 21.59926 | 137° | 100km/h | 5078m | -2.6m/s | 0°C | 0% | 0hPa | 0V | 00:00:00 | 00:00:00 | 00:00:00 | |
| MIELECB | 2026-09-04 11:59:18 | 49.75709 | 21.59845 | 136° | 102km/h | 5085m | -1.5m/s | 0°C | 0% | 0hPa | 0V | 00:00:00 | 00:00:00 | 00:00:00 | |
| SQ9PSP-11 | 2026-09-04 11:59:16 | 49.75745 | 21.59789 | 135° | 97km/h | 5090m | -1.8m/s | 0°C | 0% | 0hPa | 0V | 00:00:00 | 00:00:00 | 00:00:00 | |
| AKAW68 | 2026-09-04 11:59:15 | 49.75761 | 21.59762 | 136° | 97km/h | 5093m | -1.9m/s | 0°C | 0% | 0hPa | 0V | 00:00:00 | 00:00:00 | 00:00:00 | |
| SQ9EZE-12 | 2026-09-04 11:59:14 | 49.75779 | 21.59735 | 135° | 97km/h | 5095m | -1.9m/s | 0°C | 0% | 0hPa | 0V | 00:00:00 | 00:00:00 | 00:00:00 | |
| SP9KGR-15 | 2026-09-04 11:59:13 | 49.75796 | 21.59708 | 136° | 99km/h | 5098m | -1.3m/s | 0°C | 0% | 0hPa | 0V | 00:00:00 | 00:00:00 | 00:00:00 | |
| MIELECB | 2026-09-04 11:59:12 | 49.75814 | 21.59681 | 136° | 99km/h | 5101m | -1.8m/s | 0°C | 0% | 0hPa | 0V | 00:00:00 | 00:00:00 | 00:00:00 | |
| MIELECB | 2026-09-04 11:59:07 | 49.75901 | 21.59542 | 135° | 97km/h | 5115m | -1.3m/s | 0°C | 0% | 0hPa | 0V | 00:00:00 | 00:00:00 | 00:00:00 | |
| MIELECB | 2026-09-04 11:59:01 | 49.76004 | 21.59378 | 134° | 97km/h | 5127m | -1.9m/s | 0°C | 0% | 0hPa | 0V | 00:00:00 | 00:00:00 | 00:00:00 | |
| SQ9PSP-11 | 2026-09-04 11:59:00 | 49.76021 | 21.59350 | 135° | 99km/h | 5130m | -1.4m/s | 0°C | 0% | 0hPa | 0V | 00:00:00 | 00:00:00 | 00:00:00 | |
| MIELECB | 2026-09-04 11:58:56 | 49.76090 | 21.59244 | 135° | 99km/h | 5140m | -1.5m/s | 0°C | 0% | 0hPa | 0V | 00:00:00 | 00:00:00 | 00:00:00 | |
| AKAW68 | 2026-09-04 11:58:55 | 49.76107 | 21.59216 | 133° | 99km/h | 5142m | -1.8m/s | 0°C | 0% | 0hPa | 0V | 00:00:00 | 00:00:00 | 00:00:00 | |
| SQ9EZE-12 | 2026-09-04 11:58:54 | 49.76124 | 21.59187 | 134° | 99km/h | 5145m | -1.7m/s | 0°C | 0% | 0hPa | 0V | 00:00:00 | 00:00:00 | 00:00:00 | |
| SP9KGR-15 | 2026-09-04 11:58:49 | 49.76211 | 21.59050 | 133° | 100km/h | 5156m | -1.5m/s | 0°C | 0% | 0hPa | 0V | 00:00:00 | 00:00:00 | 00:00:00 | |
| SQ9PSP-11 | 2026-09-04 11:58:45 | 49.76277 | 21.58934 | 135° | 100km/h | 5165m | -0.4m/s | 0°C | 0% | 0hPa | 0V | 00:00:00 | 00:00:00 | 00:00:00 | |
| MIELECB | 2026-09-04 11:58:39 | 49.76378 | 21.58764 | 134° | 95km/h | 5179m | -1.0m/s | 0°C | 0% | 0hPa | 0V | 00:00:00 | 00:00:00 | 00:00:00 | |
| AKAW68 | 2026-09-04 11:58:35 | 49.76445 | 21.58654 | 133° | 99km/h | 5187m | -0.8m/s | 0°C | 0% | 0hPa | 0V | 00:00:00 | 00:00:00 | 00:00:00 | |
| AKAW682 | 2026-09-04 11:58:33 | 49.76478 | 21.58597 | 133° | 97km/h | 5191m | -1.2m/s | 0°C | 0% | 0hPa | 0V | 00:00:00 | 00:00:00 | 00:00:00 | |
| SP9SOS | 2026-09-04 11:58:31 | 49.76511 | 21.58541 | 133° | 97km/h | 5195m | -1.4m/s | 0°C | 0% | 0hPa | 0V | 00:00:00 | 00:00:00 | 00:00:00 | |
| SQ9PSP-11 | 2026-09-04 11:58:29 | 49.76542 | 21.58483 | 128° | 99km/h | 5199m | -1.6m/s | 0°C | 0% | 0hPa | 0V | 00:00:00 | 00:00:00 | 00:00:00 | |
| MIELECB | 2026-09-04 11:58:28 | 49.76557 | 21.58453 | 129° | 99km/h | 5201m | -2.3m/s | 0°C | 0% | 0hPa | 0V | 00:00:00 | 00:00:00 | 00:00:00 | |
| MIELECB | 2026-09-04 11:58:22 | 49.76650 | 21.58285 | 128° | 95km/h | 5215m | -1.4m/s | 0°C | 0% | 0hPa | 0V | 00:00:00 | 00:00:00 | 00:00:00 | |
| MIELECB | 2026-09-04 11:58:17 | 49.76726 | 21.58139 | 132° | 93km/h | 5229m | -1.4m/s | 0°C | 0% | 0hPa | 0V | 00:00:00 | 00:00:00 | 00:00:00 | |
| AKAW68 | 2026-09-04 11:58:14 | 49.76770 | 21.58057 | 132° | 89km/h | 5234m | -1.5m/s | 0°C | 0% | 0hPa | 0V | 00:00:00 | 00:00:00 | 00:00:00 | |
| SP9KGR-15 | 2026-09-04 11:58:13 | 49.76785 | 21.58030 | 133° | 91km/h | 5236m | -1.3m/s | 0°C | 0% | 0hPa | 0V | 00:00:00 | 00:00:00 | 00:00:00 | |
| MIELECB | 2026-09-04 11:58:12 | 49.76800 | 21.58004 | 132° | 89km/h | 5237m | -1.9m/s | 0°C | 0% | 0hPa | 0V | 00:00:00 | 00:00:00 | 00:00:00 | |
| MIELECB | 2026-09-04 11:58:06 | 49.76888 | 21.57836 | 130° | 95km/h | 5254m | -1.9m/s | 0°C | 0% | 0hPa | 0V | 00:00:00 | 00:00:00 | 00:00:00 | |
| SP9SOS | 2026-09-04 11:58:04 | 49.76917 | 21.57782 | 132° | 86km/h | 5258m | -2.2m/s | 0°C | 0% | 0hPa | 0V | 00:00:00 | 00:00:00 | 00:00:00 | |
| MIELECB | 2026-09-04 11:58:00 | 49.76971 | 21.57678 | 129° | 86km/h | 5269m | -1.6m/s | 0°C | 0% | 0hPa | 0V | 00:00:00 | 00:00:00 | 00:00:00 | |
| SQ9PSP-11 | 2026-09-04 11:57:58 | 49.76999 | 21.57626 | 130° | 86km/h | 5273m | -1.6m/s | 0°C | 0% | 0hPa | 0V | 00:00:00 | 00:00:00 | 00:00:00 | |
| MIELECB | 2026-09-04 11:57:55 | 49.77039 | 21.57547 | 126° | 86km/h | 5282m | -2.4m/s | 0°C | 0% | 0hPa | 0V | 00:00:00 | 00:00:00 | 00:00:00 | |
| SP9KGR-15 | 2026-09-04 11:57:53 | 49.77065 | 21.57493 | 129° | 86km/h | 5288m | -1.2m/s | 0°C | 0% | 0hPa | 0V | 00:00:00 | 00:00:00 | 00:00:00 | |
| MIELECB | 2026-09-04 11:57:49 | 49.77119 | 21.57392 | 130° | 84km/h | 5297m | -1.2m/s | 0°C | 0% | 0hPa | 0V | 00:00:00 | 00:00:00 | 00:00:00 | |
| AKAW682 | 2026-09-04 11:57:46 | 49.77157 | 21.57312 | 128° | 84km/h | 5304m | -1.5m/s | 0°C | 0% | 0hPa | 0V | 00:00:00 | 00:00:00 | 00:00:00 | |
| SQ9PSP-11 | 2026-09-04 11:57:43 | 49.77197 | 21.57236 | 130° | 82km/h | 5310m | -1.1m/s | 0°C | 0% | 0hPa | 0V | 00:00:00 | 00:00:00 | 00:00:00 | |
| SP9SOS | 2026-09-04 11:57:39 | 49.77248 | 21.57132 | 130° | 84km/h | 5319m | -1.9m/s | 0°C | 0% | 0hPa | 0V | 00:00:00 | 00:00:00 | 00:00:00 | |
| MIELECB | 2026-09-04 11:57:38 | 49.77262 | 21.57107 | 131° | 80km/h | 5322m | -1.6m/s | 0°C | 0% | 0hPa | 0V | 00:00:00 | 00:00:00 | 00:00:00 | |
| SP9KGR-15 | 2026-09-04 11:57:33 | 49.77327 | 21.56982 | 127° | 84km/h | 5334m | -1.6m/s | 0°C | 0% | 0hPa | 0V | 00:00:00 | 00:00:00 | 00:00:00 | |
| MIELECB | 2026-09-04 11:57:32 | 49.77339 | 21.56957 | 127° | 80km/h | 5337m | -1.6m/s | 0°C | 0% | 0hPa | 0V | 00:00:00 | 00:00:00 | 00:00:00 | |
| SQ9EZE-12 | 2026-09-04 11:57:31 | 49.77351 | 21.56932 | 128° | 78km/h | 5339m | -0.8m/s | 0°C | 0% | 0hPa | 0V | 00:00:00 | 00:00:00 | 00:00:00 | |
| SQ9PSP-11 | 2026-09-04 11:57:27 | 49.77400 | 21.56833 | 129° | 80km/h | 5348m | -1.0m/s | 0°C | 0% | 0hPa | 0V | 00:00:00 | 00:00:00 | 00:00:00 | |
| MIELECB | 2026-09-04 11:57:26 | 49.77413 | 21.56808 | 130° | 82km/h | 5350m | -1.3m/s | 0°C | 0% | 0hPa | 0V | 00:00:00 | 00:00:00 | 00:00:00 | |
| MIELECB | 2026-09-04 11:57:20 | 49.77487 | 21.56656 | 130° | 82km/h | 5363m | -1.1m/s | 0°C | 0% | 0hPa | 0V | 00:00:00 | 00:00:00 | 00:00:00 | |
| AKAW682 | 2026-09-04 11:57:18 | 49.77513 | 21.56606 | 127° | 80km/h | 5367m | 0.0m/s | 0°C | 0% | 0hPa | 0V | 00:00:00 | 00:00:00 | 00:00:00 | |
| SP9KGR-15 | 2026-09-04 11:57:16 | 49.77547 | 21.56530 | 127° | 80km/h | 5371m | -0.6m/s | 0°C | 0% | 0hPa | 0V | 00:00:00 | 00:00:00 | 00:00:00 | |
| SQ9PSP-11 | 2026-09-04 11:57:11 | 49.77597 | 21.56430 | 128° | 80km/h | 5379m | -1.3m/s | 0°C | 0% | 0hPa | 0V | 00:00:00 | 00:00:00 | 00:00:00 | |
| MIELECB | 2026-09-04 11:57:08 | 49.77634 | 21.56352 | 127° | 82km/h | 5385m | -1.4m/s | 0°C | 0% | 0hPa | 0V | 00:00:00 | 00:00:00 | 00:00:00 | |
| MIELECB | 2026-09-04 11:57:02 | 49.77706 | 21.56200 | 128° | 82km/h | 5398m | -1.0m/s | 0°C | 0% | 0hPa | 0V | 00:00:00 | 00:00:00 | 00:00:00 | |
| SP9KGR-15 | 2026-09-04 11:56:57 | 49.77766 | 21.56072 | 128° | 80km/h | 5410m | -0.8m/s | 0°C | 0% | 0hPa | 0V | 00:00:00 | 00:00:00 | 00:00:00 | |
| MIELECB | 2026-09-04 11:56:56 | 49.77779 | 21.56047 | 129° | 80km/h | 5412m | -0.6m/s | 0°C | 0% | 0hPa | 0V | 00:00:00 | 00:00:00 | 00:00:00 | |
| SQ9PSP-11 | 2026-09-04 11:56:55 | 49.77791 | 21.56022 | 127° | 78km/h | 5413m | -1.0m/s | 0°C | 0% | 0hPa | 0V | 00:00:00 | 00:00:00 | 00:00:00 | |
| MIELECB | 2026-09-04 11:56:51 | 49.77838 | 21.55918 | 125° | 82km/h | 5422m | -1.7m/s | 0°C | 0% | 0hPa | 0V | 00:00:00 | 00:00:00 | 00:00:00 | |
| SP9SOS | 2026-09-04 11:56:48 | 49.77873 | 21.55841 | 127° | 78km/h | 5429m | -0.6m/s | 0°C | 0% | 0hPa | 0V | 00:00:00 | 00:00:00 | 00:00:00 | |
| MIELECB | 2026-09-04 11:56:45 | 49.77908 | 21.55765 | 125° | 80km/h | 5433m | -0.8m/s | 0°C | 0% | 0hPa | 0V | 00:00:00 | 00:00:00 | 00:00:00 | |
| MIELECB | 2026-09-04 11:56:40 | 49.77966 | 21.55641 | 130° | 80km/h | 5442m | 0.3m/s | 0°C | 0% | 0hPa | 0V | 00:00:00 | 00:00:00 | 00:00:00 | |
| SP9KGR-15 | 2026-09-04 11:56:38 | 49.77989 | 21.55591 | 125° | 77km/h | 5446m | -0.7m/s | 0°C | 0% | 0hPa | 0V | 00:00:00 | 00:00:00 | 00:00:00 | |
| AKAW68 | 2026-09-04 11:56:34 | 49.78033 | 21.55490 | 124° | 77km/h | 5453m | -0.8m/s | 0°C | 0% | 0hPa | 0V | 00:00:00 | 00:00:00 | 00:00:00 | |
| SQ9PSP-11 | 2026-09-04 11:56:25 | 49.78132 | 21.55260 | 124° | 80km/h | 5469m | -0.8m/s | 0°C | 0% | 0hPa | 0V | 00:00:00 | 00:00:00 | 00:00:00 | |
| SQ9EZE-12 | 2026-09-04 11:56:24 | 49.78143 | 21.55234 | 125° | 80km/h | 5472m | -1.1m/s | 0°C | 0% | 0hPa | 0V | 00:00:00 | 00:00:00 | 00:00:00 | |
| SP9SOS | 2026-09-04 11:56:22 | 49.78165 | 21.55182 | 123° | 77km/h | 5476m | -1.0m/s | 0°C | 0% | 0hPa | 0V | 00:00:00 | 00:00:00 | 00:00:00 | |
| SP9KGR-15 | 2026-09-04 11:56:18 | 49.78207 | 21.55078 | 127° | 82km/h | 5487m | -0.8m/s | 0°C | 0% | 0hPa | 0V | 00:00:00 | 00:00:00 | 00:00:00 | |
| MIELECB | 2026-09-04 11:56:16 | 49.78231 | 21.55027 | 127° | 80km/h | 5491m | -1.4m/s | 0°C | 0% | 0hPa | 0V | 00:00:00 | 00:00:00 | 00:00:00 | |
| MIELECB | 2026-09-04 11:56:12 | 49.78289 | 21.54896 | 126° | 82km/h | 5498m | -0.7m/s | 0°C | 0% | 0hPa | 0V | 00:00:00 | 00:00:00 | 00:00:00 | |
| SQ9EZE-12 | 2026-09-04 11:56:09 | 49.78312 | 21.54845 | 125° | 77km/h | 5502m | -1.7m/s | 0°C | 0% | 0hPa | 0V | 00:00:00 | 00:00:00 | 00:00:00 | |
| SP9KGR-15 | 2026-09-04 11:56:01 | 49.78399 | 21.54631 | 125° | 82km/h | 5520m | -1.2m/s | 0°C | 0% | 0hPa | 0V | 00:00:00 | 00:00:00 | 00:00:00 | |
| SP9SOS | 2026-09-04 11:55:56 | 49.78458 | 21.54497 | 122° | 80km/h | 5530m | -0.9m/s | 0°C | 0% | 0hPa | 0V | 00:00:00 | 00:00:00 | 00:00:00 | |
| MIELECB | 2026-09-04 11:55:54 | 49.78479 | 21.54443 | 121° | 78km/h | 5534m | -0.9m/s | 0°C | 0% | 0hPa | 0V | 00:00:00 | 00:00:00 | 00:00:00 | |
| SQ9PSP-11 | 2026-09-04 11:55:53 | 49.78489 | 21.54416 | 123° | 80km/h | 5536m | -1.8m/s | 0°C | 0% | 0hPa | 0V | 00:00:00 | 00:00:00 | 00:00:00 | |
| SQ9EZE-12 | 2026-09-04 11:55:52 | 49.78500 | 21.54390 | 124° | 82km/h | 5539m | -0.7m/s | 0°C | 0% | 0hPa | 0V | 00:00:00 | 00:00:00 | 00:00:00 | |
| MIELECB | 2026-09-04 11:55:49 | 49.78533 | 21.54310 | 122° | 80km/h | 5543m | -1.3m/s | 0°C | 0% | 0hPa | 0V | 00:00:00 | 00:00:00 | 00:00:00 | |
| MIELECB | 2026-09-04 11:55:44 | 49.78587 | 21.54178 | 124° | 78km/h | 5553m | -1.4m/s | 0°C | 0% | 0hPa | 0V | 00:00:00 | 00:00:00 | 00:00:00 | |
| MIELECB | 2026-09-04 11:55:38 | 49.78652 | 21.54018 | 125° | 84km/h | 5561m | -1.2m/s | 0°C | 0% | 0hPa | 0V | 00:00:00 | 00:00:00 | 00:00:00 | |
| SQ9EZE-12 | 2026-09-04 11:55:36 | 49.78674 | 21.53964 | 122° | 80km/h | 5565m | -1.5m/s | 0°C | 0% | 0hPa | 0V | 00:00:00 | 00:00:00 | 00:00:00 | |
| MIELECB | 2026-09-04 11:55:32 | 49.78718 | 21.53857 | 124° | 82km/h | 5573m | -1.1m/s | 0°C | 0% | 0hPa | 0V | 00:00:00 | 00:00:00 | 00:00:00 | |
| SP9SOS | 2026-09-04 11:55:31 | 49.78729 | 21.53831 | 124° | 80km/h | 5574m | -0.5m/s | 0°C | 0% | 0hPa | 0V | 00:00:00 | 00:00:00 | 00:00:00 | |
| MIELECB | 2026-09-04 11:55:26 | 49.78782 | 21.53692 | 123° | 86km/h | 5581m | -1.6m/s | 0°C | 0% | 0hPa | 0V | 00:00:00 | 00:00:00 | 00:00:00 | |
| AKAW68 | 2026-09-04 11:55:25 | 49.78794 | 21.53664 | 124° | 86km/h | 5584m | -1.5m/s | 0°C | 0% | 0hPa | 0V | 00:00:00 | 00:00:00 | 00:00:00 | |
| SQ9PSP-11 | 2026-09-04 11:55:22 | 49.78828 | 21.53582 | 122° | 80km/h | 5590m | -1.2m/s | 0°C | 0% | 0hPa | 0V | 00:00:00 | 00:00:00 | 00:00:00 | |
| MIELECB | 2026-09-04 11:55:16 | 49.78896 | 21.53409 | 124° | 84km/h | 5602m | -1.1m/s | 0°C | 0% | 0hPa | 0V | 00:00:00 | 00:00:00 | 00:00:00 | |
| MIELECB | 2026-09-04 11:55:09 | 49.78981 | 21.53211 | 123° | 89km/h | 5615m | -0.3m/s | 0°C | 0% | 0hPa | 0V | 00:00:00 | 00:00:00 | 00:00:00 | |
| SQ9PSP-11 | 2026-09-04 11:55:06 | 49.79017 | 21.53124 | 126° | 88km/h | 5620m | -0.9m/s | 0°C | 0% | 0hPa | 0V | 00:00:00 | 00:00:00 | 00:00:00 | |
| AKAW68 | 2026-09-04 11:55:05 | 49.79030 | 21.53096 | 126° | 88km/h | 5622m | -1.1m/s | 0°C | 0% | 0hPa | 0V | 00:00:00 | 00:00:00 | 00:00:00 | |
| MIELECB | 2026-09-04 11:54:58 | 49.79118 | 21.52896 | 125° | 88km/h | 5633m | -1.0m/s | 0°C | 0% | 0hPa | 0V | 00:00:00 | 00:00:00 | 00:00:00 | |
| MIELECB | 2026-09-04 11:54:53 | 49.79178 | 21.52755 | 126° | 86km/h | 5642m | -1.3m/s | 0°C | 0% | 0hPa | 0V | 00:00:00 | 00:00:00 | 00:00:00 | |
| SQ9PSP-11 | 2026-09-04 11:54:51 | 49.79204 | 21.52698 | 126° | 89km/h | 5645m | -1.8m/s | 0°C | 0% | 0hPa | 0V | 00:00:00 | 00:00:00 | 00:00:00 | |
| SQ9EZE-12 | 2026-09-04 11:54:50 | 49.79217 | 21.52669 | 126° | 91km/h | 5647m | -1.3m/s | 0°C | 0% | 0hPa | 0V | 00:00:00 | 00:00:00 | 00:00:00 | |
| MIELECB | 2026-09-04 11:54:47 | 49.79255 | 21.52581 | 124° | 89km/h | 5651m | -1.0m/s | 0°C | 0% | 0hPa | 0V | 00:00:00 | 00:00:00 | 00:00:00 | |
| MIELECB | 2026-09-04 11:54:42 | 49.79316 | 21.52440 | 126° | 86km/h | 5663m | -1.9m/s | 0°C | 0% | 0hPa | 0V | 00:00:00 | 00:00:00 | 00:00:00 | |
| AKAW68 | 2026-09-04 11:54:41 | 49.79328 | 21.52412 | 127° | 86km/h | 5665m | -1.9m/s | 0°C | 0% | 0hPa | 0V | 00:00:00 | 00:00:00 | 00:00:00 | |
| SP9SOS | 2026-09-04 11:54:40 | 49.79341 | 21.52385 | 126° | 88km/h | 5667m | -1.3m/s | 0°C | 0% | 0hPa | 0V | 00:00:00 | 00:00:00 | 00:00:00 | |
| MIELECB | 2026-09-04 11:54:36 | 49.79391 | 21.52265 | 123° | 88km/h | 5676m | -1.0m/s | 0°C | 0% | 0hPa | 0V | 00:00:00 | 00:00:00 | 00:00:00 | |
| SQ9PSP-11 | 2026-09-04 11:54:35 | 49.79403 | 21.52236 | 125° | 86km/h | 5678m | -1.3m/s | 0°C | 0% | 0hPa | 0V | 00:00:00 | 00:00:00 | 00:00:00 | |
| SQ9EZE-12 | 2026-09-04 11:54:33 | 49.79428 | 21.52180 | 125° | 88km/h | 5682m | -1.8m/s | 0°C | 0% | 0hPa | 0V | 00:00:00 | 00:00:00 | 00:00:00 | |
| MIELECB | 2026-09-04 11:54:30 | 49.79465 | 21.52094 | 125° | 89km/h | 5689m | -1.7m/s | 0°C | 0% | 0hPa | 0V | 00:00:00 | 00:00:00 | 00:00:00 | |
| MIELECB | 2026-09-04 11:54:24 | 49.79537 | 21.51921 | 126° | 86km/h | 5702m | -1.4m/s | 0°C | 0% | 0hPa | 0V | 00:00:00 | 00:00:00 | 00:00:00 | |
| SQ9PSP-11 | 2026-09-04 11:54:20 | 49.79586 | 21.51805 | 122° | 88km/h | 5708m | -1.4m/s | 0°C | 0% | 0hPa | 0V | 00:00:00 | 00:00:00 | 00:00:00 | |
| MIELECB | 2026-09-04 11:54:19 | 49.79597 | 21.51776 | 124° | 86km/h | 5710m | -0.8m/s | 0°C | 0% | 0hPa | 0V | 00:00:00 | 00:00:00 | 00:00:00 | |
| SP9KGR-15 | 2026-09-04 11:54:17 | 49.79621 | 21.51720 | 126° | 86km/h | 5713m | -1.7m/s | 0°C | 0% | 0hPa | 0V | 00:00:00 | 00:00:00 | 00:00:00 | |
| SQ9EZE-12 | 2026-09-04 11:54:16 | 49.79634 | 21.51693 | 125° | 88km/h | 5715m | -1.6m/s | 0°C | 0% | 0hPa | 0V | 00:00:00 | 00:00:00 | 00:00:00 | |
| SP9SOS | 2026-09-04 11:54:14 | 49.79659 | 21.51635 | 124° | 91km/h | 5719m | -1.7m/s | 0°C | 0% | 0hPa | 0V | 00:00:00 | 00:00:00 | 00:00:00 | |
| MIELECB | 2026-09-04 11:54:13 | 49.79671 | 21.51605 | 123° | 89km/h | 5721m | -2.1m/s | 0°C | 0% | 0hPa | 0V | 00:00:00 | 00:00:00 | 00:00:00 | |
| MIELECB | 2026-09-04 11:54:07 | 49.79745 | 21.51431 | 123° | 89km/h | 5734m | -1.3m/s | 0°C | 0% | 0hPa | 0V | 00:00:00 | 00:00:00 | 00:00:00 | |
| SQ9PSP-11 | 2026-09-04 11:54:05 | 49.79768 | 21.51372 | 122° | 86km/h | 5738m | -1.7m/s | 0°C | 0% | 0hPa | 0V | 00:00:00 | 00:00:00 | 00:00:00 | |
| MIELECB | 2026-09-04 11:54:02 | 49.79803 | 21.51289 | 126° | 86km/h | 5744m | -1.5m/s | 0°C | 0% | 0hPa | 0V | 00:00:00 | 00:00:00 | 00:00:00 | |
| AKAW68 | 2026-09-04 11:53:58 | 49.79850 | 21.51172 | 122° | 88km/h | 5752m | -1.2m/s | 0°C | 0% | 0hPa | 0V | 00:00:00 | 00:00:00 | 00:00:00 | |
| MIELECB | 2026-09-04 11:53:57 | 49.79861 | 21.51143 | 123° | 84km/h | 5755m | -1.4m/s | 0°C | 0% | 0hPa | 0V | 00:00:00 | 00:00:00 | 00:00:00 | |
| SP9KGR-15 | 2026-09-04 11:53:55 | 49.79885 | 21.51088 | 125° | 84km/h | 5758m | -1.4m/s | 0°C | 0% | 0hPa | 0V | 00:00:00 | 00:00:00 | 00:00:00 | |
| MIELECB | 2026-09-04 11:53:51 | 49.79932 | 21.50973 | 122° | 86km/h | 5766m | -1.7m/s | 0°C | 0% | 0hPa | 0V | 00:00:00 | 00:00:00 | 00:00:00 | |
| SQ9PSP-11 | 2026-09-04 11:53:49 | 49.79956 | 21.50918 | 125° | 82km/h | 5770m | -2.0m/s | 0°C | 0% | 0hPa | 0V | 00:00:00 | 00:00:00 | 00:00:00 | |
| SP9SOS | 2026-09-04 11:53:48 | 49.79967 | 21.50891 | 126° | 84km/h | 5772m | -1.6m/s | 0°C | 0% | 0hPa | 0V | 00:00:00 | 00:00:00 | 00:00:00 | |
| MIELECB | 2026-09-04 11:53:45 | 49.80004 | 21.50804 | 121° | 88km/h | 5778m | -1.9m/s | 0°C | 0% | 0hPa | 0V | 00:00:00 | 00:00:00 | 00:00:00 | |
| SQ9EZE-12 | 2026-09-04 11:53:40 | 49.80061 | 21.50664 | 124° | 86km/h | 5790m | -1.9m/s | 0°C | 0% | 0hPa | 0V | 00:00:00 | 00:00:00 | 00:00:00 | |
| AKAW68 | 2026-09-04 11:53:39 | 49.80084 | 21.50607 | 120° | 86km/h | 5795m | -0.7m/s | 0°C | 0% | 0hPa | 0V | 00:00:00 | 00:00:00 | 00:00:00 | |
| MIELECB | 2026-09-04 11:53:34 | 49.80129 | 21.50493 | 124° | 84km/h | 5805m | -2.1m/s | 0°C | 0% | 0hPa | 0V | 00:00:00 | 00:00:00 | 00:00:00 | |
| SQ9PSP-11 | 2026-09-04 11:53:33 | 49.80140 | 21.50465 | 124° | 86km/h | 5807m | -1.6m/s | 0°C | 0% | 0hPa | 0V | 00:00:00 | 00:00:00 | 00:00:00 | |
| MIELECB | 2026-09-04 11:53:28 | 49.80197 | 21.50323 | 125° | 80km/h | 5819m | -1.3m/s | 0°C | 0% | 0hPa | 0V | 00:00:00 | 00:00:00 | 00:00:00 | |
| SQ9EZE-12 | 2026-09-04 11:53:25 | 49.80234 | 21.50240 | 125° | 86km/h | 5826m | -2.0m/s | 0°C | 0% | 0hPa | 0V | 00:00:00 | 00:00:00 | 00:00:00 | |
| SP9SOS | 2026-09-04 11:53:23 | 49.80257 | 21.50185 | 122° | 84km/h | 5831m | -1.6m/s | 0°C | 0% | 0hPa | 0V | 00:00:00 | 00:00:00 | 00:00:00 | |
| MIELECB | 2026-09-04 11:53:22 | 49.80269 | 21.50157 | 124° | 84km/h | 5834m | -1.9m/s | 0°C | 0% | 0hPa | 0V | 00:00:00 | 00:00:00 | 00:00:00 | |
| SQ9PSP-11 | 2026-09-04 11:53:18 | 49.80318 | 21.50047 | 123° | 86km/h | 5845m | -2.1m/s | 0°C | 0% | 0hPa | 0V | 00:00:00 | 00:00:00 | 00:00:00 | |
| MIELECB | 2026-09-04 11:53:17 | 49.80330 | 21.50019 | 125° | 84km/h | 5849m | -1.9m/s | 0°C | 0% | 0hPa | 0V | 00:00:00 | 00:00:00 | 00:00:00 | |
| AKAW68 | 2026-09-04 11:53:15 | 49.80354 | 21.49966 | 127° | 84km/h | 5855m | -1.5m/s | 0°C | 0% | 0hPa | 0V | 00:00:00 | 00:00:00 | 00:00:00 | |
| MIELECB | 2026-09-04 11:53:11 | 49.80404 | 21.49858 | 126° | 84km/h | 5863m | -1.3m/s | 0°C | 0% | 0hPa | 0V | 00:00:00 | 00:00:00 | 00:00:00 | |
| SQ9EZE-12 | 2026-09-04 11:53:09 | 49.80429 | 21.49804 | 126° | 84km/h | 5867m | -1.3m/s | 0°C | 0% | 0hPa | 0V | 00:00:00 | 00:00:00 | 00:00:00 | |
| MIELECB | 2026-09-04 11:53:05 | 49.80479 | 21.49698 | 128° | 84km/h | 5875m | -2.9m/s | 0°C | 0% | 0hPa | 0V | 00:00:00 | 00:00:00 | 00:00:00 | |
| SQ9PSP-11 | 2026-09-04 11:53:02 | 49.80518 | 21.49619 | 127° | 84km/h | 5884m | -2.2m/s | 0°C | 0% | 0hPa | 0V | 00:00:00 | 00:00:00 | 00:00:00 | |
| MIELECB | 2026-09-04 11:52:59 | 49.80557 | 21.49541 | 130° | 88km/h | 5891m | -1.8m/s | 0°C | 0% | 0hPa | 0V | 00:00:00 | 00:00:00 | 00:00:00 | |
| SP9SOS | 2026-09-04 11:52:57 | 49.80583 | 21.49487 | 127° | 88km/h | 5895m | -1.5m/s | 0°C | 0% | 0hPa | 0V | 00:00:00 | 00:00:00 | 00:00:00 | |
| AKAW68 | 2026-09-04 11:52:55 | 49.80608 | 21.49434 | 130° | 80km/h | 5902m | -1.7m/s | 0°C | 0% | 0hPa | 0V | 00:00:00 | 00:00:00 | 00:00:00 | |
| SP9KGR-15 | 2026-09-04 11:52:54 | 49.80621 | 21.49410 | 132° | 80km/h | 5904m | -1.6m/s | 0°C | 0% | 0hPa | 0V | 00:00:00 | 00:00:00 | 00:00:00 | |
| SQ9EZE-12 | 2026-09-04 11:52:52 | 49.80647 | 21.49363 | 130° | 82km/h | 5909m | -2.4m/s | 0°C | 0% | 0hPa | 0V | 00:00:00 | 00:00:00 | 00:00:00 | |
| MIELECB | 2026-09-04 11:52:49 | 49.80684 | 21.49285 | 126° | 84km/h | 5917m | -2.2m/s | 0°C | 0% | 0hPa | 0V | 00:00:00 | 00:00:00 | 00:00:00 | |
| SQ9PSP-11 | 2026-09-04 11:52:46 | 49.80722 | 21.49203 | 129° | 89km/h | 5926m | -2.4m/s | 0°C | 0% | 0hPa | 0V | 00:00:00 | 00:00:00 | 00:00:00 | |
| MIELECB | 2026-09-04 11:52:43 | 49.80765 | 21.49122 | 130° | 86km/h | 5935m | -1.7m/s | 0°C | 0% | 0hPa | 0V | 00:00:00 | 00:00:00 | 00:00:00 | |
| MIELECB | 2026-09-04 11:52:38 | 49.80826 | 21.48986 | 126° | 78km/h | 5948m | -2.1m/s | 0°C | 0% | 0hPa | 0V | 00:00:00 | 00:00:00 | 00:00:00 | |
| AKAW68 | 2026-09-04 11:52:35 | 49.80863 | 21.48912 | 130° | 82km/h | 5957m | -2.8m/s | 0°C | 0% | 0hPa | 0V | 00:00:00 | 00:00:00 | 00:00:00 | |
| SP9SOS | 2026-09-04 11:52:31 | 49.80913 | 21.48804 | 127° | 82km/h | 5970m | -2.7m/s | 0°C | 0% | 0hPa | 0V | 00:00:00 | 00:00:00 | 00:00:00 | |
| SQ9EZE-12 | 2026-09-04 11:52:30 | 49.80925 | 21.48778 | 125° | 80km/h | 5973m | -2.3m/s | 0°C | 0% | 0hPa | 0V | 00:00:00 | 00:00:00 | 00:00:00 | |
| MIELECB | 2026-09-04 11:52:24 | 49.80997 | 21.48622 | 126° | 80km/h | 5990m | -2.5m/s | 0°C | 0% | 0hPa | 0V | 00:00:00 | 00:00:00 | 00:00:00 | |
| MIELECB | 2026-09-04 11:52:19 | 49.81054 | 21.48493 | 127° | 78km/h | 6005m | -2.7m/s | 0°C | 0% | 0hPa | 0V | 00:00:00 | 00:00:00 | 00:00:00 | |
| MIELECB | 2026-09-04 11:52:14 | 49.81111 | 21.48363 | 126° | 77km/h | 6019m | -2.2m/s | 0°C | 0% | 0hPa | 0V | 00:00:00 | 00:00:00 | 00:00:00 | |
| MIELECB | 2026-09-04 11:52:08 | 49.81181 | 21.48210 | 124° | 80km/h | 6036m | -2.2m/s | 0°C | 0% | 0hPa | 0V | 00:00:00 | 00:00:00 | 00:00:00 | |
| SP9KGR-15 | 2026-09-04 11:52:06 | 49.81204 | 21.48158 | 129° | 80km/h | 6041m | -1.0m/s | 0°C | 0% | 0hPa | 0V | 00:00:00 | 00:00:00 | 00:00:00 | |
| SQ9PSP-11 | 2026-09-04 11:51:59 | 49.81287 | 21.47979 | 127° | 78km/h | 6059m | -2.4m/s | 0°C | 0% | 0hPa | 0V | 00:00:00 | 00:00:00 | 00:00:00 | |
| SQ9EZE-12 | 2026-09-04 11:51:57 | 49.81310 | 21.47929 | 128° | 82km/h | 6065m | -1.9m/s | 0°C | 0% | 0hPa | 0V | 00:00:00 | 00:00:00 | 00:00:00 | |
| MIELECB | 2026-09-04 11:51:56 | 49.81323 | 21.47903 | 127° | 82km/h | 6067m | -1.1m/s | 0°C | 0% | 0hPa | 0V | 00:00:00 | 00:00:00 | 00:00:00 | |
| AKAW68 | 2026-09-04 11:51:53 | 49.81358 | 21.47824 | 126° | 80km/h | 6075m | -1.8m/s | 0°C | 0% | 0hPa | 0V | 00:00:00 | 00:00:00 | 00:00:00 | |
| MIELECB | 2026-09-04 11:51:51 | 49.81382 | 21.47775 | 128° | 78km/h | 6080m | -2.0m/s | 0°C | 0% | 0hPa | 0V | 00:00:00 | 00:00:00 | 00:00:00 | |
| SP9KGR-15 | 2026-09-04 11:51:46 | 49.81441 | 21.47645 | 126° | 80km/h | 6092m | -2.1m/s | 0°C | 0% | 0hPa | 0V | 00:00:00 | 00:00:00 | 00:00:00 | |
| MIELECB | 2026-09-04 11:51:45 | 49.81453 | 21.47620 | 127° | 78km/h | 6095m | -1.9m/s | 0°C | 0% | 0hPa | 0V | 00:00:00 | 00:00:00 | 00:00:00 | |
| SQ9PSP-11 | 2026-09-04 11:51:44 | 49.81465 | 21.47595 | 129° | 78km/h | 6098m | -2.6m/s | 0°C | 0% | 0hPa | 0V | 00:00:00 | 00:00:00 | 00:00:00 | |
| SP9SOS | 2026-09-04 11:51:41 | 49.81501 | 21.47520 | 127° | 82km/h | 6106m | -1.8m/s | 0°C | 0% | 0hPa | 0V | 00:00:00 | 00:00:00 | 00:00:00 | |
| MIELECB | 2026-09-04 11:51:40 | 49.81513 | 21.47493 | 124° | 82km/h | 6108m | -1.3m/s | 0°C | 0% | 0hPa | 0V | 00:00:00 | 00:00:00 | 00:00:00 | |
| MIELECB | 2026-09-04 11:51:34 | 49.81586 | 21.47339 | 128° | 86km/h | 6123m | -2.6m/s | 0°C | 0% | 0hPa | 0V | 00:00:00 | 00:00:00 | 00:00:00 | |
| AKAW68 | 2026-09-04 11:51:31 | 49.81621 | 21.47257 | 124° | 80km/h | 6133m | -1.5m/s | 0°C | 0% | 0hPa | 0V | 00:00:00 | 00:00:00 | 00:00:00 | |
| SP9KGR-15 | 2026-09-04 11:51:29 | 49.81644 | 21.47206 | 128° | 78km/h | 6137m | -1.5m/s | 0°C | 0% | 0hPa | 0V | 00:00:00 | 00:00:00 | 00:00:00 | |
| SQ9PSP-11 | 2026-09-04 11:51:28 | 49.81656 | 21.47182 | 128° | 82km/h | 6139m | -1.5m/s | 0°C | 0% | 0hPa | 0V | 00:00:00 | 00:00:00 | 00:00:00 | |
| SQ9EZE-12 | 2026-09-04 11:51:24 | 49.81708 | 21.47076 | 126° | 84km/h | 6149m | -1.9m/s | 0°C | 0% | 0hPa | 0V | 00:00:00 | 00:00:00 | 00:00:00 | |
| AKAW682 | 2026-09-04 11:51:21 | 49.81743 | 21.46995 | 126° | 78km/h | 6157m | -1.3m/s | 0°C | 0% | 0hPa | 0V | 00:00:00 | 00:00:00 | 00:00:00 | |
| MIELECB | 2026-09-04 11:51:16 | 49.81806 | 21.46867 | 126° | 86km/h | 6167m | -2.0m/s | 0°C | 0% | 0hPa | 0V | 00:00:00 | 00:00:00 | 00:00:00 | |
| SP9SOS | 2026-09-04 11:51:15 | 49.81819 | 21.46840 | 126° | 84km/h | 6170m | -2.5m/s | 0°C | 0% | 0hPa | 0V | 00:00:00 | 00:00:00 | 00:00:00 | |
| SP9KGR-15 | 2026-09-04 11:51:14 | 49.81831 | 21.46813 | 127° | 84km/h | 6173m | -2.5m/s | 0°C | 0% | 0hPa | 0V | 00:00:00 | 00:00:00 | 00:00:00 | |
| SQ9PSP-11 | 2026-09-04 11:51:12 | 49.81855 | 21.46761 | 127° | 82km/h | 6178m | -2.2m/s | 0°C | 0% | 0hPa | 0V | 00:00:00 | 00:00:00 | 00:00:00 | |
| MIELECB | 2026-09-04 11:51:10 | 49.81880 | 21.46710 | 129° | 82km/h | 6183m | -2.2m/s | 0°C | 0% | 0hPa | 0V | 00:00:00 | 00:00:00 | 00:00:00 | |
| SQ9EZE-12 | 2026-09-04 11:51:09 | 49.81893 | 21.46684 | 130° | 84km/h | 6186m | -3.2m/s | 0°C | 0% | 0hPa | 0V | 00:00:00 | 00:00:00 | 00:00:00 | |
| MIELECB | 2026-09-04 11:51:04 | 49.81956 | 21.46549 | 127° | 82km/h | 6198m | -1.5m/s | 0°C | 0% | 0hPa | 0V | 00:00:00 | 00:00:00 | 00:00:00 | |
| MIELECB | 2026-09-04 11:50:59 | 49.82021 | 21.46423 | 128° | 86km/h | 6210m | -1.2m/s | 0°C | 0% | 0hPa | 0V | 00:00:00 | 00:00:00 | 00:00:00 | |
| AKAW682 | 2026-09-04 11:50:57 | 49.82046 | 21.46369 | 127° | 84km/h | 6215m | -2.4m/s | 0°C | 0% | 0hPa | 0V | 00:00:00 | 00:00:00 | 00:00:00 | |
| SQ9PSP-11 | 2026-09-04 11:50:56 | 49.82058 | 21.46342 | 127° | 84km/h | 6217m | -2.8m/s | 0°C | 0% | 0hPa | 0V | 00:00:00 | 00:00:00 | 00:00:00 | |
| SQ9EZE-12 | 2026-09-04 11:50:53 | 49.82097 | 21.46263 | 129° | 86km/h | 6225m | -2.2m/s | 0°C | 0% | 0hPa | 0V | 00:00:00 | 00:00:00 | 00:00:00 | |
| AKAW68 | 2026-09-04 11:50:50 | 49.82136 | 21.46184 | 128° | 86km/h | 6233m | -2.8m/s | 0°C | 0% | 0hPa | 0V | 00:00:00 | 00:00:00 | 00:00:00 | |
| MIELECB | 2026-09-04 11:50:47 | 49.82175 | 21.46107 | 128° | 82km/h | 6242m | -2.8m/s | 0°C | 0% | 0hPa | 0V | 00:00:00 | 00:00:00 | 00:00:00 | |
| SQ9PSP-11 | 2026-09-04 11:50:42 | 49.82256 | 21.45946 | 132° | 86km/h | 6259m | -2.1m/s | 0°C | 0% | 0hPa | 0V | 00:00:00 | 00:00:00 | 00:00:00 | |
| MIELECB | 2026-09-04 11:50:36 | 49.82321 | 21.45814 | 128° | 88km/h | 6269m | -1.8m/s | 0°C | 0% | 0hPa | 0V | 00:00:00 | 00:00:00 | 00:00:00 | |
| SP9KGR-15 | 2026-09-04 11:50:34 | 49.82348 | 21.45761 | 131° | 86km/h | 6274m | -2.2m/s | 0°C | 0% | 0hPa | 0V | 00:00:00 | 00:00:00 | 00:00:00 | |
| MIELECB | 2026-09-04 11:50:30 | 49.82401 | 21.45658 | 127° | 84km/h | 6283m | -2.2m/s | 0°C | 0% | 0hPa | 0V | 00:00:00 | 00:00:00 | 00:00:00 | |
| AKAW68 | 2026-09-04 11:50:28 | 49.82427 | 21.45604 | 129° | 88km/h | 6288m | -2.5m/s | 0°C | 0% | 0hPa | 0V | 00:00:00 | 00:00:00 | 00:00:00 | |
| SQ9PSP-11 | 2026-09-04 11:50:25 | 49.82469 | 21.45521 | 130° | 91km/h | 6296m | -2.0m/s | 0°C | 0% | 0hPa | 0V | 00:00:00 | 00:00:00 | 00:00:00 | |
| MIELECB | 2026-09-04 11:50:24 | 49.82483 | 21.45494 | 131° | 88km/h | 6298m | -1.8m/s | 0°C | 0% | 0hPa | 0V | 00:00:00 | 00:00:00 | 00:00:00 | |
| SQ9EZE-12 | 2026-09-04 11:50:20 | 49.82539 | 21.45389 | 129° | 91km/h | 6307m | -1.8m/s | 0°C | 0% | 0hPa | 0V | 00:00:00 | 00:00:00 | 00:00:00 | |
| MIELECB | 2026-09-04 11:50:19 | 49.82553 | 21.45361 | 128° | 91km/h | 6309m | -2.4m/s | 0°C | 0% | 0hPa | 0V | 00:00:00 | 00:00:00 | 00:00:00 | |
| SP9KGR-15 | 2026-09-04 11:50:16 | 49.82595 | 21.45280 | 132° | 89km/h | 6316m | -1.8m/s | 0°C | 0% | 0hPa | 0V | 00:00:00 | 00:00:00 | 00:00:00 | |
| AKAW682 | 2026-09-04 11:50:13 | 49.82638 | 21.45200 | 130° | 89km/h | 6324m | -2.0m/s | 0°C | 0% | 0hPa | 0V | 00:00:00 | 00:00:00 | 00:00:00 | |
| SQ9PSP-11 | 2026-09-04 11:50:09 | 49.82694 | 21.45093 | 130° | 88km/h | 6335m | -2.8m/s | 0°C | 0% | 0hPa | 0V | 00:00:00 | 00:00:00 | 00:00:00 | |
| MIELECB | 2026-09-04 11:50:08 | 49.82708 | 21.45066 | 128° | 88km/h | 6337m | -1.8m/s | 0°C | 0% | 0hPa | 0V | 00:00:00 | 00:00:00 | 00:00:00 | |
| AKAW68 | 2026-09-04 11:50:07 | 49.82721 | 21.45038 | 128° | 91km/h | 6340m | -1.8m/s | 0°C | 0% | 0hPa | 0V | 00:00:00 | 00:00:00 | 00:00:00 | |
| SQ9EZE-12 | 2026-09-04 11:50:04 | 49.82764 | 21.44953 | 134° | 93km/h | 6348m | -0.6m/s | 0°C | 0% | 0hPa | 0V | 00:00:00 | 00:00:00 | 00:00:00 | |
| MIELECB | 2026-09-04 11:50:03 | 49.82780 | 21.44927 | 132° | 89km/h | 6349m | -1.3m/s | 0°C | 0% | 0hPa | 0V | 00:00:00 | 00:00:00 | 00:00:00 | |
| SP9KGR-15 | 2026-09-04 11:50:01 | 49.82809 | 21.44873 | 130° | 88km/h | 6354m | -2.0m/s | 0°C | 0% | 0hPa | 0V | 00:00:00 | 00:00:00 | 00:00:00 | |
| MIELECB | 2026-09-04 11:49:57 | 49.82862 | 21.44764 | 126° | 93km/h | 6364m | -2.9m/s | 0°C | 0% | 0hPa | 0V | 00:00:00 | 00:00:00 | 00:00:00 | |
| SQ9PSP-11 | 2026-09-04 11:49:54 | 49.82906 | 21.44679 | 132° | 91km/h | 6370m | -2.5m/s | 0°C | 0% | 0hPa | 0V | 00:00:00 | 00:00:00 | 00:00:00 | |
| AKAW682 | 2026-09-04 11:49:52 | 49.82935 | 21.44625 | 129° | 88km/h | 6375m | -2.1m/s | 0°C | 0% | 0hPa | 0V | 00:00:00 | 00:00:00 | 00:00:00 | |
| MIELECB | 2026-09-04 11:49:51 | 49.82949 | 21.44598 | 129° | 86km/h | 6378m | -1.6m/s | 0°C | 0% | 0hPa | 0V | 00:00:00 | 00:00:00 | 00:00:00 | |
| AKAW68 | 2026-09-04 11:49:47 | 49.83003 | 21.44486 | 128° | 93km/h | 6386m | -1.8m/s | 0°C | 0% | 0hPa | 0V | 00:00:00 | 00:00:00 | 00:00:00 | |
| SQ9EZE-12 | 2026-09-04 11:49:46 | 49.83017 | 21.44457 | 130° | 93km/h | 6388m | -1.6m/s | 0°C | 0% | 0hPa | 0V | 00:00:00 | 00:00:00 | 00:00:00 | |
| MIELECB | 2026-09-04 11:49:45 | 49.83032 | 21.44429 | 133° | 93km/h | 6390m | -1.3m/s | 0°C | 0% | 0hPa | 0V | 00:00:00 | 00:00:00 | 00:00:00 | |
| MIELECB | 2026-09-04 11:49:40 | 49.83106 | 21.44292 | 131° | 93km/h | 6400m | -0.9m/s | 0°C | 0% | 0hPa | 0V | 00:00:00 | 00:00:00 | 00:00:00 | |
| SQ9PSP-11 | 2026-09-04 11:49:39 | 49.83120 | 21.44264 | 129° | 93km/h | 6402m | -2.0m/s | 0°C | 0% | 0hPa | 0V | 00:00:00 | 00:00:00 | 00:00:00 | |
| MIELECB | 2026-09-04 11:49:35 | 49.83180 | 21.44149 | 133° | 93km/h | 6411m | -2.0m/s | 0°C | 0% | 0hPa | 0V | 00:00:00 | 00:00:00 | 00:00:00 | |
| SP9KGR-15 | 2026-09-04 11:49:29 | 49.83266 | 21.43981 | 129° | 95km/h | 6424m | -1.6m/s | 0°C | 0% | 0hPa | 0V | 00:00:00 | 00:00:00 | 00:00:00 | |
| AKAW68 | 2026-09-04 11:49:26 | 49.83311 | 21.43893 | 132° | 93km/h | 6431m | -2.0m/s | 0°C | 0% | 0hPa | 0V | 00:00:00 | 00:00:00 | 00:00:00 | |
| MIELECB | 2026-09-04 11:49:24 | 49.83342 | 21.43839 | 131° | 89km/h | 6434m | -2.2m/s | 0°C | 0% | 0hPa | 0V | 00:00:00 | 00:00:00 | 00:00:00 | |
| AKAW682 | 2026-09-04 11:49:23 | 49.83356 | 21.43812 | 128° | 91km/h | 6436m | -2.0m/s | 0°C | 0% | 0hPa | 0V | 00:00:00 | 00:00:00 | 00:00:00 | |
| SP9SOS | 2026-09-04 11:49:22 | 49.83369 | 21.43783 | 128° | 91km/h | 6439m | -2.2m/s | 0°C | 0% | 0hPa | 0V | 00:00:00 | 00:00:00 | 00:00:00 | |
| MIELECB | 2026-09-04 11:49:18 | 49.83429 | 21.43665 | 131° | 97km/h | 6449m | -2.1m/s | 0°C | 0% | 0hPa | 0V | 00:00:00 | 00:00:00 | 00:00:00 | |
| MIELECB | 2026-09-04 11:49:13 | 49.83503 | 21.43527 | 131° | 88km/h | 6458m | 0.4m/s | 0°C | 0% | 0hPa | 0V | 00:00:00 | 00:00:00 | 00:00:00 | |
| SP9KGR-15 | 2026-09-04 11:49:12 | 49.83517 | 21.43499 | 128° | 91km/h | 6459m | -1.4m/s | 0°C | 0% | 0hPa | 0V | 00:00:00 | 00:00:00 | 00:00:00 | |
| SQ9EZE-12 | 2026-09-04 11:49:10 | 49.83545 | 21.43439 | 127° | 97km/h | 6462m | -1.9m/s | 0°C | 0% | 0hPa | 0V | 00:00:00 | 00:00:00 | 00:00:00 | |
| MIELECB | 2026-09-04 11:49:07 | 49.83591 | 21.43349 | 130° | 95km/h | 6469m | -1.8m/s | 0°C | 0% | 0hPa | 0V | 00:00:00 | 00:00:00 | 00:00:00 | |
| AKAW68 | 2026-09-04 11:49:06 | 49.83607 | 21.43320 | 132° | 93km/h | 6471m | -2.0m/s | 0°C | 0% | 0hPa | 0V | 00:00:00 | 00:00:00 | 00:00:00 | |
| MIELECB | 2026-09-04 11:49:01 | 49.83679 | 21.43182 | 127° | 93km/h | 6481m | -1.3m/s | 0°C | 0% | 0hPa | 0V | 00:00:00 | 00:00:00 | 00:00:00 | |
| SP9SOS | 2026-09-04 11:48:57 | 49.83738 | 21.43061 | 131° | 95km/h | 6489m | -1.3m/s | 0°C | 0% | 0hPa | 0V | 00:00:00 | 00:00:00 | 00:00:00 | |
| MIELECB | 2026-09-04 11:48:56 | 49.83753 | 21.43032 | 131° | 95km/h | 6491m | -0.6m/s | 0°C | 0% | 0hPa | 0V | 00:00:00 | 00:00:00 | 00:00:00 | |
| SQ9PSP-11 | 2026-09-04 11:48:51 | 49.83829 | 21.42893 | 130° | 95km/h | 6500m | -1.3m/s | 0°C | 0% | 0hPa | 0V | 00:00:00 | 00:00:00 | 00:00:00 | |
| MIELECB | 2026-09-04 11:48:50 | 49.83843 | 21.42863 | 127° | 99km/h | 6501m | -0.8m/s | 0°C | 0% | 0hPa | 0V | 00:00:00 | 00:00:00 | 00:00:00 | |
| AKAW68 | 2026-09-04 11:48:46 | 49.83901 | 21.42742 | 128° | 97km/h | 6509m | -1.1m/s | 0°C | 0% | 0hPa | 0V | 00:00:00 | 00:00:00 | 00:00:00 | |
| MIELECB | 2026-09-04 11:48:45 | 49.83916 | 21.42713 | 129° | 91km/h | 6510m | -0.5m/s | 0°C | 0% | 0hPa | 0V | 00:00:00 | 00:00:00 | 00:00:00 | |
| MIELECB | 2026-09-04 11:48:39 | 49.84008 | 21.42544 | 132° | 99km/h | 6520m | -1.7m/s | 0°C | 0% | 0hPa | 0V | 00:00:00 | 00:00:00 | 00:00:00 | |
| SQ9PSP-11 | 2026-09-04 11:48:36 | 49.84053 | 21.42453 | 127° | 95km/h | 6526m | -1.4m/s | 0°C | 0% | 0hPa | 0V | 00:00:00 | 00:00:00 | 00:00:00 | |
| MIELECB | 2026-09-04 11:48:34 | 49.84080 | 21.42394 | 128° | 93km/h | 6529m | -1.2m/s | 0°C | 0% | 0hPa | 0V | 00:00:00 | 00:00:00 | 00:00:00 | |
| SP9KGR-15 | 2026-09-04 11:48:32 | 49.84109 | 21.42336 | 129° | 95km/h | 6532m | -0.4m/s | 0°C | 0% | 0hPa | 0V | 00:00:00 | 00:00:00 | 00:00:00 | |
| SP9SOS | 2026-09-04 11:48:29 | 49.84156 | 21.42250 | 132° | 97km/h | 6536m | -1.0m/s | 0°C | 0% | 0hPa | 0V | 00:00:00 | 00:00:00 | 00:00:00 | |
| MIELECB | 2026-09-04 11:48:28 | 49.84171 | 21.42221 | 131° | 95km/h | 6537m | -1.2m/s | 0°C | 0% | 0hPa | 0V | 00:00:00 | 00:00:00 | 00:00:00 | |
| AKAW68 | 2026-09-04 11:48:25 | 49.84215 | 21.42134 | 127° | 93km/h | 6541m | -0.6m/s | 0°C | 0% | 0hPa | 0V | 00:00:00 | 00:00:00 | 00:00:00 | |
| MIELECB | 2026-09-04 11:48:23 | 49.84243 | 21.42075 | 128° | 95km/h | 6543m | -1.2m/s | 0°C | 0% | 0hPa | 0V | 00:00:00 | 00:00:00 | 00:00:00 | |
| SQ9PSP-11 | 2026-09-04 11:48:20 | 49.84288 | 21.41985 | 129° | 99km/h | 6547m | -1.2m/s | 0°C | 0% | 0hPa | 0V | 00:00:00 | 00:00:00 | 00:00:00 | |
| MIELECB | 2026-09-04 11:48:17 | 49.84334 | 21.41897 | 129° | 95km/h | 6551m | -1.2m/s | 0°C | 0% | 0hPa | 0V | 00:00:00 | 00:00:00 | 00:00:00 | |
| SP9KGR-15 | 2026-09-04 11:48:14 | 49.84377 | 21.41808 | 128° | 95km/h | 6556m | -1.3m/s | 0°C | 0% | 0hPa | 0V | 00:00:00 | 00:00:00 | 00:00:00 | |
| MIELECB | 2026-09-04 11:48:07 | 49.84482 | 21.41597 | 131° | 99km/h | 6565m | -1.2m/s | 0°C | 0% | 0hPa | 0V | 00:00:00 | 00:00:00 | 00:00:00 | |
| SQ9PSP-11 | 2026-09-04 11:48:04 | 49.84528 | 21.41509 | 128° | 97km/h | 6571m | -1.2m/s | 0°C | 0% | 0hPa | 0V | 00:00:00 | 00:00:00 | 00:00:00 | |
| SP9SOS | 2026-09-04 11:48:03 | 49.84543 | 21.41479 | 129° | 95km/h | 6572m | -0.4m/s | 0°C | 0% | 0hPa | 0V | 00:00:00 | 00:00:00 | 00:00:00 | |
| SQ9EZE-12 | 2026-09-04 11:48:02 | 49.84558 | 21.41450 | 130° | 95km/h | 6573m | -0.6m/s | 0°C | 0% | 0hPa | 0V | 00:00:00 | 00:00:00 | 00:00:00 | |
| MIELECB | 2026-09-04 11:48:00 | 49.84587 | 21.41392 | 128° | 95km/h | 6575m | -1.2m/s | 0°C | 0% | 0hPa | 0V | 00:00:00 | 00:00:00 | 00:00:00 | |
| SP9KGR-15 | 2026-09-04 11:47:58 | 49.84617 | 21.41330 | 127° | 97km/h | 6578m | -0.7m/s | 0°C | 0% | 0hPa | 0V | 00:00:00 | 00:00:00 | 00:00:00 | |
| MIELECB | 2026-09-04 11:47:54 | 49.84676 | 21.41208 | 129° | 100km/h | 6582m | -1.2m/s | 0°C | 0% | 0hPa | 0V | 00:00:00 | 00:00:00 | 00:00:00 | |
| SQ9PSP-11 | 2026-09-04 11:47:48 | 49.84768 | 21.41027 | 129° | 97km/h | 6589m | -0.3m/s | 0°C | 0% | 0hPa | 0V | 00:00:00 | 00:00:00 | 00:00:00 | |
| SQ9EZE-12 | 2026-09-04 11:47:46 | 49.84797 | 21.40968 | 128° | 93km/h | 6590m | -0.6m/s | 0°C | 0% | 0hPa | 0V | 00:00:00 | 00:00:00 | 00:00:00 | |
| AKAW68 | 2026-09-04 11:47:43 | 49.84841 | 21.40880 | 128° | 95km/h | 6594m | -0.4m/s | 0°C | 0% | 0hPa | 0V | 00:00:00 | 00:00:00 | 00:00:00 | |
| MIELECB | 2026-09-04 11:47:42 | 49.84855 | 21.40850 | 128° | 99km/h | 6595m | -0.4m/s | 0°C | 0% | 0hPa | 0V | 00:00:00 | 00:00:00 | 00:00:00 | |
| MIELECB | 2026-09-04 11:47:37 | 49.84930 | 21.40697 | 129° | 99km/h | 6599m | -0.5m/s | 0°C | 0% | 0hPa | 0V | 00:00:00 | 00:00:00 | 00:00:00 | |
| SQ9PSP-11 | 2026-09-04 11:47:32 | 49.85006 | 21.40545 | 130° | 97km/h | 6603m | -0.7m/s | 0°C | 0% | 0hPa | 0V | 00:00:00 | 00:00:00 | 00:00:00 | |
| SQ9EZE-12 | 2026-09-04 11:47:31 | 49.85021 | 21.40516 | 129° | 95km/h | 6604m | -0.3m/s | 0°C | 0% | 0hPa | 0V | 00:00:00 | 00:00:00 | 00:00:00 | |
| AKAW682 | 2026-09-04 11:47:28 | 49.85065 | 21.40425 | 127° | 97km/h | 6607m | -0.3m/s | 0°C | 0% | 0hPa | 0V | 00:00:00 | 00:00:00 | 00:00:00 | |
| MIELECB | 2026-09-04 11:47:26 | 49.85094 | 21.40365 | 128° | 97km/h | 6607m | -0.4m/s | 0°C | 0% | 0hPa | 0V | 00:00:00 | 00:00:00 | 00:00:00 | |
| AKAW68 | 2026-09-04 11:47:22 | 49.85153 | 21.40240 | 128° | 97km/h | 6610m | -0.6m/s | 0°C | 0% | 0hPa | 0V | 00:00:00 | 00:00:00 | 00:00:00 | |
| SP9KGR-15 | 2026-09-04 11:47:21 | 49.85168 | 21.40210 | 129° | 97km/h | 6611m | -0.8m/s | 0°C | 0% | 0hPa | 0V | 00:00:00 | 00:00:00 | 00:00:00 | |
| MIELECB | 2026-09-04 11:47:20 | 49.85183 | 21.40180 | 129° | 97km/h | 6613m | -0.6m/s | 0°C | 0% | 0hPa | 0V | 00:00:00 | 00:00:00 | 00:00:00 | |
| SQ9PSP-11 | 2026-09-04 11:47:17 | 49.85229 | 21.40088 | 129° | 97km/h | 6616m | -0.6m/s | 0°C | 0% | 0hPa | 0V | 00:00:00 | 00:00:00 | 00:00:00 | |
| SQ9EZE-12 | 2026-09-04 11:47:14 | 49.85275 | 21.40000 | 129° | 97km/h | 6618m | 0.4m/s | 0°C | 0% | 0hPa | 0V | 00:00:00 | 00:00:00 | 00:00:00 | |
| MIELECB | 2026-09-04 11:47:09 | 49.85349 | 21.39849 | 129° | 95km/h | 6620m | -1.0m/s | 0°C | 0% | 0hPa | 0V | 00:00:00 | 00:00:00 | 00:00:00 | |
| AKAW682 | 2026-09-04 11:47:03 | 49.85439 | 21.39668 | 129° | 99km/h | 6624m | 0.2m/s | 0°C | 0% | 0hPa | 0V | 00:00:00 | 00:00:00 | 00:00:00 | |
| SQ9PSP-11 | 2026-09-04 11:47:02 | 49.85454 | 21.39638 | 130° | 97km/h | 6625m | -0.6m/s | 0°C | 0% | 0hPa | 0V | 00:00:00 | 00:00:00 | 00:00:00 | |
| AKAW68 | 2026-09-04 11:47:01 | 49.85470 | 21.39608 | 130° | 99km/h | 6625m | -0.4m/s | 0°C | 0% | 0hPa | 0V | 00:00:00 | 00:00:00 | 00:00:00 | |
| MIELECB | 2026-09-04 11:46:57 | 49.85530 | 21.39487 | 129° | 97km/h | 6628m | 0.5m/s | 0°C | 0% | 0hPa | 0V | 00:00:00 | 00:00:00 | 00:00:00 | |
| SQ9EZE-12 | 2026-09-04 11:46:56 | 49.85545 | 21.39457 | 129° | 97km/h | 6628m | 0.2m/s | 0°C | 0% | 0hPa | 0V | 00:00:00 | 00:00:00 | 00:00:00 | |
| MIELECB | 2026-09-04 11:46:52 | 49.85605 | 21.39337 | 129° | 97km/h | 6629m | 0.5m/s | 0°C | 0% | 0hPa | 0V | 00:00:00 | 00:00:00 | 00:00:00 | |
| SQ9PSP-11 | 2026-09-04 11:46:46 | 49.85695 | 21.39157 | 130° | 97km/h | 6628m | 0.7m/s | 0°C | 0% | 0hPa | 0V | 00:00:00 | 00:00:00 | 00:00:00 | |
| SP9KGR-15 | 2026-09-04 11:46:45 | 49.85710 | 21.39127 | 129° | 97km/h | 6627m | 0.6m/s | 0°C | 0% | 0hPa | 0V | 00:00:00 | 00:00:00 | 00:00:00 | |
| AKAW682 | 2026-09-04 11:46:42 | 49.85755 | 21.39038 | 129° | 95km/h | 6627m | 0.8m/s | 0°C | 0% | 0hPa | 0V | 00:00:00 | 00:00:00 | 00:00:00 | |
| AKAW68 | 2026-09-04 11:46:41 | 49.85770 | 21.39008 | 130° | 95km/h | 6627m | 0.0m/s | 0°C | 0% | 0hPa | 0V | 00:00:00 | 00:00:00 | 00:00:00 | |
| SQ9EZE-12 | 2026-09-04 11:46:40 | 49.85785 | 21.38979 | 129° | 95km/h | 6627m | 0.6m/s | 0°C | 0% | 0hPa | 0V | 00:00:00 | 00:00:00 | 00:00:00 | |
| MIELECB | 2026-09-04 11:46:35 | 49.85860 | 21.38830 | 129° | 97km/h | 6625m | 0.5m/s | 0°C | 0% | 0hPa | 0V | 00:00:00 | 00:00:00 | 00:00:00 | |
| MIELECB | 2026-09-04 11:46:30 | 49.85936 | 21.38680 | 128° | 99km/h | 6622m | 1.5m/s | 0°C | 0% | 0hPa | 0V | 00:00:00 | 00:00:00 | 00:00:00 | |
| SP9KGR-15 | 2026-09-04 11:46:29 | 49.85951 | 21.38651 | 129° | 95km/h | 6621m | 1.7m/s | 0°C | 0% | 0hPa | 0V | 00:00:00 | 00:00:00 | 00:00:00 | |
| MIELECB | 2026-09-04 11:46:24 | 49.86027 | 21.38501 | 129° | 97km/h | 6617m | 0.7m/s | 0°C | 0% | 0hPa | 0V | 00:00:00 | 00:00:00 | 00:00:00 | |
| SQ9EZE-12 | 2026-09-04 11:46:22 | 49.86057 | 21.38442 | 129° | 95km/h | 6617m | 0.7m/s | 0°C | 0% | 0hPa | 0V | 00:00:00 | 00:00:00 | 00:00:00 | |
| AKAW682 | 2026-09-04 11:46:21 | 49.86072 | 21.38413 | 129° | 97km/h | 6617m | 0.8m/s | 0°C | 0% | 0hPa | 0V | 00:00:00 | 00:00:00 | 00:00:00 | |
| AKAW68 | 2026-09-04 11:46:20 | 49.86086 | 21.38383 | 128° | 97km/h | 6616m | 0.5m/s | 0°C | 0% | 0hPa | 0V | 00:00:00 | 00:00:00 | 00:00:00 | |
| MIELECB | 2026-09-04 11:46:18 | 49.86117 | 21.38323 | 130° | 97km/h | 6616m | 0.8m/s | 0°C | 0% | 0hPa | 0V | 00:00:00 | 00:00:00 | 00:00:00 | |
| SQ9PSP-11 | 2026-09-04 11:46:15 | 49.86162 | 21.38233 | 128° | 97km/h | 6614m | 1.0m/s | 0°C | 0% | 0hPa | 0V | 00:00:00 | 00:00:00 | 00:00:00 | |
| SP9KGR-15 | 2026-09-04 11:46:14 | 49.86177 | 21.38203 | 129° | 95km/h | 6613m | 0.7m/s | 0°C | 0% | 0hPa | 0V | 00:00:00 | 00:00:00 | 00:00:00 | |
| MIELECB | 2026-09-04 11:46:13 | 49.86207 | 21.38143 | 129° | 99km/h | 6611m | 1.3m/s | 0°C | 0% | 0hPa | 0V | 00:00:00 | 00:00:00 | 00:00:00 | |
| SP9SOS | 2026-09-04 11:46:10 | 49.86236 | 21.38083 | 129° | 95km/h | 6609m | 1.5m/s | 0°C | 0% | 0hPa | 0V | 00:00:00 | 00:00:00 | 00:00:00 | |
| MIELECB | 2026-09-04 11:46:07 | 49.86282 | 21.37994 | 127° | 99km/h | 6607m | 0.9m/s | 0°C | 0% | 0hPa | 0V | 00:00:00 | 00:00:00 | 00:00:00 | |
| SQ9EZE-12 | 2026-09-04 11:46:03 | 49.86341 | 21.37874 | 128° | 99km/h | 6604m | 0.3m/s | 0°C | 0% | 0hPa | 0V | 00:00:00 | 00:00:00 | 00:00:00 | |
| AKAW682 | 2026-09-04 11:46:01 | 49.86371 | 21.37814 | 129° | 95km/h | 6603m | 0.6m/s | 0°C | 0% | 0hPa | 0V | 00:00:00 | 00:00:00 | 00:00:00 | |
| SQ9PSP-11 | 2026-09-04 11:46:00 | 49.86385 | 21.37785 | 128° | 95km/h | 6603m | 1.4m/s | 0°C | 0% | 0hPa | 0V | 00:00:00 | 00:00:00 | 00:00:00 | |
| MIELECB | 2026-09-04 11:45:57 | 49.86444 | 21.37665 | 129° | 95km/h | 6600m | 1.4m/s | 0°C | 0% | 0hPa | 0V | 00:00:00 | 00:00:00 | 00:00:00 | |
| SP9KGR-15 | 2026-09-04 11:45:51 | 49.86518 | 21.37516 | 129° | 95km/h | 6593m | 1.0m/s | 0°C | 0% | 0hPa | 0V | 00:00:00 | 00:00:00 | 00:00:00 | |
| MIELECB | 2026-09-04 11:45:49 | 49.86546 | 21.37456 | 128° | 95km/h | 6592m | 0.6m/s | 0°C | 0% | 0hPa | 0V | 00:00:00 | 00:00:00 | 00:00:00 | |
| SQ9EZE-12 | 2026-09-04 11:45:47 | 49.86575 | 21.37398 | 129° | 95km/h | 6591m | 1.1m/s | 0°C | 0% | 0hPa | 0V | 00:00:00 | 00:00:00 | 00:00:00 | |
| SQ9PSP-11 | 2026-09-04 11:45:44 | 49.86619 | 21.37310 | 128° | 95km/h | 6588m | 1.3m/s | 0°C | 0% | 0hPa | 0V | 00:00:00 | 00:00:00 | 00:00:00 | |
| MIELECB | 2026-09-04 11:45:40 | 49.86677 | 21.37192 | 128° | 93km/h | 6583m | 1.4m/s | 0°C | 0% | 0hPa | 0V | 00:00:00 | 00:00:00 | 00:00:00 | |
| AKAW682 | 2026-09-04 11:45:39 | 49.86691 | 21.37162 | 128° | 99km/h | 6582m | 1.1m/s | 0°C | 0% | 0hPa | 0V | 00:00:00 | 00:00:00 | 00:00:00 | |
| MIELECB | 2026-09-04 11:45:35 | 49.86751 | 21.37042 | 128° | 99km/h | 6578m | 0.7m/s | 0°C | 0% | 0hPa | 0V | 00:00:00 | 00:00:00 | 00:00:00 | |
| SP9KGR-15 | 2026-09-04 11:45:34 | 49.86766 | 21.37012 | 128° | 97km/h | 6577m | 1.2m/s | 0°C | 0% | 0hPa | 0V | 00:00:00 | 00:00:00 | 00:00:00 | |
| MIELECB | 2026-09-04 11:45:29 | 49.86838 | 21.36864 | 129° | 93km/h | 6572m | 1.3m/s | 0°C | 0% | 0hPa | 0V | 00:00:00 | 00:00:00 | 00:00:00 | |
| SQ9PSP-11 | 2026-09-04 11:45:28 | 49.86853 | 21.36835 | 128° | 95km/h | 6571m | 1.1m/s | 0°C | 0% | 0hPa | 0V | 00:00:00 | 00:00:00 | 00:00:00 | |
| MIELECB | 2026-09-04 11:45:23 | 49.86924 | 21.36688 | 127° | 97km/h | 6567m | 0.9m/s | 0°C | 0% | 0hPa | 0V | 00:00:00 | 00:00:00 | 00:00:00 | |
| AKAW68 | 2026-09-04 11:45:18 | 49.86996 | 21.36538 | 129° | 95km/h | 6560m | 1.5m/s | 0°C | 0% | 0hPa | 0V | 00:00:00 | 00:00:00 | 00:00:00 | |
| AKAW682 | 2026-09-04 11:45:17 | 49.87025 | 21.36478 | 127° | 99km/h | 6557m | 1.1m/s | 0°C | 0% | 0hPa | 0V | 00:00:00 | 00:00:00 | 00:00:00 | |
| MIELECB | 2026-09-04 11:45:11 | 49.87100 | 21.36329 | 129° | 93km/h | 6552m | 1.6m/s | 0°C | 0% | 0hPa | 0V | 00:00:00 | 00:00:00 | 00:00:00 | |
| SP9KGR-15 | 2026-09-04 11:45:07 | 49.87156 | 21.36212 | 128° | 93km/h | 6547m | 2.0m/s | 0°C | 0% | 0hPa | 0V | 00:00:00 | 00:00:00 | 00:00:00 | |
| MIELECB | 2026-09-04 11:45:05 | 49.87184 | 21.36153 | 127° | 93km/h | 6545m | 1.5m/s | 0°C | 0% | 0hPa | 0V | 00:00:00 | 00:00:00 | 00:00:00 | |
| MIELECB | 2026-09-04 11:44:59 | 49.87272 | 21.35979 | 128° | 95km/h | 6538m | 2.0m/s | 0°C | 0% | 0hPa | 0V | 00:00:00 | 00:00:00 | 00:00:00 | |
| SQ9EZE-12 | 2026-09-04 11:44:57 | 49.87302 | 21.35920 | 129° | 95km/h | 6535m | 1.6m/s | 0°C | 0% | 0hPa | 0V | 00:00:00 | 00:00:00 | 00:00:00 | |
| MIELECB | 2026-09-04 11:44:54 | 49.87345 | 21.35832 | 128° | 95km/h | 6531m | 1.5m/s | 0°C | 0% | 0hPa | 0V | 00:00:00 | 00:00:00 | 00:00:00 | |
| MIELECB | 2026-09-04 11:44:48 | 49.87429 | 21.35657 | 128° | 91km/h | 6522m | 2.0m/s | 0°C | 0% | 0hPa | 0V | 00:00:00 | 00:00:00 | 00:00:00 | |
| SP9KGR-15 | 2026-09-04 11:44:46 | 49.87457 | 21.35601 | 131° | 91km/h | 6520m | 0.8m/s | 0°C | 0% | 0hPa | 0V | 00:00:00 | 00:00:00 | 00:00:00 | |
| MIELECB | 2026-09-04 11:44:43 | 49.87501 | 21.35517 | 132° | 93km/h | 6516m | 2.8m/s | 0°C | 0% | 0hPa | 0V | 00:00:00 | 00:00:00 | 00:00:00 | |
| SQ9PSP-11 | 2026-09-04 11:44:41 | 49.87531 | 21.35461 | 128° | 91km/h | 6514m | 1.5m/s | 0°C | 0% | 0hPa | 0V | 00:00:00 | 00:00:00 | 00:00:00 | |
| SQ9EZE-12 | 2026-09-04 11:44:40 | 49.87545 | 21.35433 | 128° | 89km/h | 6513m | 1.8m/s | 0°C | 0% | 0hPa | 0V | 00:00:00 | 00:00:00 | 00:00:00 | |
| AKAW682 | 2026-09-04 11:44:37 | 49.87585 | 21.35345 | 127° | 95km/h | 6508m | 1.9m/s | 0°C | 0% | 0hPa | 0V | 00:00:00 | 00:00:00 | 00:00:00 | |
| AKAW68 | 2026-09-04 11:44:36 | 49.87599 | 21.35316 | 126° | 95km/h | 6507m | 1.4m/s | 0°C | 0% | 0hPa | 0V | 00:00:00 | 00:00:00 | 00:00:00 | |
| MIELECB | 2026-09-04 11:44:32 | 49.87657 | 21.35198 | 131° | 93km/h | 6500m | 1.6m/s | 0°C | 0% | 0hPa | 0V | 00:00:00 | 00:00:00 | 00:00:00 | |
| MIELECB | 2026-09-04 11:44:26 | 49.87743 | 21.35030 | 127° | 93km/h | 6493m | 2.0m/s | 0°C | 0% | 0hPa | 0V | 00:00:00 | 00:00:00 | 00:00:00 | |
| SQ9PSP-11 | 2026-09-04 11:44:25 | 49.87757 | 21.35001 | 129° | 93km/h | 6491m | 2.6m/s | 0°C | 0% | 0hPa | 0V | 00:00:00 | 00:00:00 | 00:00:00 | |
| MIELECB | 2026-09-04 11:44:21 | 49.87812 | 21.34884 | 128° | 91km/h | 6485m | 1.4m/s | 0°C | 0% | 0hPa | 0V | 00:00:00 | 00:00:00 | 00:00:00 | |
| AKAW68 | 2026-09-04 11:44:15 | 49.87900 | 21.34711 | 130° | 93km/h | 6478m | 1.7m/s | 0°C | 0% | 0hPa | 0V | 00:00:00 | 00:00:00 | 00:00:00 | |
| SP9SOS | 2026-09-04 11:44:14 | 49.87914 | 21.34682 | 128° | 97km/h | 6476m | 2.9m/s | 0°C | 0% | 0hPa | 0V | 00:00:00 | 00:00:00 | 00:00:00 | |
| MIELECB | 2026-09-04 11:44:10 | 49.87974 | 21.34568 | 129° | 91km/h | 6468m | 1.4m/s | 0°C | 0% | 0hPa | 0V | 00:00:00 | 00:00:00 | 00:00:00 | |
| SQ9PSP-11 | 2026-09-04 11:44:09 | 49.87988 | 21.34540 | 130° | 89km/h | 6467m | 2.0m/s | 0°C | 0% | 0hPa | 0V | 00:00:00 | 00:00:00 | 00:00:00 | |
| SQ9EZE-12 | 2026-09-04 11:44:08 | 49.88002 | 21.34513 | 129° | 89km/h | 6465m | 1.8m/s | 0°C | 0% | 0hPa | 0V | 00:00:00 | 00:00:00 | 00:00:00 | |
| AKAW682 | 2026-09-04 11:44:06 | 49.88030 | 21.34458 | 128° | 89km/h | 6463m | 1.8m/s | 0°C | 0% | 0hPa | 0V | 00:00:00 | 00:00:00 | 00:00:00 | |
| MIELECB | 2026-09-04 11:44:04 | 49.88057 | 21.34399 | 128° | 93km/h | 6460m | 2.1m/s | 0°C | 0% | 0hPa | 0V | 00:00:00 | 00:00:00 | 00:00:00 | |
| MIELECB | 2026-09-04 11:43:58 | 49.88145 | 21.34227 | 132° | 93km/h | 6450m | 1.2m/s | 0°C | 0% | 0hPa | 0V | 00:00:00 | 00:00:00 | 00:00:00 | |
| AKAW68 | 2026-09-04 11:43:55 | 49.88189 | 21.34146 | 129° | 89km/h | 6447m | 2.3m/s | 0°C | 0% | 0hPa | 0V | 00:00:00 | 00:00:00 | 00:00:00 | |
| SQ9PSP-11 | 2026-09-04 11:43:53 | 49.88217 | 21.34091 | 128° | 89km/h | 6444m | 0.9m/s | 0°C | 0% | 0hPa | 0V | 00:00:00 | 00:00:00 | 00:00:00 | |
| GYPAP8-17 | 2026-09-04 11:43:52 | 49.88231 | 21.34063 | 128° | 89km/h | 6443m | 0.3m/s | 0°C | 0% | 0hPa | 0V | 00:00:00 | 00:00:00 | 00:00:00 | |
| SQ9EZE-12 | 2026-09-04 11:43:49 | 49.88271 | 21.33977 | 127° | 93km/h | 6439m | 1.7m/s | 0°C | 0% | 0hPa | 0V | 00:00:00 | 00:00:00 | 00:00:00 | |
| MIELECB | 2026-09-04 11:43:48 | 49.88285 | 21.33947 | 128° | 93km/h | 6438m | 1.0m/s | 0°C | 0% | 0hPa | 0V | 00:00:00 | 00:00:00 | 00:00:00 | |
| AKAW682 | 2026-09-04 11:43:46 | 49.88315 | 21.33890 | 132° | 93km/h | 6436m | 2.3m/s | 0°C | 0% | 0hPa | 0V | 00:00:00 | 00:00:00 | 00:00:00 | |
| SP9KGR-15 | 2026-09-04 11:43:42 | 49.88375 | 21.33780 | 131° | 89km/h | 6429m | 1.7m/s | 0°C | 0% | 0hPa | 0V | 00:00:00 | 00:00:00 | 00:00:00 | |
| SQ9PSP-11 | 2026-09-04 11:43:38 | 49.88430 | 21.33668 | 126° | 89km/h | 6422m | 0.8m/s | 0°C | 0% | 0hPa | 0V | 00:00:00 | 00:00:00 | 00:00:00 | |
| SP9SOS | 2026-09-04 11:43:37 | 49.88443 | 21.33639 | 128° | 91km/h | 6422m | 0.7m/s | 0°C | 0% | 0hPa | 0V | 00:00:00 | 00:00:00 | 00:00:00 | |
| MIELECB | 2026-09-04 11:43:36 | 49.88457 | 21.33610 | 128° | 89km/h | 6421m | 1.4m/s | 0°C | 0% | 0hPa | 0V | 00:00:00 | 00:00:00 | 00:00:00 | |
| AKAW68 | 2026-09-04 11:43:34 | 49.88485 | 21.33555 | 131° | 89km/h | 6417m | 1.7m/s | 0°C | 0% | 0hPa | 0V | 00:00:00 | 00:00:00 | 00:00:00 | |
| MIELECB | 2026-09-04 11:43:26 | 49.88601 | 21.33336 | 126° | 89km/h | 6408m | 1.8m/s | 0°C | 0% | 0hPa | 0V | 00:00:00 | 00:00:00 | 00:00:00 | |
| SP9KGR-15 | 2026-09-04 11:43:24 | 49.88627 | 21.33279 | 128° | 89km/h | 6405m | 1.8m/s | 0°C | 0% | 0hPa | 0V | 00:00:00 | 00:00:00 | 00:00:00 | |
| SQ9PSP-11 | 2026-09-04 11:43:23 | 49.88641 | 21.33251 | 131° | 89km/h | 6404m | 1.4m/s | 0°C | 0% | 0hPa | 0V | 00:00:00 | 00:00:00 | 00:00:00 | |
| MIELECB | 2026-09-04 11:43:20 | 49.88686 | 21.33174 | 132° | 89km/h | 6401m | 1.7m/s | 0°C | 0% | 0hPa | 0V | 00:00:00 | 00:00:00 | 00:00:00 | |
| SQ9EZE-12 | 2026-09-04 11:43:19 | 49.88700 | 21.33148 | 134° | 89km/h | 6400m | 2.5m/s | 0°C | 0% | 0hPa | 0V | 00:00:00 | 00:00:00 | 00:00:00 | |
| AKAW68 | 2026-09-04 11:43:13 | 49.88784 | 21.32982 | 130° | 89km/h | 6390m | 1.9m/s | 0°C | 0% | 0hPa | 0V | 00:00:00 | 00:00:00 | 00:00:00 | |
| SP9SOS | 2026-09-04 11:43:10 | 49.88827 | 21.32904 | 133° | 89km/h | 6386m | 1.7m/s | 0°C | 0% | 0hPa | 0V | 00:00:00 | 00:00:00 | 00:00:00 | |
| SQ9PSP-11 | 2026-09-04 11:43:07 | 49.88870 | 21.32823 | 128° | 89km/h | 6383m | 0.7m/s | 0°C | 0% | 0hPa | 0V | 00:00:00 | 00:00:00 | 00:00:00 | |
| SQ9EZE-12 | 2026-09-04 11:43:04 | 49.88910 | 21.32740 | 130° | 89km/h | 6380m | 2.2m/s | 0°C | 0% | 0hPa | 0V | 00:00:00 | 00:00:00 | 00:00:00 | |
| AKAW682 | 2026-09-04 11:43:03 | 49.88923 | 21.32714 | 131° | 88km/h | 6379m | 1.5m/s | 0°C | 0% | 0hPa | 0V | 00:00:00 | 00:00:00 | 00:00:00 | |
| MIELECB | 2026-09-04 11:42:52 | 49.89082 | 21.32422 | 134° | 80km/h | 6363m | 0.9m/s | 0°C | 0% | 0hPa | 0V | 00:00:00 | 00:00:00 | 00:00:00 | |
| SQ9PSP-11 | 2026-09-04 11:42:51 | 49.89096 | 21.32398 | 132° | 84km/h | 6362m | 1.5m/s | 0°C | 0% | 0hPa | 0V | 00:00:00 | 00:00:00 | 00:00:00 | |
| SQ9EZE-12 | 2026-09-04 11:42:47 | 49.89151 | 21.32289 | 127° | 93km/h | 6357m | 1.8m/s | 0°C | 0% | 0hPa | 0V | 00:00:00 | 00:00:00 | 00:00:00 | |
| MIELECB | 2026-09-04 11:42:44 | 49.89194 | 21.32209 | 134° | 88km/h | 6353m | 1.5m/s | 0°C | 0% | 0hPa | 0V | 00:00:00 | 00:00:00 | 00:00:00 | |
| AKAW682 | 2026-09-04 11:42:41 | 49.89238 | 21.32137 | 131° | 82km/h | 6349m | 1.8m/s | 0°C | 0% | 0hPa | 0V | 00:00:00 | 00:00:00 | 00:00:00 | |
| SP9KGR-15 | 2026-09-04 11:42:39 | 49.89264 | 21.32085 | 128° | 86km/h | 6346m | 0.9m/s | 0°C | 0% | 0hPa | 0V | 00:00:00 | 00:00:00 | 00:00:00 | |
| MIELECB | 2026-09-04 11:42:38 | 49.89277 | 21.32058 | 127° | 88km/h | 6345m | 1.4m/s | 0°C | 0% | 0hPa | 0V | 00:00:00 | 00:00:00 | 00:00:00 | |
| SQ9PSP-11 | 2026-09-04 11:42:36 | 49.89304 | 21.32003 | 130° | 91km/h | 6343m | 1.1m/s | 0°C | 0% | 0hPa | 0V | 00:00:00 | 00:00:00 | 00:00:00 | |
| SP9SOS | 2026-09-04 11:42:35 | 49.89319 | 21.31975 | 132° | 91km/h | 6342m | 2.1m/s | 0°C | 0% | 0hPa | 0V | 00:00:00 | 00:00:00 | 00:00:00 | |
| MIELECB | 2026-09-04 11:42:33 | 49.89349 | 21.31924 | 136° | 88km/h | 6339m | 1.8m/s | 0°C | 0% | 0hPa | 0V | 00:00:00 | 00:00:00 | 00:00:00 | |
| SQ9EZE-12 | 2026-09-04 11:42:32 | 49.89364 | 21.31900 | 135° | 82km/h | 6337m | 1.5m/s | 0°C | 0% | 0hPa | 0V | 00:00:00 | 00:00:00 | 00:00:00 | |
| MIELECB | 2026-09-04 11:42:27 | 49.89430 | 21.31776 | 127° | 86km/h | 6330m | 2.0m/s | 0°C | 0% | 0hPa | 0V | 00:00:00 | 00:00:00 | 00:00:00 | |
| SP9KGR-15 | 2026-09-04 11:42:24 | 49.89473 | 21.31692 | 132° | 91km/h | 6326m | 1.2m/s | 0°C | 0% | 0hPa | 0V | 00:00:00 | 00:00:00 | 00:00:00 | |
| MIELECB | 2026-09-04 11:42:22 | 49.89503 | 21.31640 | 134° | 86km/h | 6323m | 1.9m/s | 0°C | 0% | 0hPa | 0V | 00:00:00 | 00:00:00 | 00:00:00 | |
| SQ9PSP-11 | 2026-09-04 11:42:21 | 49.89518 | 21.31616 | 133° | 84km/h | 6321m | 2.2m/s | 0°C | 0% | 0hPa | 0V | 00:00:00 | 00:00:00 | 00:00:00 | |
| AKAW682 | 2026-09-04 11:42:20 | 49.89532 | 21.31592 | 134° | 82km/h | 6320m | 1.1m/s | 0°C | 0% | 0hPa | 0V | 00:00:00 | 00:00:00 | 00:00:00 | |
| SQ9EZE-12 | 2026-09-04 11:42:17 | 49.89571 | 21.31518 | 126° | 84km/h | 6315m | 2.5m/s | 0°C | 0% | 0hPa | 0V | 00:00:00 | 00:00:00 | 00:00:00 | |
| MIELECB | 2026-09-04 11:42:16 | 49.89584 | 21.31491 | 127° | 84km/h | 6314m | 1.7m/s | 0°C | 0% | 0hPa | 0V | 00:00:00 | 00:00:00 | 00:00:00 | |
| AKAW68 | 2026-09-04 11:42:11 | 49.89652 | 21.31360 | 133° | 86km/h | 6308m | 1.9m/s | 0°C | 0% | 0hPa | 0V | 00:00:00 | 00:00:00 | 00:00:00 | |
| MIELECB | 2026-09-04 11:42:08 | 49.89694 | 21.31286 | 128° | 84km/h | 6304m | 1.7m/s | 0°C | 0% | 0hPa | 0V | 00:00:00 | 00:00:00 | 00:00:00 | |
| SQ9PSP-11 | 2026-09-04 11:42:05 | 49.89732 | 21.31208 | 128° | 86km/h | 6300m | 1.4m/s | 0°C | 0% | 0hPa | 0V | 00:00:00 | 00:00:00 | 00:00:00 | |
| MIELECB | 2026-09-04 11:42:03 | 49.89759 | 21.31156 | 132° | 88km/h | 6297m | 1.7m/s | 0°C | 0% | 0hPa | 0V | 00:00:00 | 00:00:00 | 00:00:00 | |
| SQ9EZE-12 | 2026-09-04 11:42:01 | 49.89788 | 21.31103 | 133° | 91km/h | 6295m | 0.6m/s | 0°C | 0% | 0hPa | 0V | 00:00:00 | 00:00:00 | 00:00:00 | |
| AKAW682 | 2026-09-04 11:42:00 | 49.89804 | 21.31077 | 132° | 89km/h | 6294m | 1.6m/s | 0°C | 0% | 0hPa | 0V | 00:00:00 | 00:00:00 | 00:00:00 | |
| MIELECB | 2026-09-04 11:41:57 | 49.89843 | 21.30998 | 127° | 80km/h | 6290m | 1.3m/s | 0°C | 0% | 0hPa | 0V | 00:00:00 | 00:00:00 | 00:00:00 | |
| MIELECB | 2026-09-04 11:41:52 | 49.89911 | 21.30876 | 135° | 88km/h | 6283m | 1.9m/s | 0°C | 0% | 0hPa | 0V | 00:00:00 | 00:00:00 | 00:00:00 | |
| SP9KGR-15 | 2026-09-04 11:41:51 | 49.89926 | 21.30851 | 133° | 88km/h | 6281m | 2.4m/s | 0°C | 0% | 0hPa | 0V | 00:00:00 | 00:00:00 | 00:00:00 | |
| AKAW68 | 2026-09-04 11:41:49 | 49.89954 | 21.30797 | 129° | 86km/h | 6278m | 1.5m/s | 0°C | 0% | 0hPa | 0V | 00:00:00 | 00:00:00 | 00:00:00 | |
| SQ9EZE-12 | 2026-09-04 11:41:46 | 49.89992 | 21.30720 | 129° | 77km/h | 6273m | 1.8m/s | 0°C | 0% | 0hPa | 0V | 00:00:00 | 00:00:00 | 00:00:00 | |
| SP9SOS | 2026-09-04 11:41:43 | 49.90031 | 21.30647 | 132° | 84km/h | 6269m | 1.8m/s | 0°C | 0% | 0hPa | 0V | 00:00:00 | 00:00:00 | 00:00:00 | |
| MIELECB | 2026-09-04 11:41:41 | 49.90059 | 21.30596 | 131° | 89km/h | 6265m | 1.6m/s | 0°C | 0% | 0hPa | 0V | 00:00:00 | 00:00:00 | 00:00:00 | |
| AKAW682 | 2026-09-04 11:41:39 | 49.90088 | 21.30543 | 130° | 86km/h | 6262m | 1.5m/s | 0°C | 0% | 0hPa | 0V | 00:00:00 | 00:00:00 | 00:00:00 | |
| MIELECB | 2026-09-04 11:41:35 | 49.90138 | 21.30444 | 129° | 78km/h | 6257m | 1.3m/s | 0°C | 0% | 0hPa | 0V | 00:00:00 | 00:00:00 | 00:00:00 | |
| SQ9PSP-11 | 2026-09-04 11:41:34 | 49.90150 | 21.30420 | 131° | 82km/h | 6256m | 1.1m/s | 0°C | 0% | 0hPa | 0V | 00:00:00 | 00:00:00 | 00:00:00 | |
| SQ9EZE-12 | 2026-09-04 11:41:30 | 49.90206 | 21.30318 | 132° | 84km/h | 6250m | 1.8m/s | 0°C | 0% | 0hPa | 0V | 00:00:00 | 00:00:00 | 00:00:00 | |
| AKAW68 | 2026-09-04 11:41:28 | 49.90234 | 21.30269 | 132° | 82km/h | 6248m | 0.4m/s | 0°C | 0% | 0hPa | 0V | 00:00:00 | 00:00:00 | 00:00:00 | |
| SP9KGR-15 | 2026-09-04 11:41:25 | 49.90272 | 21.30197 | 131° | 82km/h | 6244m | 1.4m/s | 0°C | 0% | 0hPa | 0V | 00:00:00 | 00:00:00 | 00:00:00 | |
| MIELECB | 2026-09-04 11:41:24 | 49.90285 | 21.30172 | 131° | 82km/h | 6244m | 0.4m/s | 0°C | 0% | 0hPa | 0V | 00:00:00 | 00:00:00 | 00:00:00 | |
| AKAW682 | 2026-09-04 11:41:19 | 49.90350 | 21.30050 | 129° | 80km/h | 6239m | 0.9m/s | 0°C | 0% | 0hPa | 0V | 00:00:00 | 00:00:00 | 00:00:00 | |
| SQ9PSP-11 | 2026-09-04 11:41:18 | 49.90362 | 21.30025 | 129° | 78km/h | 6238m | 1.5m/s | 0°C | 0% | 0hPa | 0V | 00:00:00 | 00:00:00 | 00:00:00 | |
| SP9SOS | 2026-09-04 11:41:15 | 49.90415 | 21.29923 | 132° | 86km/h | 6233m | 1.2m/s | 0°C | 0% | 0hPa | 0V | 00:00:00 | 00:00:00 | 00:00:00 | |
| SQ9EZE-12 | 2026-09-04 11:41:13 | 49.90429 | 21.29898 | 132° | 80km/h | 6231m | 1.9m/s | 0°C | 0% | 0hPa | 0V | 00:00:00 | 00:00:00 | 00:00:00 | |
| MIELECB | 2026-09-04 11:41:09 | 49.90479 | 21.29807 | 128° | 78km/h | 6226m | 1.0m/s | 0°C | 0% | 0hPa | 0V | 00:00:00 | 00:00:00 | 00:00:00 | |
| AKAW68 | 2026-09-04 11:41:08 | 49.90491 | 21.29781 | 127° | 84km/h | 6224m | 2.7m/s | 0°C | 0% | 0hPa | 0V | 00:00:00 | 00:00:00 | 00:00:00 | |
| MIELECB | 2026-09-04 11:41:03 | 49.90560 | 21.29654 | 135° | 78km/h | 6217m | 1.6m/s | 0°C | 0% | 0hPa | 0V | 00:00:00 | 00:00:00 | 00:00:00 | |
| SP9KGR-15 | 2026-09-04 11:41:02 | 49.90573 | 21.29632 | 133° | 73km/h | 6215m | 2.2m/s | 0°C | 0% | 0hPa | 0V | 00:00:00 | 00:00:00 | 00:00:00 | |
| AKAW682 | 2026-09-04 11:40:57 | 49.90631 | 21.29510 | 126° | 86km/h | 6207m | 2.4m/s | 0°C | 0% | 0hPa | 0V | 00:00:00 | 00:00:00 | 00:00:00 | |
| SQ9EZE-12 | 2026-09-04 11:40:54 | 49.90673 | 21.29432 | 135° | 82km/h | 6204m | 0.8m/s | 0°C | 0% | 0hPa | 0V | 00:00:00 | 00:00:00 | 00:00:00 | |
| MIELECB | 2026-09-04 11:40:52 | 49.90701 | 21.29388 | 134° | 75km/h | 6202m | 1.6m/s | 0°C | 0% | 0hPa | 0V | 00:00:00 | 00:00:00 | 00:00:00 | |
| SP9SOS | 2026-09-04 11:40:48 | 49.90748 | 21.29294 | 125° | 82km/h | 6197m | 1.9m/s | 0°C | 0% | 0hPa | 0V | 00:00:00 | 00:00:00 | 00:00:00 | |
| SQ9PSP-11 | 2026-09-04 11:40:47 | 49.90760 | 21.29268 | 125° | 82km/h | 6196m | 2.0m/s | 0°C | 0% | 0hPa | 0V | 00:00:00 | 00:00:00 | 00:00:00 | |
| SP9KGR-15 | 2026-09-04 11:40:42 | 49.90825 | 21.29146 | 137° | 80km/h | 6188m | 0.6m/s | 0°C | 0% | 0hPa | 0V | 00:00:00 | 00:00:00 | 00:00:00 | |
| MIELECB | 2026-09-04 11:40:40 | 49.90852 | 21.29101 | 132° | 77km/h | 6186m | 1.8m/s | 0°C | 0% | 0hPa | 0V | 00:00:00 | 00:00:00 | 00:00:00 | |
| SQ9EZE-12 | 2026-09-04 11:40:38 | 49.90875 | 21.29052 | 123° | 82km/h | 6183m | 1.6m/s | 0°C | 0% | 0hPa | 0V | 00:00:00 | 00:00:00 | 00:00:00 | |
| AKAW682 | 2026-09-04 11:40:36 | 49.90897 | 21.28999 | 125° | 80km/h | 6180m | 2.0m/s | 0°C | 0% | 0hPa | 0V | 00:00:00 | 00:00:00 | 00:00:00 | |
| MIELECB | 2026-09-04 11:40:34 | 49.90919 | 21.28949 | 129° | 78km/h | 6177m | 1.6m/s | 0°C | 0% | 0hPa | 0V | 00:00:00 | 00:00:00 | 00:00:00 | |
| SQ9PSP-11 | 2026-09-04 11:40:31 | 49.90958 | 21.28879 | 132° | 78km/h | 6172m | 2.0m/s | 0°C | 0% | 0hPa | 0V | 00:00:00 | 00:00:00 | 00:00:00 | |
| AKAW68 | 2026-09-04 11:40:26 | 49.91017 | 21.28751 | 124° | 80km/h | 6162m | 1.4m/s | 0°C | 0% | 0hPa | 0V | 00:00:00 | 00:00:00 | 00:00:00 | |
| SP9KGR-15 | 2026-09-04 11:40:23 | 49.91052 | 21.28675 | 131° | 80km/h | 6157m | 1.2m/s | 0°C | 0% | 0hPa | 0V | 00:00:00 | 00:00:00 | 00:00:00 | |
| SQ9EZE-12 | 2026-09-04 11:40:22 | 49.91065 | 21.28651 | 132° | 80km/h | 6156m | 1.7m/s | 0°C | 0% | 0hPa | 0V | 00:00:00 | 00:00:00 | 00:00:00 | |
| MIELECB | 2026-09-04 11:40:17 | 49.91125 | 21.28527 | 124° | 80km/h | 6147m | 1.3m/s | 0°C | 0% | 0hPa | 0V | 00:00:00 | 00:00:00 | 00:00:00 | |
| AKAW682 | 2026-09-04 11:40:16 | 49.91136 | 21.28501 | 126° | 82km/h | 6146m | 1.1m/s | 0°C | 0% | 0hPa | 0V | 00:00:00 | 00:00:00 | 00:00:00 | |
| SP9SOS | 2026-09-04 11:40:15 | 49.91148 | 21.28475 | 129° | 78km/h | 6145m | 2.3m/s | 0°C | 0% | 0hPa | 0V | 00:00:00 | 00:00:00 | 00:00:00 | |
| MIELECB | 2026-09-04 11:40:11 | 49.91197 | 21.28377 | 127° | 82km/h | 6138m | 1.3m/s | 0°C | 0% | 0hPa | 0V | 00:00:00 | 00:00:00 | 00:00:00 | |
| SQ9EZE-12 | 2026-09-04 11:40:06 | 49.91259 | 21.28249 | 129° | 82km/h | 6131m | 1.5m/s | 0°C | 0% | 0hPa | 0V | 00:00:00 | 00:00:00 | 00:00:00 | |
| MIELECB | 2026-09-04 11:40:05 | 49.91272 | 21.28224 | 129° | 80km/h | 6130m | 2.0m/s | 0°C | 0% | 0hPa | 0V | 00:00:00 | 00:00:00 | 00:00:00 | |
| SQ9PSP-11 | 2026-09-04 11:40:01 | 49.91317 | 21.28126 | 127° | 78km/h | 6125m | 1.3m/s | 0°C | 0% | 0hPa | 0V | 00:00:00 | 00:00:00 | 00:00:00 | |
| MIELECB | 2026-09-04 11:39:59 | 49.91343 | 21.28077 | 132° | 84km/h | 6122m | 1.8m/s | 0°C | 0% | 0hPa | 0V | 00:00:00 | 00:00:00 | 00:00:00 | |
| AKAW682 | 2026-09-04 11:39:56 | 49.91385 | 21.28004 | 132° | 80km/h | 6118m | 1.1m/s | 0°C | 0% | 0hPa | 0V | 00:00:00 | 00:00:00 | 00:00:00 | |
| MIELECB | 2026-09-04 11:39:53 | 49.91421 | 21.27932 | 125° | 77km/h | 6113m | 1.8m/s | 0°C | 0% | 0hPa | 0V | 00:00:00 | 00:00:00 | 00:00:00 | |
| SQ9EZE-12 | 2026-09-04 11:39:51 | 49.91443 | 21.27881 | 126° | 80km/h | 6110m | 1.5m/s | 0°C | 0% | 0hPa | 0V | 00:00:00 | 00:00:00 | 00:00:00 | |
| MIELECB | 2026-09-04 11:39:47 | 49.91496 | 21.27780 | 132° | 84km/h | 6101m | 2.3m/s | 0°C | 0% | 0hPa | 0V | 00:00:00 | 00:00:00 | 00:00:00 | |
| SQ9PSP-11 | 2026-09-04 11:39:45 | 49.91523 | 21.27728 | 128° | 86km/h | 6097m | 3.0m/s | 0°C | 0% | 0hPa | 0V | 00:00:00 | 00:00:00 | 00:00:00 | |
| SP9KGR-15 | 2026-09-04 11:39:44 | 49.91536 | 21.27701 | 126° | 86km/h | 6095m | 2.1m/s | 0°C | 0% | 0hPa | 0V | 00:00:00 | 00:00:00 | 00:00:00 | |
| MIELECB | 2026-09-04 11:39:42 | 49.91562 | 21.27648 | 131° | 86km/h | 6091m | 2.0m/s | 0°C | 0% | 0hPa | 0V | 00:00:00 | 00:00:00 | 00:00:00 | |
| MIELECB | 2026-09-04 11:39:36 | 49.91646 | 21.27508 | 131° | 75km/h | 6080m | 2.0m/s | 0°C | 0% | 0hPa | 0V | 00:00:00 | 00:00:00 | 00:00:00 | |
| AKAW682 | 2026-09-04 11:39:35 | 49.91658 | 21.27484 | 128° | 77km/h | 6077m | 3.1m/s | 0°C | 0% | 0hPa | 0V | 00:00:00 | 00:00:00 | 00:00:00 | |
| SQ9EZE-12 | 2026-09-04 11:39:33 | 49.91682 | 21.27437 | 132° | 80km/h | 6073m | 3.4m/s | 0°C | 0% | 0hPa | 0V | 00:00:00 | 00:00:00 | 00:00:00 | |
| MIELECB | 2026-09-04 11:39:30 | 49.91723 | 21.27362 | 132° | 84km/h | 6068m | 2.6m/s | 0°C | 0% | 0hPa | 0V | 00:00:00 | 00:00:00 | 00:00:00 | |
| SQ9PSP-11 | 2026-09-04 11:39:29 | 49.91736 | 21.27338 | 132° | 80km/h | 6066m | 2.6m/s | 0°C | 0% | 0hPa | 0V | 00:00:00 | 00:00:00 | 00:00:00 | |
| SP9KGR-15 | 2026-09-04 11:39:26 | 49.91776 | 21.27269 | 134° | 78km/h | 6060m | 2.3m/s | 0°C | 0% | 0hPa | 0V | 00:00:00 | 00:00:00 | 00:00:00 | |
| MIELECB | 2026-09-04 11:39:25 | 49.91790 | 21.27245 | 132° | 84km/h | 6058m | 2.1m/s | 0°C | 0% | 0hPa | 0V | 00:00:00 | 00:00:00 | 00:00:00 | |
| AKAW68 | 2026-09-04 11:39:24 | 49.91804 | 21.27220 | 134° | 84km/h | 6057m | 1.9m/s | 0°C | 0% | 0hPa | 0V | 00:00:00 | 00:00:00 | 00:00:00 | |
| MIELECB | 2026-09-04 11:39:20 | 49.91873 | 21.27098 | 131° | 82km/h | 6049m | 2.5m/s | 0°C | 0% | 0hPa | 0V | 00:00:00 | 00:00:00 | 00:00:00 | |
| SP9SOS | 2026-09-04 11:39:18 | 49.91886 | 21.27073 | 133° | 86km/h | 6047m | 2.3m/s | 0°C | 0% | 0hPa | 0V | 00:00:00 | 00:00:00 | 00:00:00 | |
| SQ9PSP-11 | 2026-09-04 11:39:14 | 49.91944 | 21.26973 | 133° | 82km/h | 6042m | 1.7m/s | 0°C | 0% | 0hPa | 0V | 00:00:00 | 00:00:00 | 00:00:00 | |
| MIELECB | 2026-09-04 11:39:13 | 49.91957 | 21.26949 | 133° | 82km/h | 6041m | 1.4m/s | 0°C | 0% | 0hPa | 0V | 00:00:00 | 00:00:00 | 00:00:00 | |
| SQ9EZE-12 | 2026-09-04 11:39:12 | 49.91971 | 21.26925 | 131° | 82km/h | 6039m | 2.4m/s | 0°C | 0% | 0hPa | 0V | 00:00:00 | 00:00:00 | 00:00:00 | |
| MIELECB | 2026-09-04 11:39:07 | 49.92044 | 21.26805 | 131° | 84km/h | 6032m | 2.0m/s | 0°C | 0% | 0hPa | 0V | 00:00:00 | 00:00:00 | 00:00:00 | |
| AKAW68 | 2026-09-04 11:39:04 | 49.92082 | 21.26732 | 129° | 82km/h | 6029m | 1.4m/s | 0°C | 0% | 0hPa | 0V | 00:00:00 | 00:00:00 | 00:00:00 | |
| MIELECB | 2026-09-04 11:39:00 | 49.92140 | 21.26629 | 134° | 86km/h | 6023m | 2.0m/s | 0°C | 0% | 0hPa | 0V | 00:00:00 | 00:00:00 | 00:00:00 | |
| SP9KGR-15 | 2026-09-04 11:38:59 | 49.92155 | 21.26605 | 134° | 82km/h | 6022m | 2.0m/s | 0°C | 0% | 0hPa | 0V | 00:00:00 | 00:00:00 | 00:00:00 | |
| SQ9PSP-11 | 2026-09-04 11:38:58 | 49.92168 | 21.26582 | 132° | 80km/h | 6020m | 2.0m/s | 0°C | 0% | 0hPa | 0V | 00:00:00 | 00:00:00 | 00:00:00 | |
| SQ9EZE-12 | 2026-09-04 11:38:57 | 49.92180 | 21.26558 | 132° | 77km/h | 6019m | 1.5m/s | 0°C | 0% | 0hPa | 0V | 00:00:00 | 00:00:00 | 00:00:00 | |
| MIELECB | 2026-09-04 11:38:54 | 49.92219 | 21.26485 | 129° | 88km/h | 6015m | 2.2m/s | 0°C | 0% | 0hPa | 0V | 00:00:00 | 00:00:00 | 00:00:00 | |
| AKAW682 | 2026-09-04 11:38:53 | 49.92233 | 21.26457 | 130° | 89km/h | 6013m | 1.3m/s | 0°C | 0% | 0hPa | 0V | 00:00:00 | 00:00:00 | 00:00:00 | |
| MIELECB | 2026-09-04 11:38:48 | 49.92301 | 21.26327 | 132° | 78km/h | 6007m | 2.5m/s | 0°C | 0% | 0hPa | 0V | 00:00:00 | 00:00:00 | 00:00:00 | |
| SP9KGR-15 | 2026-09-04 11:38:43 | 49.92368 | 21.26198 | 131° | 86km/h | 5997m | 2.4m/s | 0°C | 0% | 0hPa | 0V | 00:00:00 | 00:00:00 | 00:00:00 | |
| MIELECB | 2026-09-04 11:38:42 | 49.92381 | 21.26173 | 131° | 82km/h | 5995m | 2.7m/s | 0°C | 0% | 0hPa | 0V | 00:00:00 | 00:00:00 | 00:00:00 | |
| SQ9EZE-12 | 2026-09-04 11:38:39 | 49.92420 | 21.26102 | 132° | 80km/h | 5989m | 2.7m/s | 0°C | 0% | 0hPa | 0V | 00:00:00 | 00:00:00 | 00:00:00 | |
| MIELECB | 2026-09-04 11:38:37 | 49.92447 | 21.26052 | 130° | 88km/h | 5984m | 2.7m/s | 0°C | 0% | 0hPa | 0V | 00:00:00 | 00:00:00 | 00:00:00 | |
| AKAW682 | 2026-09-04 11:38:33 | 49.92505 | 21.25945 | 133° | 84km/h | 5976m | 2.1m/s | 0°C | 0% | 0hPa | 0V | 00:00:00 | 00:00:00 | 00:00:00 | |
| MIELECB | 2026-09-04 11:38:31 | 49.92533 | 21.25897 | 132° | 80km/h | 5972m | 2.7m/s | 0°C | 0% | 0hPa | 0V | 00:00:00 | 00:00:00 | 00:00:00 | |
| SQ9PSP-11 | 2026-09-04 11:38:27 | 49.92586 | 21.25795 | 131° | 88km/h | 5963m | 2.0m/s | 0°C | 0% | 0hPa | 0V | 00:00:00 | 00:00:00 | 00:00:00 | |
| MIELECB | 2026-09-04 11:38:26 | 49.92601 | 21.25768 | 132° | 88km/h | 5961m | 2.4m/s | 0°C | 0% | 0hPa | 0V | 00:00:00 | 00:00:00 | 00:00:00 | |
| AKAW68 | 2026-09-04 11:38:22 | 49.92656 | 21.25665 | 128° | 82km/h | 5954m | 2.2m/s | 0°C | 0% | 0hPa | 0V | 00:00:00 | 00:00:00 | 00:00:00 | |
| MIELECB | 2026-09-04 11:38:20 | 49.92681 | 21.25612 | 129° | 86km/h | 5950m | 3.0m/s | 0°C | 0% | 0hPa | 0V | 00:00:00 | 00:00:00 | 00:00:00 | |
| SQ9EZE-12 | 2026-09-04 11:38:19 | 49.92695 | 21.25586 | 132° | 89km/h | 5947m | 3.9m/s | 0°C | 0% | 0hPa | 0V | 00:00:00 | 00:00:00 | 00:00:00 | |
| MIELECB | 2026-09-04 11:38:14 | 49.92763 | 21.25453 | 125° | 84km/h | 5934m | 2.6m/s | 0°C | 0% | 0hPa | 0V | 00:00:00 | 00:00:00 | 00:00:00 | |
| AKAW682 | 2026-09-04 11:38:12 | 49.92787 | 21.25398 | 127° | 86km/h | 5930m | 2.0m/s | 0°C | 0% | 0hPa | 0V | 00:00:00 | 00:00:00 | 00:00:00 | |
| SQ9PSP-11 | 2026-09-04 11:38:11 | 49.92800 | 21.25371 | 127° | 86km/h | 5928m | 2.2m/s | 0°C | 0% | 0hPa | 0V | 00:00:00 | 00:00:00 | 00:00:00 | |
| MIELECB | 2026-09-04 11:38:08 | 49.92836 | 21.25288 | 125° | 86km/h | 5922m | 2.8m/s | 0°C | 0% | 0hPa | 0V | 00:00:00 | 00:00:00 | 00:00:00 | |
| SQ9EZE-12 | 2026-09-04 11:38:03 | 49.92899 | 21.25148 | 129° | 84km/h | 5913m | 3.4m/s | 0°C | 0% | 0hPa | 0V | 00:00:00 | 00:00:00 | 00:00:00 | |
| SP9KGR-15 | 2026-09-04 11:38:02 | 49.92911 | 21.25121 | 124° | 88km/h | 5911m | 2.5m/s | 0°C | 0% | 0hPa | 0V | 00:00:00 | 00:00:00 | 00:00:00 | |
| MIELECB | 2026-09-04 11:37:57 | 49.92971 | 21.24978 | 126° | 88km/h | 5900m | 2.1m/s | 0°C | 0% | 0hPa | 0V | 00:00:00 | 00:00:00 | 00:00:00 | |
| SQ9PSP-11 | 2026-09-04 11:37:55 | 49.92996 | 21.24921 | 126° | 88km/h | 5896m | 1.9m/s | 0°C | 0% | 0hPa | 0V | 00:00:00 | 00:00:00 | 00:00:00 | |
| MIELECB | 2026-09-04 11:37:52 | 49.93032 | 21.24837 | 126° | 88km/h | 5889m | 3.2m/s | 0°C | 0% | 0hPa | 0V | 00:00:00 | 00:00:00 | 00:00:00 | |
| AKAW682 | 2026-09-04 11:37:51 | 49.93044 | 21.24809 | 125° | 88km/h | 5887m | 2.0m/s | 0°C | 0% | 0hPa | 0V | 00:00:00 | 00:00:00 | 00:00:00 | |
| SQ9EZE-12 | 2026-09-04 11:37:47 | 49.93093 | 21.24695 | 125° | 88km/h | 5880m | 1.5m/s | 0°C | 0% | 0hPa | 0V | 00:00:00 | 00:00:00 | 00:00:00 | |
| MIELECB | 2026-09-04 11:37:46 | 49.93105 | 21.24668 | 126° | 86km/h | 5877m | 2.8m/s | 0°C | 0% | 0hPa | 0V | 00:00:00 | 00:00:00 | 00:00:00 | |
| AKAW68 | 2026-09-04 11:37:41 | 49.93166 | 21.24528 | 122° | 86km/h | 5868m | 2.6m/s | 0°C | 0% | 0hPa | 0V | 00:00:00 | 00:00:00 | 00:00:00 | |
| SQ9PSP-11 | 2026-09-04 11:37:40 | 49.93177 | 21.24499 | 121° | 88km/h | 5866m | 2.0m/s | 0°C | 0% | 0hPa | 0V | 00:00:00 | 00:00:00 | 00:00:00 | |
| MIELECB | 2026-09-04 11:37:35 | 49.93239 | 21.24354 | 126° | 86km/h | 5856m | 1.5m/s | 0°C | 0% | 0hPa | 0V | 00:00:00 | 00:00:00 | 00:00:00 | |
| SP9KGR-15 | 2026-09-04 11:37:34 | 49.93252 | 21.24326 | 125° | 86km/h | 5855m | 3.4m/s | 0°C | 0% | 0hPa | 0V | 00:00:00 | 00:00:00 | 00:00:00 | |
| SQ9EZE-12 | 2026-09-04 11:37:32 | 49.93275 | 21.24269 | 121° | 91km/h | 5851m | 2.0m/s | 0°C | 0% | 0hPa | 0V | 00:00:00 | 00:00:00 | 00:00:00 | |
| AKAW682 | 2026-09-04 11:37:30 | 49.93298 | 21.24210 | 124° | 88km/h | 5846m | 2.9m/s | 0°C | 0% | 0hPa | 0V | 00:00:00 | 00:00:00 | 00:00:00 | |
| MIELECB | 2026-09-04 11:37:29 | 49.93310 | 21.24181 | 126° | 88km/h | 5844m | 2.8m/s | 0°C | 0% | 0hPa | 0V | 00:00:00 | 00:00:00 | 00:00:00 | |
| SQ9PSP-11 | 2026-09-04 11:37:24 | 49.93371 | 21.24038 | 123° | 88km/h | 5832m | 2.2m/s | 0°C | 0% | 0hPa | 0V | 00:00:00 | 00:00:00 | 00:00:00 | |
| AKAW68 | 2026-09-04 11:37:21 | 49.93410 | 21.23953 | 127° | 89km/h | 5825m | 1.5m/s | 0°C | 0% | 0hPa | 0V | 00:00:00 | 00:00:00 | 00:00:00 | |
| MIELECB | 2026-09-04 11:37:18 | 49.93449 | 21.23867 | 123° | 89km/h | 5819m | 2.0m/s | 0°C | 0% | 0hPa | 0V | 00:00:00 | 00:00:00 | 00:00:00 | |
| SQ9EZE-12 | 2026-09-04 11:37:17 | 49.93460 | 21.23837 | 124° | 91km/h | 5818m | 0.5m/s | 0°C | 0% | 0hPa | 0V | 00:00:00 | 00:00:00 | 00:00:00 | |
| SP9KGR-15 | 2026-09-04 11:37:16 | 49.93473 | 21.23808 | 126° | 88km/h | 5816m | 3.8m/s | 0°C | 0% | 0hPa | 0V | 00:00:00 | 00:00:00 | 00:00:00 | |
| MIELECB | 2026-09-04 11:37:13 | 49.93511 | 21.23727 | 130° | 86km/h | 5810m | 3.4m/s | 0°C | 0% | 0hPa | 0V | 00:00:00 | 00:00:00 | 00:00:00 | |
| AKAW682 | 2026-09-04 11:37:09 | 49.93563 | 21.23611 | 125° | 91km/h | 5800m | 2.1m/s | 0°C | 0% | 0hPa | 0V | 00:00:00 | 00:00:00 | 00:00:00 | |
| SQ9PSP-11 | 2026-09-04 11:37:08 | 49.93576 | 21.23582 | 126° | 86km/h | 5798m | 2.7m/s | 0°C | 0% | 0hPa | 0V | 00:00:00 | 00:00:00 | 00:00:00 | |
| MIELECB | 2026-09-04 11:37:07 | 49.93588 | 21.23555 | 125° | 84km/h | 5795m | 2.2m/s | 0°C | 0% | 0hPa | 0V | 00:00:00 | 00:00:00 | 00:00:00 | |
| AKAW68 | 2026-09-04 11:37:01 | 49.93667 | 21.23386 | 126° | 88km/h | 5782m | 3.5m/s | 0°C | 0% | 0hPa | 0V | 00:00:00 | 00:00:00 | 00:00:00 | |
| MIELECB | 2026-09-04 11:36:56 | 49.93731 | 21.23247 | 126° | 89km/h | 5772m | 2.7m/s | 0°C | 0% | 0hPa | 0V | 00:00:00 | 00:00:00 | 00:00:00 | |
| SP9KGR-15 | 2026-09-04 11:36:55 | 49.93744 | 21.23218 | 126° | 93km/h | 5770m | 2.3m/s | 0°C | 0% | 0hPa | 0V | 00:00:00 | 00:00:00 | 00:00:00 | |
| SQ9PSP-11 | 2026-09-04 11:36:53 | 49.93770 | 21.23159 | 125° | 91km/h | 5765m | 2.6m/s | 0°C | 0% | 0hPa | 0V | 00:00:00 | 00:00:00 | 00:00:00 | |
| MIELECB | 2026-09-04 11:36:50 | 49.93810 | 21.23076 | 127° | 86km/h | 5759m | 3.0m/s | 0°C | 0% | 0hPa | 0V | 00:00:00 | 00:00:00 | 00:00:00 | |
| AKAW682 | 2026-09-04 11:36:48 | 49.93835 | 21.23020 | 126° | 89km/h | 5754m | 2.3m/s | 0°C | 0% | 0hPa | 0V | 00:00:00 | 00:00:00 | 00:00:00 | |
| SQ9EZE-12 | 2026-09-04 11:36:45 | 49.93875 | 21.22934 | 129° | 91km/h | 5748m | 2.4m/s | 0°C | 0% | 0hPa | 0V | 00:00:00 | 00:00:00 | 00:00:00 | |
| AKAW68 | 2026-09-04 11:36:40 | 49.93941 | 21.22791 | 127° | 86km/h | 5737m | 2.3m/s | 0°C | 0% | 0hPa | 0V | 00:00:00 | 00:00:00 | 00:00:00 | |
| MIELECB | 2026-09-04 11:36:39 | 49.93953 | 21.22765 | 129° | 82km/h | 5735m | 3.1m/s | 0°C | 0% | 0hPa | 0V | 00:00:00 | 00:00:00 | 00:00:00 | |
| SQ9PSP-11 | 2026-09-04 11:36:38 | 49.93966 | 21.22738 | 128° | 89km/h | 5733m | 2.7m/s | 0°C | 0% | 0hPa | 0V | 00:00:00 | 00:00:00 | 00:00:00 | |
| MIELECB | 2026-09-04 11:36:33 | 49.94034 | 21.22594 | 128° | 91km/h | 5721m | 3.1m/s | 0°C | 0% | 0hPa | 0V | 00:00:00 | 00:00:00 | 00:00:00 | |
| SQ9EZE-12 | 2026-09-04 11:36:29 | 49.94086 | 21.22480 | 126° | 88km/h | 5710m | 2.2m/s | 0°C | 0% | 0hPa | 0V | 00:00:00 | 00:00:00 | 00:00:00 | |
| AKAW682 | 2026-09-04 11:36:28 | 49.94099 | 21.22451 | 123° | 89km/h | 5708m | 3.0m/s | 0°C | 0% | 0hPa | 0V | 00:00:00 | 00:00:00 | 00:00:00 | |
| MIELECB | 2026-09-04 11:36:27 | 49.94111 | 21.22423 | 126° | 88km/h | 5705m | 3.4m/s | 0°C | 0% | 0hPa | 0V | 00:00:00 | 00:00:00 | 00:00:00 | |
| SP9KGR-15 | 2026-09-04 11:36:23 | 49.94162 | 21.22309 | 125° | 89km/h | 5694m | 2.0m/s | 0°C | 0% | 0hPa | 0V | 00:00:00 | 00:00:00 | 00:00:00 | |
| MIELECB | 2026-09-04 11:36:21 | 49.94188 | 21.22250 | 126° | 89km/h | 5690m | 4.0m/s | 0°C | 0% | 0hPa | 0V | 00:00:00 | 00:00:00 | 00:00:00 | |
| AKAW68 | 2026-09-04 11:36:20 | 49.94200 | 21.22221 | 125° | 88km/h | 5686m | 3.5m/s | 0°C | 0% | 0hPa | 0V | 00:00:00 | 00:00:00 | 00:00:00 | |
| MIELECB | 2026-09-04 11:36:16 | 49.94251 | 21.22106 | 125° | 88km/h | 5677m | 2.2m/s | 0°C | 0% | 0hPa | 0V | 00:00:00 | 00:00:00 | 00:00:00 | |
| SQ9EZE-12 | 2026-09-04 11:36:13 | 49.94288 | 21.22023 | 124° | 88km/h | 5669m | 3.7m/s | 0°C | 0% | 0hPa | 0V | 00:00:00 | 00:00:00 | 00:00:00 | |
| MIELECB | 2026-09-04 11:36:10 | 49.94325 | 21.21932 | 123° | 91km/h | 5662m | 2.5m/s | 0°C | 0% | 0hPa | 0V | 00:00:00 | 00:00:00 | 00:00:00 | |
| SQ9PSP-11 | 2026-09-04 11:36:09 | 49.94351 | 21.21873 | 126° | 89km/h | 5657m | 3.1m/s | 0°C | 0% | 0hPa | 0V | 00:00:00 | 00:00:00 | 00:00:00 | |
| AKAW682 | 2026-09-04 11:36:08 | 49.94363 | 21.21844 | 124° | 88km/h | 5655m | 3.6m/s | 0°C | 0% | 0hPa | 0V | 00:00:00 | 00:00:00 | 00:00:00 | |
| MIELECB | 2026-09-04 11:36:04 | 49.94400 | 21.21757 | 125° | 88km/h | 5646m | 2.5m/s | 0°C | 0% | 0hPa | 0V | 00:00:00 | 00:00:00 | 00:00:00 | |
| SP9KGR-15 | 2026-09-04 11:36:02 | 49.94424 | 21.21700 | 126° | 88km/h | 5640m | 3.6m/s | 0°C | 0% | 0hPa | 0V | 00:00:00 | 00:00:00 | 00:00:00 | |
| AKAW68 | 2026-09-04 11:35:59 | 49.94460 | 21.21614 | 124° | 88km/h | 5631m | 2.8m/s | 0°C | 0% | 0hPa | 0V | 00:00:00 | 00:00:00 | 00:00:00 | |
| MIELECB | 2026-09-04 11:35:58 | 49.94472 | 21.21585 | 126° | 88km/h | 5629m | 2.5m/s | 0°C | 0% | 0hPa | 0V | 00:00:00 | 00:00:00 | 00:00:00 | |
| SQ9PSP-11 | 2026-09-04 11:35:52 | 49.94543 | 21.21411 | 126° | 86km/h | 5613m | 3.6m/s | 0°C | 0% | 0hPa | 0V | 00:00:00 | 00:00:00 | 00:00:00 | |
| SQ9EZE-12 | 2026-09-04 11:35:51 | 49.94579 | 21.21323 | 123° | 89km/h | 5605m | 2.7m/s | 0°C | 0% | 0hPa | 0V | 00:00:00 | 00:00:00 | 00:00:00 | |
| MIELECB | 2026-09-04 11:35:50 | 49.94603 | 21.21264 | 123° | 88km/h | 5599m | 3.6m/s | 0°C | 0% | 0hPa | 0V | 00:00:00 | 00:00:00 | 00:00:00 | |
| SP9KGR-15 | 2026-09-04 11:35:49 | 49.94671 | 21.21094 | 122° | 84km/h | 5584m | 2.6m/s | 0°C | 0% | 0hPa | 0V | 00:00:00 | 00:00:00 | 00:00:00 | |
| AKAW68 | 2026-09-04 11:35:47 | 49.94706 | 21.21010 | 126° | 89km/h | 5577m | 3.1m/s | 0°C | 0% | 0hPa | 0V | 00:00:00 | 00:00:00 | 00:00:00 | |
| SQ9PSP-11 | 2026-09-04 11:35:37 | 49.94719 | 21.20981 | 128° | 89km/h | 5574m | 3.3m/s | 0°C | 0% | 0hPa | 0V | 00:00:00 | 00:00:00 | 00:00:00 | |
| MIELECB | 2026-09-04 11:35:36 | 49.94732 | 21.20953 | 128° | 88km/h | 5571m | 3.1m/s | 0°C | 0% | 0hPa | 0V | 00:00:00 | 00:00:00 | 00:00:00 | |
| SQ9EZE-12 | 2026-09-04 11:35:31 | 49.94793 | 21.20817 | 121° | 86km/h | 5558m | 2.2m/s | 0°C | 0% | 0hPa | 0V | 00:00:00 | 00:00:00 | 00:00:00 | |
| MIELECB | 2026-09-04 11:35:30 | 49.94804 | 21.20788 | 121° | 86km/h | 5556m | 2.8m/s | 0°C | 0% | 0hPa | 0V | 00:00:00 | 00:00:00 | 00:00:00 | |
| MIELECB | 2026-09-04 11:35:24 | 49.94878 | 21.20626 | 124° | 84km/h | 5538m | 1.8m/s | 0°C | 0% | 0hPa | 0V | 00:00:00 | 00:00:00 | 00:00:00 | |
| SP9KGR-15 | 2026-09-04 11:35:23 | 49.94889 | 21.20598 | 123° | 86km/h | 5536m | 2.3m/s | 0°C | 0% | 0hPa | 0V | 00:00:00 | 00:00:00 | 00:00:00 | |
| SQ9PSP-11 | 2026-09-04 11:35:22 | 49.94901 | 21.20570 | 123° | 84km/h | 5533m | 3.1m/s | 0°C | 0% | 0hPa | 0V | 00:00:00 | 00:00:00 | 00:00:00 | |
| MIELECB | 2026-09-04 11:35:19 | 49.94939 | 21.20486 | 129° | 91km/h | 5524m | 1.7m/s | 0°C | 0% | 0hPa | 0V | 00:00:00 | 00:00:00 | 00:00:00 | |
| AKAW68 | 2026-09-04 11:35:17 | 49.94967 | 21.20429 | 126° | 88km/h | 5518m | 4.1m/s | 0°C | 0% | 0hPa | 0V | 00:00:00 | 00:00:00 | 00:00:00 | |
| MIELECB | 2026-09-04 11:35:13 | 49.95008 | 21.20318 | 121° | 80km/h | 5505m | 2.5m/s | 0°C | 0% | 0hPa | 0V | 00:00:00 | 00:00:00 | 00:00:00 | |
| MIELECB | 2026-09-04 11:35:07 | 49.95084 | 21.20151 | 130° | 89km/h | 5483m | 3.9m/s | 0°C | 0% | 0hPa | 0V | 00:00:00 | 00:00:00 | 00:00:00 | |
| SQ9PSP-11 | 2026-09-04 11:35:06 | 49.95098 | 21.20124 | 129° | 86km/h | 5480m | 2.0m/s | 0°C | 0% | 0hPa | 0V | 00:00:00 | 00:00:00 | 00:00:00 | |
| MIELECB | 2026-09-04 11:34:56 | 49.95219 | 21.19853 | 127° | 88km/h | 5441m | 4.4m/s | 0°C | 0% | 0hPa | 0V | 00:00:00 | 00:00:00 | 00:00:00 | |
| SQ9EZE-12 | 2026-09-04 11:34:54 | 49.95246 | 21.19797 | 129° | 89km/h | 5433m | 4.4m/s | 0°C | 0% | 0hPa | 0V | 00:00:00 | 00:00:00 | 00:00:00 | |
| SP9KGR-15 | 2026-09-04 11:34:50 | 49.95299 | 21.19690 | 128° | 80km/h | 5419m | 4.9m/s | 0°C | 0% | 0hPa | 0V | 00:00:00 | 00:00:00 | 00:00:00 | |
| MIELECB | 2026-09-04 11:34:38 | 49.95459 | 21.19378 | 130° | 86km/h | 5374m | 6.2m/s | 0°C | 0% | 0hPa | 0V | 00:00:00 | 00:00:00 | 00:00:00 | |
| AKAW68 | 2026-09-04 11:34:35 | 49.95501 | 21.19299 | 129° | 88km/h | 5361m | 2.7m/s | 0°C | 0% | 0hPa | 0V | 00:00:00 | 00:00:00 | 00:00:00 | |
| SQ9EZE-12 | 2026-09-04 11:34:34 | 49.95514 | 21.19273 | 130° | 84km/h | 5357m | 6.8m/s | 0°C | 0% | 0hPa | 0V | 00:00:00 | 00:00:00 | 00:00:00 | |
| SP9KGR-15 | 2026-09-04 11:34:27 | 49.95609 | 21.19095 | 132° | 84km/h | 5328m | 2.8m/s | 0°C | 0% | 0hPa | 0V | 00:00:00 | 00:00:00 | 00:00:00 | |
| MIELECB | 2026-09-04 11:34:25 | 49.95636 | 21.19045 | 130° | 84km/h | 5320m | 2.7m/s | 0°C | 0% | 0hPa | 0V | 00:00:00 | 00:00:00 | 00:00:00 | |
| SQ9PSP-11 | 2026-09-04 11:34:19 | 49.95719 | 21.18890 | 129° | 88km/h | 5293m | 2.6m/s | 0°C | 0% | 0hPa | 0V | 00:00:00 | 00:00:00 | 00:00:00 | |
| AKAW68 | 2026-09-04 11:34:15 | 49.95774 | 21.18782 | 130° | 88km/h | 5277m | 3.7m/s | 0°C | 0% | 0hPa | 0V | 00:00:00 | 00:00:00 | 00:00:00 | |
| MIELECB | 2026-09-04 11:34:13 | 49.95801 | 21.18730 | 130° | 86km/h | 5270m | 2.7m/s | 0°C | 0% | 0hPa | 0V | 00:00:00 | 00:00:00 | 00:00:00 | |
| SP9KGR-15 | 2026-09-04 11:34:12 | 49.95814 | 21.18703 | 129° | 86km/h | 5266m | 3.1m/s | 0°C | 0% | 0hPa | 0V | 00:00:00 | 00:00:00 | 00:00:00 | |
| AKAW682 | 2026-09-04 11:34:09 | 49.95856 | 21.18625 | 132° | 84km/h | 5253m | 4.0m/s | 0°C | 0% | 0hPa | 0V | 00:00:00 | 00:00:00 | 00:00:00 | |
| MIELECB | 2026-09-04 11:34:07 | 49.95884 | 21.18574 | 132° | 86km/h | 5246m | 3.9m/s | 0°C | 0% | 0hPa | 0V | 00:00:00 | 00:00:00 | 00:00:00 | |
| SQ9PSP-11 | 2026-09-04 11:34:04 | 49.95925 | 21.18496 | 128° | 88km/h | 5237m | 2.7m/s | 0°C | 0% | 0hPa | 0V | 00:00:00 | 00:00:00 | 00:00:00 | |
| MIELECB | 2026-09-04 11:34:01 | 49.95966 | 21.18414 | 129° | 89km/h | 5227m | 4.0m/s | 0°C | 0% | 0hPa | 0V | 00:00:00 | 00:00:00 | 00:00:00 | |
| MIELECB | 2026-09-04 11:33:56 | 49.96044 | 21.18280 | 134° | 95km/h | 5208m | 2.0m/s | 0°C | 0% | 0hPa | 0V | 00:00:00 | 00:00:00 | 00:00:00 | |
| AKAW68 | 2026-09-04 11:33:54 | 49.96077 | 21.18225 | 133° | 93km/h | 5201m | 1.6m/s | 0°C | 0% | 0hPa | 0V | 00:00:00 | 00:00:00 | 00:00:00 | |
| MIELECB | 2026-09-04 11:33:50 | 49.96141 | 21.18114 | 133° | 95km/h | 5186m | 1.9m/s | 0°C | 0% | 0hPa | 0V | 00:00:00 | 00:00:00 | 00:00:00 | |
| SQ9PSP-11 | 2026-09-04 11:33:48 | 49.96173 | 21.18059 | 134° | 95km/h | 5178m | 1.9m/s | 0°C | 0% | 0hPa | 0V | 00:00:00 | 00:00:00 | 00:00:00 | |
| AKAW682 | 2026-09-04 11:33:47 | 49.96189 | 21.18032 | 134° | 93km/h | 5174m | 5.2m/s | 0°C | 0% | 0hPa | 0V | 00:00:00 | 00:00:00 | 00:00:00 | |
| MIELECB | 2026-09-04 11:33:44 | 49.96240 | 21.17948 | 133° | 104km/h | 5163m | 1.7m/s | 0°C | 0% | 0hPa | 0V | 00:00:00 | 00:00:00 | 00:00:00 | |
| MIELECB | 2026-09-04 11:33:39 | 49.96326 | 21.17801 | 134° | 95km/h | 5144m | 6.2m/s | 0°C | 0% | 0hPa | 0V | 00:00:00 | 00:00:00 | 00:00:00 | |
| SQ9EZE-12 | 2026-09-04 11:33:37 | 49.96358 | 21.17746 | 135° | 97km/h | 5136m | 5.1m/s | 0°C | 0% | 0hPa | 0V | 00:00:00 | 00:00:00 | 00:00:00 | |
| AKAW68 | 2026-09-04 11:33:35 | 49.96411 | 21.17659 | 133° | 104km/h | 5125m | 2.7m/s | 0°C | 0% | 0hPa | 0V | 00:00:00 | 00:00:00 | 00:00:00 | |
| SQ9PSP-11 | 2026-09-04 11:33:32 | 49.96448 | 21.17600 | 136° | 102km/h | 5117m | 2.0m/s | 0°C | 0% | 0hPa | 0V | 00:00:00 | 00:00:00 | 00:00:00 | |
| SP9KGR-15 | 2026-09-04 11:33:31 | 49.96466 | 21.17571 | 133° | 100km/h | 5113m | 5.4m/s | 0°C | 0% | 0hPa | 0V | 00:00:00 | 00:00:00 | 00:00:00 | |
| MIELECB | 2026-09-04 11:33:30 | 49.96482 | 21.17542 | 132° | 99km/h | 5109m | 2.7m/s | 0°C | 0% | 0hPa | 0V | 00:00:00 | 00:00:00 | 00:00:00 | |
| AKAW682 | 2026-09-04 11:33:26 | 49.96547 | 21.17426 | 132° | 99km/h | 5093m | 2.8m/s | 0°C | 0% | 0hPa | 0V | 00:00:00 | 00:00:00 | 00:00:00 | |
| MIELECB | 2026-09-04 11:33:25 | 49.96564 | 21.17397 | 135° | 102km/h | 5089m | 3.8m/s | 0°C | 0% | 0hPa | 0V | 00:00:00 | 00:00:00 | 00:00:00 | |
| MIELECB | 2026-09-04 11:33:19 | 49.96675 | 21.17220 | 133° | 104km/h | 5067m | 4.3m/s | 0°C | 0% | 0hPa | 0V | 00:00:00 | 00:00:00 | 00:00:00 | |
| SQ9PSP-11 | 2026-09-04 11:33:17 | 49.96709 | 21.17158 | 132° | 104km/h | 5058m | 3.9m/s | 0°C | 0% | 0hPa | 0V | 00:00:00 | 00:00:00 | 00:00:00 | |
| AKAW68 | 2026-09-04 11:33:14 | 49.96763 | 21.17067 | 134° | 106km/h | 5047m | 3.8m/s | 0°C | 0% | 0hPa | 0V | 00:00:00 | 00:00:00 | 00:00:00 | |
| MIELECB | 2026-09-04 11:33:12 | 49.96799 | 21.17007 | 134° | 106km/h | 5041m | 3.2m/s | 0°C | 0% | 0hPa | 0V | 00:00:00 | 00:00:00 | 00:00:00 | |
| MIELECB | 2026-09-04 11:33:07 | 49.96889 | 21.16851 | 132° | 110km/h | 5024m | 2.0m/s | 0°C | 0% | 0hPa | 0V | 00:00:00 | 00:00:00 | 00:00:00 | |
| SQ9EZE-12 | 2026-09-04 11:33:04 | 49.96944 | 21.16758 | 135° | 106km/h | 5016m | 4.4m/s | 0°C | 0% | 0hPa | 0V | 00:00:00 | 00:00:00 | 00:00:00 | |
| SQ9PSP-11 | 2026-09-04 11:33:02 | 49.96982 | 21.16700 | 137° | 104km/h | 5009m | 4.7m/s | 0°C | 0% | 0hPa | 0V | 00:00:00 | 00:00:00 | 00:00:00 | |
| MIELECB | 2026-09-04 11:33:01 | 49.97001 | 21.16670 | 135° | 106km/h | 5006m | 2.1m/s | 0°C | 0% | 0hPa | 0V | 00:00:00 | 00:00:00 | 00:00:00 | |
| MIELECB | 2026-09-04 11:32:56 | 49.97095 | 21.16510 | 133° | 111km/h | 4990m | 5.5m/s | 0°C | 0% | 0hPa | 0V | 00:00:00 | 00:00:00 | 00:00:00 | |
| AKAW68 | 2026-09-04 11:32:54 | 49.97132 | 21.16447 | 133° | 108km/h | 4981m | 7.7m/s | 0°C | 0% | 0hPa | 0V | 00:00:00 | 00:00:00 | 00:00:00 | |
| MIELECB | 2026-09-04 11:32:50 | 49.97206 | 21.16328 | 136° | 104km/h | 4962m | 5.7m/s | 0°C | 0% | 0hPa | 0V | 00:00:00 | 00:00:00 | 00:00:00 | |
| SQ9PSP-11 | 2026-09-04 11:32:46 | 49.97282 | 21.16209 | 135° | 108km/h | 4943m | 6.4m/s | 0°C | 0% | 0hPa | 0V | 00:00:00 | 00:00:00 | 00:00:00 | |
| AKAW682 | 2026-09-04 11:32:45 | 49.97301 | 21.16179 | 136° | 106km/h | 4938m | 2.9m/s | 0°C | 0% | 0hPa | 0V | 00:00:00 | 00:00:00 | 00:00:00 | |
| MIELECB | 2026-09-04 11:32:42 | 49.97358 | 21.16092 | 134° | 102km/h | 4923m | 6.5m/s | 0°C | 0% | 0hPa | 0V | 00:00:00 | 00:00:00 | 00:00:00 | |
| SP9KGR-15 | 2026-09-04 11:32:40 | 49.97394 | 21.16032 | 134° | 104km/h | 4913m | 5.0m/s | 0°C | 0% | 0hPa | 0V | 00:00:00 | 00:00:00 | 00:00:00 | |
| MIELECB | 2026-09-04 11:32:36 | 49.97471 | 21.15912 | 140° | 110km/h | 4895m | 3.8m/s | 0°C | 0% | 0hPa | 0V | 00:00:00 | 00:00:00 | 00:00:00 | |
| AKAW68 | 2026-09-04 11:32:34 | 49.97514 | 21.15855 | 139° | 111km/h | 4887m | 2.4m/s | 0°C | 0% | 0hPa | 0V | 00:00:00 | 00:00:00 | 00:00:00 | |
| SQ9EZE-12 | 2026-09-04 11:32:30 | 49.97596 | 21.15736 | 135° | 108km/h | 4874m | 1.5m/s | 0°C | 0% | 0hPa | 0V | 00:00:00 | 00:00:00 | 00:00:00 | |
| AKAW682 | 2026-09-04 11:32:25 | 49.97693 | 21.15594 | 139° | 102km/h | 4853m | 4.9m/s | 0°C | 0% | 0hPa | 0V | 00:00:00 | 00:00:00 | 00:00:00 | |
| MIELECB | 2026-09-04 11:32:24 | 49.97712 | 21.15567 | 137° | 100km/h | 4849m | 1.9m/s | 0°C | 0% | 0hPa | 0V | 00:00:00 | 00:00:00 | 00:00:00 | |
| SP9KGR-15 | 2026-09-04 11:32:22 | 49.97750 | 21.15511 | 137° | 108km/h | 4842m | 2.3m/s | 0°C | 0% | 0hPa | 0V | 00:00:00 | 00:00:00 | 00:00:00 | |
| MIELECB | 2026-09-04 11:32:18 | 49.97826 | 21.15397 | 138° | 100km/h | 4824m | 3.3m/s | 0°C | 0% | 0hPa | 0V | 00:00:00 | 00:00:00 | 00:00:00 | |
| SQ9PSP-11 | 2026-09-04 11:32:14 | 49.97899 | 21.15291 | 136° | 102km/h | 4807m | 4.1m/s | 0°C | 0% | 0hPa | 0V | 00:00:00 | 00:00:00 | 00:00:00 | |
| MIELECB | 2026-09-04 11:32:13 | 49.97917 | 21.15262 | 134° | 106km/h | 4804m | 2.2m/s | 0°C | 0% | 0hPa | 0V | 00:00:00 | 00:00:00 | 00:00:00 | |
| MIELECB | 2026-09-04 11:32:07 | 49.98025 | 21.15082 | 134° | 99km/h | 4780m | 2.2m/s | 0°C | 0% | 0hPa | 0V | 00:00:00 | 00:00:00 | 00:00:00 | |
| SP9KGR-15 | 2026-09-04 11:32:05 | 49.98059 | 21.15025 | 136° | 99km/h | 4771m | 3.5m/s | 0°C | 0% | 0hPa | 0V | 00:00:00 | 00:00:00 | 00:00:00 | |
| AKAW682 | 2026-09-04 11:32:04 | 49.98077 | 21.14997 | 136° | 102km/h | 4767m | 5.7m/s | 0°C | 0% | 0hPa | 0V | 00:00:00 | 00:00:00 | 00:00:00 | |
| MIELECB | 2026-09-04 11:32:01 | 49.98133 | 21.14911 | 135° | 100km/h | 4754m | 3.7m/s | 0°C | 0% | 0hPa | 0V | 00:00:00 | 00:00:00 | 00:00:00 | |
| SQ9PSP-11 | 2026-09-04 11:31:59 | 49.98166 | 21.14856 | 131° | 93km/h | 4747m | 4.1m/s | 0°C | 0% | 0hPa | 0V | 00:00:00 | 00:00:00 | 00:00:00 | |
| SQ9EZE-12 | 2026-09-04 11:31:58 | 49.98180 | 21.14827 | 129° | 95km/h | 4744m | 3.6m/s | 0°C | 0% | 0hPa | 0V | 00:00:00 | 00:00:00 | 00:00:00 | |
| MIELECB | 2026-09-04 11:31:56 | 49.98210 | 21.14769 | 130° | 95km/h | 4735m | 1.8m/s | 0°C | 0% | 0hPa | 0V | 00:00:00 | 00:00:00 | 00:00:00 | |
| AKAW68 | 2026-09-04 11:31:53 | 49.98260 | 21.14682 | 136° | 100km/h | 4722m | 3.7m/s | 0°C | 0% | 0hPa | 0V | 00:00:00 | 00:00:00 | 00:00:00 | |
| SQ9PSP-11 | 2026-09-04 11:31:44 | 49.98408 | 21.14430 | 131° | 95km/h | 4683m | 3.0m/s | 0°C | 0% | 0hPa | 0V | 00:00:00 | 00:00:00 | 00:00:00 | |
| SQ9EZE-12 | 2026-09-04 11:31:42 | 49.98439 | 21.14374 | 133° | 93km/h | 4677m | 1.2m/s | 0°C | 0% | 0hPa | 0V | 00:00:00 | 00:00:00 | 00:00:00 | |
| SP9KGR-15 | 2026-09-04 11:31:41 | 49.98455 | 21.14346 | 132° | 95km/h | 4673m | 4.3m/s | 0°C | 0% | 0hPa | 0V | 00:00:00 | 00:00:00 | 00:00:00 | |
| MIELECB | 2026-09-04 11:31:38 | 49.98500 | 21.14261 | 128° | 89km/h | 4662m | 2.8m/s | 0°C | 0% | 0hPa | 0V | 00:00:00 | 00:00:00 | 00:00:00 | |
| AKAW68 | 2026-09-04 11:31:32 | 49.98586 | 21.14086 | 131° | 95km/h | 4641m | 2.4m/s | 0°C | 0% | 0hPa | 0V | 00:00:00 | 00:00:00 | 00:00:00 | |
| SQ9PSP-11 | 2026-09-04 11:31:28 | 49.98646 | 21.13976 | 129° | 91km/h | 4624m | 3.1m/s | 0°C | 0% | 0hPa | 0V | 00:00:00 | 00:00:00 | 00:00:00 | |
| SQ9EZE-12 | 2026-09-04 11:31:26 | 49.98673 | 21.13920 | 128° | 89km/h | 4616m | 2.9m/s | 0°C | 0% | 0hPa | 0V | 00:00:00 | 00:00:00 | 00:00:00 | |
| AKAW682 | 2026-09-04 11:31:24 | 49.98701 | 21.13866 | 129° | 89km/h | 4608m | 3.8m/s | 0°C | 0% | 0hPa | 0V | 00:00:00 | 00:00:00 | 00:00:00 | |
| SP9KGR-15 | 2026-09-04 11:31:22 | 49.98729 | 21.13809 | 127° | 89km/h | 4601m | 4.3m/s | 0°C | 0% | 0hPa | 0V | 00:00:00 | 00:00:00 | 00:00:00 | |
| SQ9PSP-11 | 2026-09-04 11:31:12 | 49.98872 | 21.13521 | 125° | 99km/h | 4564m | 4.7m/s | 0°C | 0% | 0hPa | 0V | 00:00:00 | 00:00:00 | 00:00:00 | |
| AKAW68 | 2026-09-04 11:31:11 | 49.98887 | 21.13489 | 127° | 99km/h | 4561m | 1.9m/s | 0°C | 0% | 0hPa | 0V | 00:00:00 | 00:00:00 | 00:00:00 | |
| SQ9EZE-12 | 2026-09-04 11:31:09 | 49.98915 | 21.13430 | 127° | 89km/h | 4554m | 2.2m/s | 0°C | 0% | 0hPa | 0V | 00:00:00 | 00:00:00 | 00:00:00 | |
| SP9KGR-15 | 2026-09-04 11:31:06 | 49.98959 | 21.13345 | 131° | 95km/h | 4542m | 4.7m/s | 0°C | 0% | 0hPa | 0V | 00:00:00 | 00:00:00 | 00:00:00 | |
| MIELECB | 2026-09-04 11:31:05 | 49.98974 | 21.13316 | 130° | 95km/h | 4537m | 3.9m/s | 0°C | 0% | 0hPa | 0V | 00:00:00 | 00:00:00 | 00:00:00 | |
| AKAW682 | 2026-09-04 11:31:03 | 49.99006 | 21.13257 | 130° | 97km/h | 4528m | 5.0m/s | 0°C | 0% | 0hPa | 0V | 00:00:00 | 00:00:00 | 00:00:00 | |
| SQ9PSP-11 | 2026-09-04 11:30:56 | 49.99104 | 21.13051 | 128° | 91km/h | 4502m | 2.3m/s | 0°C | 0% | 0hPa | 0V | 00:00:00 | 00:00:00 | 00:00:00 | |
| SQ9EZE-12 | 2026-09-04 11:30:54 | 49.99132 | 21.12994 | 129° | 93km/h | 4495m | 1.9m/s | 0°C | 0% | 0hPa | 0V | 00:00:00 | 00:00:00 | 00:00:00 | |
| AKAW68 | 2026-09-04 11:30:50 | 49.99192 | 21.12876 | 130° | 99km/h | 4477m | 3.8m/s | 0°C | 0% | 0hPa | 0V | 00:00:00 | 00:00:00 | 00:00:00 | |
| MIELECB | 2026-09-04 11:30:48 | 49.99223 | 21.12818 | 131° | 95km/h | 4469m | 3.2m/s | 0°C | 0% | 0hPa | 0V | 00:00:00 | 00:00:00 | 00:00:00 | |
| AKAW682 | 2026-09-04 11:30:44 | 49.99300 | 21.12680 | 128° | 95km/h | 4452m | 2.9m/s | 0°C | 0% | 0hPa | 0V | 00:00:00 | 00:00:00 | 00:00:00 | |
| MIELECB | 2026-09-04 11:30:42 | 49.99314 | 21.12650 | 127° | 99km/h | 4449m | 3.9m/s | 0°C | 0% | 0hPa | 0V | 00:00:00 | 00:00:00 | 00:00:00 | |
| SQ9PSP-11 | 2026-09-04 11:30:41 | 49.99329 | 21.12619 | 127° | 99km/h | 4445m | 3.7m/s | 0°C | 0% | 0hPa | 0V | 00:00:00 | 00:00:00 | 00:00:00 | |
| SQ9EZE-12 | 2026-09-04 11:30:38 | 49.99371 | 21.12530 | 129° | 89km/h | 4433m | 1.9m/s | 0°C | 0% | 0hPa | 0V | 00:00:00 | 00:00:00 | 00:00:00 | |
| SP9KGR-15 | 2026-09-04 11:30:36 | 49.99399 | 21.12475 | 130° | 89km/h | 4426m | 2.6m/s | 0°C | 0% | 0hPa | 0V | 00:00:00 | 00:00:00 | 00:00:00 | |
| AKAW68 | 2026-09-04 11:30:30 | 49.99486 | 21.12297 | 125° | 100km/h | 4408m | 2.1m/s | 0°C | 0% | 0hPa | 0V | 00:00:00 | 00:00:00 | 00:00:00 | |
| SQ9PSP-11 | 2026-09-04 11:30:27 | 49.99546 | 21.12183 | 134° | 91km/h | 4394m | 3.7m/s | 0°C | 0% | 0hPa | 0V | 00:00:00 | 00:00:00 | 00:00:00 | |
| AKAW682 | 2026-09-04 11:30:23 | 49.99593 | 21.12095 | 127° | 100km/h | 4385m | 4.3m/s | 0°C | 0% | 0hPa | 0V | 00:00:00 | 00:00:00 | 00:00:00 | |
| SP9KGR-15 | 2026-09-04 11:30:14 | 49.99717 | 21.11824 | 126° | 100km/h | 4351m | 2.8m/s | 0°C | 0% | 0hPa | 0V | 00:00:00 | 00:00:00 | 00:00:00 | |
| SQ9PSP-11 | 2026-09-04 11:30:10 | 49.99774 | 21.11708 | 130° | 86km/h | 4335m | 4.1m/s | 0°C | 0% | 0hPa | 0V | 00:00:00 | 00:00:00 | 00:00:00 | |
| AKAW68 | 2026-09-04 11:30:09 | 49.99788 | 21.11682 | 131° | 89km/h | 4332m | 2.8m/s | 0°C | 0% | 0hPa | 0V | 00:00:00 | 00:00:00 | 00:00:00 | |
| SQ9EZE-12 | 2026-09-04 11:30:08 | 49.99802 | 21.11653 | 129° | 93km/h | 4328m | 5.6m/s | 0°C | 0% | 0hPa | 0V | 00:00:00 | 00:00:00 | 00:00:00 | |
| MIELECB | 2026-09-04 11:29:56 | 49.99980 | 21.11294 | 129° | 95km/h | 4273m | 3.8m/s | 0°C | 0% | 0hPa | 0V | 00:00:00 | 00:00:00 | 00:00:00 | |
| SQ9PSP-11 | 2026-09-04 11:29:55 | 49.99995 | 21.11265 | 130° | 97km/h | 4269m | 4.1m/s | 0°C | 0% | 0hPa | 0V | 00:00:00 | 00:00:00 | 00:00:00 | |
| SQ9EZE-12 | 2026-09-04 11:29:52 | 50.00042 | 21.11173 | 130° | 93km/h | 4259m | 3.0m/s | 0°C | 0% | 0hPa | 0V | 00:00:00 | 00:00:00 | 00:00:00 | |
| AKAW68 | 2026-09-04 11:29:49 | 50.00089 | 21.11090 | 134° | 97km/h | 4247m | 4.6m/s | 0°C | 0% | 0hPa | 0V | 00:00:00 | 00:00:00 | 00:00:00 | |
| MIELECB | 2026-09-04 11:29:47 | 50.00121 | 21.11031 | 129° | 104km/h | 4237m | 3.2m/s | 0°C | 0% | 0hPa | 0V | 00:00:00 | 00:00:00 | 00:00:00 | |
| AKAW682 | 2026-09-04 11:29:42 | 50.00192 | 21.10884 | 130° | 88km/h | 4219m | 4.1m/s | 0°C | 0% | 0hPa | 0V | 00:00:00 | 00:00:00 | 00:00:00 | |
| SQ9PSP-11 | 2026-09-04 11:29:40 | 50.00222 | 21.10830 | 132° | 93km/h | 4211m | 4.1m/s | 0°C | 0% | 0hPa | 0V | 00:00:00 | 00:00:00 | 00:00:00 | |
| SQ9EZE-12 | 2026-09-04 11:29:34 | 50.00312 | 21.10661 | 128° | 89km/h | 4188m | 6.1m/s | 0°C | 0% | 0hPa | 0V | 00:00:00 | 00:00:00 | 00:00:00 | |
| SP9KGR-15 | 2026-09-04 11:29:33 | 50.00325 | 21.10634 | 128° | 88km/h | 4184m | 3.2m/s | 0°C | 0% | 0hPa | 0V | 00:00:00 | 00:00:00 | 00:00:00 | |
| AKAW68 | 2026-09-04 11:29:28 | 50.00398 | 21.10501 | 133° | 95km/h | 4164m | 2.4m/s | 0°C | 0% | 0hPa | 0V | 00:00:00 | 00:00:00 | 00:00:00 | |
| SQ9PSP-11 | 2026-09-04 11:29:25 | 50.00460 | 21.10383 | 126° | 95km/h | 4153m | 3.5m/s | 0°C | 0% | 0hPa | 0V | 00:00:00 | 00:00:00 | 00:00:00 | |
| MIELECB | 2026-09-04 11:29:23 | 50.00474 | 21.10353 | 127° | 97km/h | 4149m | 3.9m/s | 0°C | 0% | 0hPa | 0V | 00:00:00 | 00:00:00 | 00:00:00 | |
| AKAW682 | 2026-09-04 11:29:21 | 50.00502 | 21.10297 | 132° | 86km/h | 4140m | 3.5m/s | 0°C | 0% | 0hPa | 0V | 00:00:00 | 00:00:00 | 00:00:00 | |
| SQ9EZE-12 | 2026-09-04 11:29:18 | 50.00547 | 21.10217 | 130° | 91km/h | 4126m | 2.9m/s | 0°C | 0% | 0hPa | 0V | 00:00:00 | 00:00:00 | 00:00:00 | |
| MIELECB | 2026-09-04 11:29:09 | 50.00671 | 21.09972 | 128° | 89km/h | 4091m | 4.1m/s | 0°C | 0% | 0hPa | 0V | 00:00:00 | 00:00:00 | 00:00:00 | |
| AKAW68 | 2026-09-04 11:29:08 | 50.00684 | 21.09943 | 126° | 89km/h | 4087m | 2.9m/s | 0°C | 0% | 0hPa | 0V | 00:00:00 | 00:00:00 | 00:00:00 | |
| SQ9EZE-12 | 2026-09-04 11:29:03 | 50.00752 | 21.09799 | 127° | 89km/h | 4068m | 4.7m/s | 0°C | 0% | 0hPa | 0V | 00:00:00 | 00:00:00 | 00:00:00 | |
| MIELECB | 2026-09-04 11:29:02 | 50.00766 | 21.09771 | 128° | 89km/h | 4064m | 2.7m/s | 0°C | 0% | 0hPa | 0V | 00:00:00 | 00:00:00 | 00:00:00 | |
| AKAW682 | 2026-09-04 11:29:00 | 50.00794 | 21.09717 | 132° | 91km/h | 4055m | 2.7m/s | 0°C | 0% | 0hPa | 0V | 00:00:00 | 00:00:00 | 00:00:00 | |
| MIELECB | 2026-09-04 11:28:57 | 50.00839 | 21.09636 | 131° | 88km/h | 4045m | 1.9m/s | 0°C | 0% | 0hPa | 0V | 00:00:00 | 00:00:00 | 00:00:00 | |
| SQ9PSP-11 | 2026-09-04 11:28:53 | 50.00895 | 21.09526 | 128° | 89km/h | 4031m | 2.4m/s | 0°C | 0% | 0hPa | 0V | 00:00:00 | 00:00:00 | 00:00:00 | |
| MIELECB | 2026-09-04 11:28:51 | 50.00923 | 21.09468 | 127° | 93km/h | 4024m | 4.0m/s | 0°C | 0% | 0hPa | 0V | 00:00:00 | 00:00:00 | 00:00:00 | |
| SQ9EZE-12 | 2026-09-04 11:28:48 | 50.00963 | 21.09382 | 127° | 88km/h | 4014m | 1.6m/s | 0°C | 0% | 0hPa | 0V | 00:00:00 | 00:00:00 | 00:00:00 | |
| AKAW68 | 2026-09-04 11:28:46 | 50.00990 | 21.09326 | 128° | 91km/h | 4007m | 2.8m/s | 0°C | 0% | 0hPa | 0V | 00:00:00 | 00:00:00 | 00:00:00 | |
| AKAW682 | 2026-09-04 11:28:39 | 50.01083 | 21.09131 | 130° | 84km/h | 3983m | 2.9m/s | 0°C | 0% | 0hPa | 0V | 00:00:00 | 00:00:00 | 00:00:00 | |
| SQ9PSP-11 | 2026-09-04 11:28:38 | 50.01097 | 21.09106 | 131° | 86km/h | 3980m | 2.8m/s | 0°C | 0% | 0hPa | 0V | 00:00:00 | 00:00:00 | 00:00:00 | |
| SQ9EZE-12 | 2026-09-04 11:28:33 | 50.01161 | 21.08968 | 125° | 91km/h | 3962m | 2.7m/s | 0°C | 0% | 0hPa | 0V | 00:00:00 | 00:00:00 | 00:00:00 | |
| AKAW68 | 2026-09-04 11:28:25 | 50.01270 | 21.08751 | 132° | 84km/h | 3929m | 3.9m/s | 0°C | 0% | 0hPa | 0V | 00:00:00 | 00:00:00 | 00:00:00 | |
| SQ9PSP-11 | 2026-09-04 11:28:22 | 50.01311 | 21.08674 | 130° | 86km/h | 3919m | 4.0m/s | 0°C | 0% | 0hPa | 0V | 00:00:00 | 00:00:00 | 00:00:00 | |
| AKAW682 | 2026-09-04 11:28:19 | 50.01350 | 21.08594 | 126° | 86km/h | 3908m | 3.4m/s | 0°C | 0% | 0hPa | 0V | 00:00:00 | 00:00:00 | 00:00:00 | |
| SQ9EZE-12 | 2026-09-04 11:28:14 | 50.01419 | 21.08448 | 128° | 95km/h | 3890m | 2.6m/s | 0°C | 0% | 0hPa | 0V | 00:00:00 | 00:00:00 | 00:00:00 | |
| SP9KGR-15 | 2026-09-04 11:28:13 | 50.01434 | 21.08419 | 127° | 89km/h | 3887m | 2.8m/s | 0°C | 0% | 0hPa | 0V | 00:00:00 | 00:00:00 | 00:00:00 | |
| MIELECB | 2026-09-04 11:28:07 | 50.01511 | 21.08260 | 129° | 80km/h | 3871m | 2.6m/s | 0°C | 0% | 0hPa | 0V | 00:00:00 | 00:00:00 | 00:00:00 | |
| SQ9PSP-11 | 2026-09-04 11:28:06 | 50.01523 | 21.08234 | 126° | 84km/h | 3868m | 3.3m/s | 0°C | 0% | 0hPa | 0V | 00:00:00 | 00:00:00 | 00:00:00 | |
| AKAW68 | 2026-09-04 11:28:04 | 50.01549 | 21.08179 | 127° | 95km/h | 3860m | 3.9m/s | 0°C | 0% | 0hPa | 0V | 00:00:00 | 00:00:00 | 00:00:00 | |
| SQ9EZE-12 | 2026-09-04 11:27:59 | 50.01618 | 21.08041 | 132° | 78km/h | 3844m | 3.9m/s | 0°C | 0% | 0hPa | 0V | 00:00:00 | 00:00:00 | 00:00:00 | |
| AKAW682 | 2026-09-04 11:27:58 | 50.01631 | 21.08019 | 135° | 75km/h | 3841m | 2.8m/s | 0°C | 0% | 0hPa | 0V | 00:00:00 | 00:00:00 | 00:00:00 | |
| SQ9PSP-11 | 2026-09-04 11:27:51 | 50.01734 | 21.07797 | 130° | 95km/h | 3806m | 4.9m/s | 0°C | 0% | 0hPa | 0V | 00:00:00 | 00:00:00 | 00:00:00 | |
| MIELECB | 2026-09-04 11:27:49 | 50.01749 | 21.07769 | 132° | 93km/h | 3802m | 4.0m/s | 0°C | 0% | 0hPa | 0V | 00:00:00 | 00:00:00 | 00:00:00 | |
| SQ9EZE-12 | 2026-09-04 11:27:44 | 50.01814 | 21.07645 | 127° | 82km/h | 3775m | 2.9m/s | 0°C | 0% | 0hPa | 0V | 00:00:00 | 00:00:00 | 00:00:00 | |
| AKAW68 | 2026-09-04 11:27:43 | 50.01827 | 21.07617 | 126° | 89km/h | 3771m | 2.8m/s | 0°C | 0% | 0hPa | 0V | 00:00:00 | 00:00:00 | 00:00:00 | |
| AKAW682 | 2026-09-04 11:27:38 | 50.01900 | 21.07469 | 130° | 93km/h | 3750m | 2.2m/s | 0°C | 0% | 0hPa | 0V | 00:00:00 | 00:00:00 | 00:00:00 | |
| SQ9PSP-11 | 2026-09-04 11:27:35 | 50.01938 | 21.07381 | 123° | 89km/h | 3729m | 4.2m/s | 0°C | 0% | 0hPa | 0V | 00:00:00 | 00:00:00 | 00:00:00 | |
| MIELECB | 2026-09-04 11:27:31 | 50.01990 | 21.07254 | 125° | 100km/h | 3707m | 5.6m/s | 0°C | 0% | 0hPa | 0V | 00:00:00 | 00:00:00 | 00:00:00 | |
| AKAW68 | 2026-09-04 11:27:23 | 50.02096 | 21.07030 | 131° | 95km/h | 3668m | 5.0m/s | 0°C | 0% | 0hPa | 0V | 00:00:00 | 00:00:00 | 00:00:00 | |
| SQ9EZE-12 | 2026-09-04 11:27:22 | 50.02111 | 21.07001 | 129° | 95km/h | 3664m | 2.5m/s | 0°C | 0% | 0hPa | 0V | 00:00:00 | 00:00:00 | 00:00:00 | |
| SQ9PSP-11 | 2026-09-04 11:27:19 | 50.02152 | 21.06912 | 122° | 88km/h | 3651m | 2.4m/s | 0°C | 0% | 0hPa | 0V | 00:00:00 | 00:00:00 | 00:00:00 | |
| MIELECB | 2026-09-04 11:27:12 | 50.02238 | 21.06717 | 125° | 78km/h | 3620m | 3.8m/s | 0°C | 0% | 0hPa | 0V | 00:00:00 | 00:00:00 | 00:00:00 | |
| AKAW682 | 2026-09-04 11:27:11 | 50.02249 | 21.06692 | 125° | 78km/h | 3616m | 2.9m/s | 0°C | 0% | 0hPa | 0V | 00:00:00 | 00:00:00 | 00:00:00 | |
| MIELECB | 2026-09-04 11:27:06 | 50.02316 | 21.06550 | 129° | 97km/h | 3598m | 2.7m/s | 0°C | 0% | 0hPa | 0V | 00:00:00 | 00:00:00 | 00:00:00 | |
| SQ9EZE-12 | 2026-09-04 11:27:05 | 50.02331 | 21.06520 | 127° | 97km/h | 3595m | 3.1m/s | 0°C | 0% | 0hPa | 0V | 00:00:00 | 00:00:00 | 00:00:00 | |
| SQ9PSP-11 | 2026-09-04 11:27:04 | 50.02345 | 21.06488 | 127° | 99km/h | 3591m | 3.4m/s | 0°C | 0% | 0hPa | 0V | 00:00:00 | 00:00:00 | 00:00:00 | |
| AKAW68 | 2026-09-04 11:27:02 | 50.02374 | 21.06423 | 124° | 99km/h | 3585m | 2.2m/s | 0°C | 0% | 0hPa | 0V | 00:00:00 | 00:00:00 | 00:00:00 | |
| MIELECB | 2026-09-04 11:27:00 | 50.02402 | 21.06362 | 130° | 91km/h | 3576m | 6.3m/s | 0°C | 0% | 0hPa | 0V | 00:00:00 | 00:00:00 | 00:00:00 | |
| SQ9EZE-12 | 2026-09-04 11:26:49 | 50.02534 | 21.06081 | 128° | 84km/h | 3520m | 5.4m/s | 0°C | 0% | 0hPa | 0V | 00:00:00 | 00:00:00 | 00:00:00 | |
| SQ9PSP-11 | 2026-09-04 11:26:48 | 50.02546 | 21.06055 | 128° | 78km/h | 3516m | 3.7m/s | 0°C | 0% | 0hPa | 0V | 00:00:00 | 00:00:00 | 00:00:00 | |
| AKAW68 | 2026-09-04 11:26:39 | 50.02656 | 21.05833 | 125° | 86km/h | 3485m | 2.3m/s | 0°C | 0% | 0hPa | 0V | 00:00:00 | 00:00:00 | 00:00:00 | |
| SQ9EZE-12 | 2026-09-04 11:26:33 | 50.02740 | 21.05682 | 135° | 75km/h | 3461m | 3.3m/s | 0°C | 0% | 0hPa | 0V | 00:00:00 | 00:00:00 | 00:00:00 | |
| SQ9PSP-11 | 2026-09-04 11:26:32 | 50.02753 | 21.05662 | 134° | 68km/h | 3457m | 5.8m/s | 0°C | 0% | 0hPa | 0V | 00:00:00 | 00:00:00 | 00:00:00 | |
| SQ9PSP-11 | 2026-09-04 11:26:17 | 50.02884 | 21.05267 | 132° | 68km/h | 3383m | 5.4m/s | 0°C | 0% | 0hPa | 0V | 00:00:00 | 00:00:00 | 00:00:00 | |
| MIELECB | 2026-09-04 11:26:15 | 50.02896 | 21.05246 | 131° | 71km/h | 3378m | 4.4m/s | 0°C | 0% | 0hPa | 0V | 00:00:00 | 00:00:00 | 00:00:00 | |
| SQ9EZE-12 | 2026-09-04 11:26:13 | 50.02917 | 21.05200 | 121° | 73km/h | 3370m | 3.7m/s | 0°C | 0% | 0hPa | 0V | 00:00:00 | 00:00:00 | 00:00:00 | |
| MIELECB | 2026-09-04 11:26:04 | 50.03003 | 21.04968 | 132° | 66km/h | 3337m | 3.3m/s | 0°C | 0% | 0hPa | 0V | 00:00:00 | 00:00:00 | 00:00:00 | |
| SQ9PSP-11 | 2026-09-04 11:26:01 | 50.03036 | 21.04902 | 124° | 77km/h | 3323m | 4.9m/s | 0°C | 0% | 0hPa | 0V | 00:00:00 | 00:00:00 | 00:00:00 | |
| MIELECB | 2026-09-04 11:25:57 | 50.03071 | 21.04790 | 113° | 80km/h | 3303m | 4.4m/s | 0°C | 0% | 0hPa | 0V | 00:00:00 | 00:00:00 | 00:00:00 | |
| AKAW68 | 2026-09-04 11:25:53 | 50.03105 | 21.04690 | 128° | 64km/h | 3284m | 4.7m/s | 0°C | 0% | 0hPa | 0V | 00:00:00 | 00:00:00 | 00:00:00 | |
| SQ9PSP-11 | 2026-09-04 11:25:45 | 50.03162 | 21.04539 | 100° | 55km/h | 3253m | 5.6m/s | 0°C | 0% | 0hPa | 0V | 00:00:00 | 00:00:00 | 00:00:00 | |
| SQ9EZE-12 | 2026-09-04 11:25:30 | 50.03236 | 21.04226 | 113° | 51km/h | 3176m | 4.2m/s | 0°C | 0% | 0hPa | 0V | 00:00:00 | 00:00:00 | 00:00:00 | |
| AKAW68 | 2026-09-04 11:25:29 | 50.03241 | 21.04206 | 113° | 60km/h | 3172m | 3.0m/s | 0°C | 0% | 0hPa | 0V | 00:00:00 | 00:00:00 | 00:00:00 | |
| SQ9EZE-14 | 2026-09-04 11:25:27 | 50.03251 | 21.04159 | 109° | 64km/h | 3164m | 4.9m/s | 0°C | 0% | 0hPa | 0V | 00:00:00 | 00:00:00 | 00:00:00 | |
| SQ9PSP-11 | 2026-09-04 11:25:26 | 50.03256 | 21.04135 | 109° | 58km/h | 3159m | 3.5m/s | 0°C | 0% | 0hPa | 0V | 00:00:00 | 00:00:00 | 00:00:00 | |
| SP9KGR-15 | 2026-09-04 11:25:23 | 50.03267 | 21.04075 | 105° | 53km/h | 3144m | 4.4m/s | 0°C | 0% | 0hPa | 0V | 00:00:00 | 00:00:00 | 00:00:00 | |
| SQ9EZE-14 | 2026-09-04 11:25:12 | 50.03300 | 21.03847 | 111° | 53km/h | 3098m | 2.6m/s | 0°C | 0% | 0hPa | 0V | 00:00:00 | 00:00:00 | 00:00:00 | |
| SQ9PSP-11 | 2026-09-04 11:25:10 | 50.03308 | 21.03805 | 101° | 55km/h | 3089m | 4.6m/s | 0°C | 0% | 0hPa | 0V | 00:00:00 | 00:00:00 | 00:00:00 | |
| AKAW68 | 2026-09-04 11:25:04 | 50.03317 | 21.03689 | 105° | 51km/h | 3065m | 4.6m/s | 0°C | 0% | 0hPa | 0V | 00:00:00 | 00:00:00 | 00:00:00 | |
| SQ9EZE-12 | 2026-09-04 11:24:57 | 50.03340 | 21.03541 | 102° | 55km/h | 3037m | 5.5m/s | 0°C | 0% | 0hPa | 0V | 00:00:00 | 00:00:00 | 00:00:00 | |
| SQ9PSP-11 | 2026-09-04 11:24:55 | 50.03346 | 21.03499 | 104° | 53km/h | 3027m | 6.0m/s | 0°C | 0% | 0hPa | 0V | 00:00:00 | 00:00:00 | 00:00:00 | |
| SP9KGR-15 | 2026-09-04 11:24:48 | 50.03362 | 21.03370 | 92° | 46km/h | 2996m | 5.1m/s | 0°C | 0% | 0hPa | 0V | 00:00:00 | 00:00:00 | 00:00:00 | |
| AKAW68 | 2026-09-04 11:24:44 | 50.03367 | 21.03287 | 107° | 57km/h | 2978m | 4.0m/s | 0°C | 0% | 0hPa | 0V | 00:00:00 | 00:00:00 | 00:00:00 | |
| SQ9PSP-11 | 2026-09-04 11:24:40 | 50.03377 | 21.03207 | 88° | 51km/h | 2959m | 4.0m/s | 0°C | 0% | 0hPa | 0V | 00:00:00 | 00:00:00 | 00:00:00 | |
| SP9KGR-15 | 2026-09-04 11:24:30 | 50.03395 | 21.02990 | 87° | 58km/h | 2912m | 4.7m/s | 0°C | 0% | 0hPa | 0V | 00:00:00 | 00:00:00 | 00:00:00 | |
| SQ9PSP-11 | 2026-09-04 11:24:24 | 50.03400 | 21.02858 | 105° | 66km/h | 2889m | 3.8m/s | 0°C | 0% | 0hPa | 0V | 00:00:00 | 00:00:00 | 00:00:00 | |
| SQ9EZE-12 | 2026-09-04 11:24:23 | 50.03404 | 21.02832 | 101° | 71km/h | 2885m | 2.6m/s | 0°C | 0% | 0hPa | 0V | 00:00:00 | 00:00:00 | 00:00:00 | |
| AKAW68 | 2026-09-04 11:24:21 | 50.03408 | 21.02776 | 93° | 71km/h | 2878m | 3.1m/s | 0°C | 0% | 0hPa | 0V | 00:00:00 | 00:00:00 | 00:00:00 | |
| SQ9PSP-11 | 2026-09-04 11:24:09 | 50.03418 | 21.02492 | 93° | 55km/h | 2821m | 2.8m/s | 0°C | 0% | 0hPa | 0V | 00:00:00 | 00:00:00 | 00:00:00 | |
| SQ9EZE-12 | 2026-09-04 11:24:05 | 50.03423 | 21.02406 | 98° | 57km/h | 2802m | 4.1m/s | 0°C | 0% | 0hPa | 0V | 00:00:00 | 00:00:00 | 00:00:00 | |
| AKAW68 | 2026-09-04 11:24:00 | 50.03428 | 21.02293 | 95° | 55km/h | 2786m | 3.0m/s | 0°C | 0% | 0hPa | 0V | 00:00:00 | 00:00:00 | 00:00:00 | |
| SQ9EZE-12 | 2026-09-04 11:23:43 | 50.03441 | 21.01917 | 95° | 62km/h | 2708m | 2.8m/s | 0°C | 0% | 0hPa | 0V | 00:00:00 | 00:00:00 | 00:00:00 | |
| AKAW68 | 2026-09-04 11:23:40 | 50.03441 | 21.01851 | 90° | 51km/h | 2695m | 3.2m/s | 0°C | 0% | 0hPa | 0V | 00:00:00 | 00:00:00 | 00:00:00 | |
| SQ9PSP-11 | 2026-09-04 11:23:25 | 50.03448 | 21.01537 | 97° | 46km/h | 2626m | 4.0m/s | 0°C | 0% | 0hPa | 0V | 00:00:00 | 00:00:00 | 00:00:00 | |
| AKAW68 | 2026-09-04 11:23:18 | 50.03455 | 21.01400 | 99° | 51km/h | 2590m | 2.8m/s | 0°C | 0% | 0hPa | 0V | 00:00:00 | 00:00:00 | 00:00:00 | |
| SQ9EZE-12 | 2026-09-04 11:23:12 | 50.03460 | 21.01273 | 90° | 51km/h | 2559m | 5.1m/s | 0°C | 0% | 0hPa | 0V | 00:00:00 | 00:00:00 | 00:00:00 | |
| SQ9PSP-11 | 2026-09-04 11:23:02 | 50.03463 | 21.01075 | 96° | 53km/h | 2505m | 4.8m/s | 0°C | 0% | 0hPa | 0V | 00:00:00 | 00:00:00 | 00:00:00 | |
| AKAW68 | 2026-09-04 11:22:57 | 50.03474 | 21.00969 | 93° | 44km/h | 2483m | 3.0m/s | 0°C | 0% | 0hPa | 0V | 00:00:00 | 00:00:00 | 00:00:00 | |
| SP9KGR-15 | 2026-09-04 11:22:56 | 50.03475 | 21.00952 | 97° | 40km/h | 2478m | 6.6m/s | 0°C | 0% | 0hPa | 0V | 00:00:00 | 00:00:00 | 00:00:00 | |
| SQ9PSP-11 | 2026-09-04 11:22:46 | 50.03485 | 21.00776 | 93° | 38km/h | 2429m | 4.8m/s | 0°C | 0% | 0hPa | 0V | 00:00:00 | 00:00:00 | 00:00:00 | |
| SQ9EZE-12 | 2026-09-04 11:22:40 | 50.03487 | 21.00662 | 91° | 49km/h | 2397m | 2.8m/s | 0°C | 0% | 0hPa | 0V | 00:00:00 | 00:00:00 | 00:00:00 | |
| AKAW68 | 2026-09-04 11:22:36 | 50.03496 | 21.00594 | 110° | 38km/h | 2384m | 3.1m/s | 0°C | 0% | 0hPa | 0V | 00:00:00 | 00:00:00 | 00:00:00 | |
| SP9KGR-15 | 2026-09-04 11:22:34 | 50.03498 | 21.00566 | 91° | 37km/h | 2376m | 2.9m/s | 0°C | 0% | 0hPa | 0V | 00:00:00 | 00:00:00 | 00:00:00 | |
| SQ9PSP-11 | 2026-09-04 11:22:30 | 50.03495 | 21.00509 | 98° | 33km/h | 2360m | 3.5m/s | 0°C | 0% | 0hPa | 0V | 00:00:00 | 00:00:00 | 00:00:00 | |
| AKAW68 | 2026-09-04 11:22:15 | 50.03529 | 21.00272 | 99° | 58km/h | 2285m | 4.4m/s | 0°C | 0% | 0hPa | 0V | 00:00:00 | 00:00:00 | 00:00:00 | |
| SQ9PSP-11 | 2026-09-04 11:22:06 | 50.03547 | 21.00086 | 94° | 46km/h | 2238m | 3.4m/s | 0°C | 0% | 0hPa | 0V | 00:00:00 | 00:00:00 | 00:00:00 | |
| SP9KGR-15 | 2026-09-04 11:22:02 | 50.03542 | 21.00008 | 84° | 51km/h | 2221m | 4.8m/s | 0°C | 0% | 0hPa | 0V | 00:00:00 | 00:00:00 | 00:00:00 | |
| SQ9EZE-12 | 2026-09-04 11:22:01 | 50.03540 | 20.99989 | 84° | 47km/h | 2216m | 2.0m/s | 0°C | 0% | 0hPa | 0V | 00:00:00 | 00:00:00 | 00:00:00 | |
| AKAW68 | 2026-09-04 11:21:54 | 50.03554 | 20.99862 | 109° | 66km/h | 2187m | 5.7m/s | 0°C | 0% | 0hPa | 0V | 00:00:00 | 00:00:00 | 00:00:00 | |
| AKAW68 | 2026-09-04 11:21:33 | 50.03579 | 20.99369 | 97° | 62km/h | 2063m | 7.1m/s | 0°C | 0% | 0hPa | 0V | 00:00:00 | 00:00:00 | 00:00:00 | |
| SQ9PSP-11 | 2026-09-04 11:21:30 | 50.03581 | 20.99304 | 90° | 44km/h | 2041m | 5.9m/s | 0°C | 0% | 0hPa | 0V | 00:00:00 | 00:00:00 | 00:00:00 | |
| SQ9PSP-11 | 2026-09-04 11:21:14 | 50.03596 | 20.98936 | 111° | 47km/h | 1962m | 5.3m/s | 0°C | 0% | 0hPa | 0V | 00:00:00 | 00:00:00 | 00:00:00 | |
| AKAW68 | 2026-09-04 11:21:12 | 50.03602 | 20.98903 | 93° | 44km/h | 1952m | 4.8m/s | 0°C | 0% | 0hPa | 0V | 00:00:00 | 00:00:00 | 00:00:00 | |
| AKAW68 | 2026-09-04 11:20:52 | 50.03609 | 20.98492 | 78° | 57km/h | 1837m | 3.7m/s | 0°C | 0% | 0hPa | 0V | 00:00:00 | 00:00:00 | 00:00:00 | |
| AKAW68 | 2026-09-04 11:20:29 | 50.03601 | 20.98005 | 104° | 38km/h | 1702m | 5.8m/s | 0°C | 0% | 0hPa | 0V | 00:00:00 | 00:00:00 | 00:00:00 | |
| AKAW68 | 2026-09-04 11:20:03 | 50.03564 | 20.97544 | 81° | 49km/h | 1553m | 4.8m/s | 0°C | 0% | 0hPa | 0V | 00:00:00 | 00:00:00 | 00:00:00 | |
| AKAW68 | 2026-09-04 11:19:30 | 50.03483 | 20.96906 | 87° | 60km/h | 1383m | 4.8m/s | 0°C | 0% | 0hPa | 0V | 00:00:00 | 00:00:00 | 00:00:00 | |
| AKAW68 | 2026-09-04 11:19:01 | 50.03412 | 20.96425 | 78° | 55km/h | 1244m | 3.2m/s | 0°C | 0% | 0hPa | 0V | 00:00:00 | 00:00:00 | 00:00:00 |